<?xml version="1.0" encoding="UTF-8" standalone="no" ?>
<gpx xmlns="http://www.topografix.com/GPX/1/1" xmlns:xsi="http://www.w3.org/2001/XMLSchema-instance" xsi:schemaLocation="http://www.topografix.com/GPX/1/1 http://www.topografix.com/GPX/1/1/gpx.xsd" version="1.1" creator="VisuGPX - https://www.visugpx.com">
  <metadata>
    <name>Velo vert 02</name>
  </metadata>
  <trk>
    <name><![CDATA[04/06/23 VVFestival | X-Mountain Schwalbe]]></name>
    <extensions>
      <line xmlns="http://www.topografix.com/GPX/gpx_style/0/2">
        <color>0000FF</color>
        <width>4</width>
      </line>
    </extensions>
    <trkseg>
      <trkpt lat="46.07726" lon="6.72227">
        <ele>697.297308</ele>
        <time>2023-03-14T21:43:53.537Z</time>
      </trkpt>
      <trkpt lat="46.07749" lon="6.72309">
        <ele>697.297308</ele>
        <time>2023-03-14T21:44:07.240Z</time>
      </trkpt>
      <trkpt lat="46.07787" lon="6.72446">
        <ele>697.721653</ele>
        <time>2023-03-14T21:44:30.125Z</time>
      </trkpt>
      <trkpt lat="46.07795" lon="6.7247">
        <ele>697.82882</ele>
        <time>2023-03-14T21:44:34.294Z</time>
      </trkpt>
      <trkpt lat="46.07809" lon="6.72495">
        <ele>697.956467</ele>
        <time>2023-03-14T21:44:39.162Z</time>
      </trkpt>
      <trkpt lat="46.07836" lon="6.72516">
        <ele>698.131394</ele>
        <time>2023-03-14T21:44:45.767Z</time>
      </trkpt>
      <trkpt lat="46.07865" lon="6.72541">
        <ele>698.323415</ele>
        <time>2023-03-14T21:44:52.997Z</time>
      </trkpt>
      <trkpt lat="46.0788" lon="6.72553">
        <ele>698.407035</ele>
        <time>2023-03-14T21:44:56.820Z</time>
      </trkpt>
      <trkpt lat="46.07903" lon="6.72564">
        <ele>698.520167</ele>
        <time>2023-03-14T21:45:02.072Z</time>
      </trkpt>
      <trkpt lat="46.0793" lon="6.72583">
        <ele>698.657943</ele>
        <time>2023-03-14T21:45:08.586Z</time>
      </trkpt>
      <trkpt lat="46.07932" lon="6.72575">
        <ele>698.685303</ele>
        <time>2023-03-14T21:45:10.192Z</time>
      </trkpt>
      <trkpt lat="46.07953" lon="6.72591">
        <ele>698.793311</ele>
        <time>2023-03-14T21:45:16.867Z</time>
      </trkpt>
      <trkpt lat="46.07955" lon="6.72596">
        <ele>698.813164</ele>
        <time>2023-03-14T21:45:18.080Z</time>
      </trkpt>
      <trkpt lat="46.07953" lon="6.72601">
        <ele>698.828013</ele>
        <time>2023-03-14T21:45:19.013Z</time>
      </trkpt>
      <trkpt lat="46.07983" lon="6.72623">
        <ele>698.984853</ele>
        <time>2023-03-14T21:45:26.224Z</time>
      </trkpt>
      <trkpt lat="46.08035" lon="6.72665">
        <ele>699.10345</ele>
        <time>2023-03-14T21:45:38.436Z</time>
      </trkpt>
      <trkpt lat="46.08043" lon="6.72682">
        <ele>699.059626</ele>
        <time>2023-03-14T21:45:41.411Z</time>
      </trkpt>
      <trkpt lat="46.08047" lon="6.72708">
        <ele>699.004361</ele>
        <time>2023-03-14T21:45:44.788Z</time>
      </trkpt>
      <trkpt lat="46.08047" lon="6.72715">
        <ele>698.988625</ele>
        <time>2023-03-14T21:45:45.806Z</time>
      </trkpt>
      <trkpt lat="46.08052" lon="6.72727">
        <ele>698.959153</ele>
        <time>2023-03-14T21:45:47.672Z</time>
      </trkpt>
      <trkpt lat="46.08061" lon="6.7273">
        <ele>698.929908</ele>
        <time>2023-03-14T21:45:49.502Z</time>
      </trkpt>
      <trkpt lat="46.08063" lon="6.72729">
        <ele>698.924161</ele>
        <time>2023-03-14T21:45:49.844Z</time>
      </trkpt>
      <trkpt lat="46.08069" lon="6.72722">
        <ele>698.900945</ele>
        <time>2023-03-14T21:45:51.218Z</time>
      </trkpt>
      <trkpt lat="46.0807" lon="6.72711">
        <ele>698.877571</ele>
        <time>2023-03-14T21:45:52.636Z</time>
      </trkpt>
      <trkpt lat="46.0807" lon="6.72709">
        <ele>698.873713</ele>
        <time>2023-03-14T21:45:52.860Z</time>
      </trkpt>
      <trkpt lat="46.08074" lon="6.72683">
        <ele>698.815835</ele>
        <time>2023-03-14T21:45:56.354Z</time>
      </trkpt>
      <trkpt lat="46.08076" lon="6.72679">
        <ele>698.806429</ele>
        <time>2023-03-14T21:45:56.896Z</time>
      </trkpt>
      <trkpt lat="46.08085" lon="6.72662">
        <ele>698.76096</ele>
        <time>2023-03-14T21:45:59.527Z</time>
      </trkpt>
      <trkpt lat="46.08095" lon="6.72644">
        <ele>698.712551</ele>
        <time>2023-03-14T21:46:02.373Z</time>
      </trkpt>
      <trkpt lat="46.08103" lon="6.72629">
        <ele>698.672651</ele>
        <time>2023-03-14T21:46:04.603Z</time>
      </trkpt>
      <trkpt lat="46.08119" lon="6.72601">
        <ele>698.547231</ele>
        <time>2023-03-14T21:46:08.945Z</time>
      </trkpt>
      <trkpt lat="46.08122" lon="6.72596">
        <ele>698.501192</ele>
        <time>2023-03-14T21:46:09.698Z</time>
      </trkpt>
      <trkpt lat="46.08135" lon="6.72572">
        <ele>698.288775</ele>
        <time>2023-03-14T21:46:13.275Z</time>
      </trkpt>
      <trkpt lat="46.08156" lon="6.72533">
        <ele>697.943961</ele>
        <time>2023-03-14T21:46:18.890Z</time>
      </trkpt>
      <trkpt lat="46.08187" lon="6.72476">
        <ele>697.432771</ele>
        <time>2023-03-14T21:46:27.214Z</time>
      </trkpt>
      <trkpt lat="46.08192" lon="6.72467">
        <ele>697.358469</ele>
        <time>2023-03-14T21:46:28.434Z</time>
      </trkpt>
      <trkpt lat="46.08195" lon="6.72461">
        <ele>697.303813</ele>
        <time>2023-03-14T21:46:29.340Z</time>
      </trkpt>
      <trkpt lat="46.08224" lon="6.72408">
        <ele>696.831843</ele>
        <time>2023-03-14T21:46:37.255Z</time>
      </trkpt>
      <trkpt lat="46.08229" lon="6.72402">
        <ele>696.808746</ele>
        <time>2023-03-14T21:46:38.375Z</time>
      </trkpt>
      <trkpt lat="46.08236" lon="6.7241">
        <ele>696.820104</ele>
        <time>2023-03-14T21:46:39.997Z</time>
      </trkpt>
      <trkpt lat="46.08245" lon="6.72409">
        <ele>696.830802</ele>
        <time>2023-03-14T21:46:41.509Z</time>
      </trkpt>
      <trkpt lat="46.08251" lon="6.72397">
        <ele>696.844093</ele>
        <time>2023-03-14T21:46:43.393Z</time>
      </trkpt>
      <trkpt lat="46.0825" lon="6.72385">
        <ele>696.855049</ele>
        <time>2023-03-14T21:46:44.892Z</time>
      </trkpt>
      <trkpt lat="46.08258" lon="6.72374">
        <ele>696.86772</ele>
        <time>2023-03-14T21:46:46.783Z</time>
      </trkpt>
      <trkpt lat="46.08276" lon="6.72339">
        <ele>696.906264</ele>
        <time>2023-03-14T21:46:52.567Z</time>
      </trkpt>
      <trkpt lat="46.08284" lon="6.72334">
        <ele>696.916598</ele>
        <time>2023-03-14T21:46:54.260Z</time>
      </trkpt>
      <trkpt lat="46.08301" lon="6.72329">
        <ele>696.939027</ele>
        <time>2023-03-14T21:46:57.725Z</time>
      </trkpt>
      <trkpt lat="46.08303" lon="6.72329">
        <ele>696.940942</ele>
        <time>2023-03-14T21:46:57.998Z</time>
      </trkpt>
      <trkpt lat="46.08304" lon="6.72329">
        <ele>696.943076</ele>
        <time>2023-03-14T21:46:58.321Z</time>
      </trkpt>
      <trkpt lat="46.08306" lon="6.72329">
        <ele>696.944868</ele>
        <time>2023-03-14T21:46:58.581Z</time>
      </trkpt>
      <trkpt lat="46.08307" lon="6.7233">
        <ele>696.947132</ele>
        <time>2023-03-14T21:46:58.957Z</time>
      </trkpt>
      <trkpt lat="46.08313" lon="6.72335">
        <ele>696.955418</ele>
        <time>2023-03-14T21:47:00.371Z</time>
      </trkpt>
      <trkpt lat="46.08391" lon="6.72399">
        <ele>697.675335</ele>
        <time>2023-03-14T21:47:21.571Z</time>
      </trkpt>
      <trkpt lat="46.08401" lon="6.72406">
        <ele>697.914561</ele>
        <time>2023-03-14T21:47:24.284Z</time>
      </trkpt>
      <trkpt lat="46.08404" lon="6.72409">
        <ele>697.990469</ele>
        <time>2023-03-14T21:47:25.247Z</time>
      </trkpt>
      <trkpt lat="46.08406" lon="6.72411">
        <ele>698.053432</ele>
        <time>2023-03-14T21:47:26.246Z</time>
      </trkpt>
      <trkpt lat="46.08409" lon="6.72412">
        <ele>698.111338</ele>
        <time>2023-03-14T21:47:27.218Z</time>
      </trkpt>
      <trkpt lat="46.08417" lon="6.72414">
        <ele>698.280391</ele>
        <time>2023-03-14T21:47:29.648Z</time>
      </trkpt>
      <trkpt lat="46.08422" lon="6.72413">
        <ele>698.387746</ele>
        <time>2023-03-14T21:47:31.162Z</time>
      </trkpt>
      <trkpt lat="46.08429" lon="6.72386">
        <ele>698.811404</ele>
        <time>2023-03-14T21:47:36.500Z</time>
      </trkpt>
      <trkpt lat="46.08443" lon="6.72395">
        <ele>699.150156</ele>
        <time>2023-03-14T21:47:42.059Z</time>
      </trkpt>
      <trkpt lat="46.08452" lon="6.7238">
        <ele>699.441363</ele>
        <time>2023-03-14T21:47:46.489Z</time>
      </trkpt>
      <trkpt lat="46.08501" lon="6.72311">
        <ele>700.911436</ele>
        <time>2023-03-14T21:48:09.674Z</time>
      </trkpt>
      <trkpt lat="46.08526" lon="6.72273">
        <ele>701.804281</ele>
        <time>2023-03-14T21:48:21.342Z</time>
      </trkpt>
      <trkpt lat="46.0854" lon="6.72263">
        <ele>702.207793</ele>
        <time>2023-03-14T21:48:26.155Z</time>
      </trkpt>
      <trkpt lat="46.08557" lon="6.72258">
        <ele>702.620185</ele>
        <time>2023-03-14T21:48:31.807Z</time>
      </trkpt>
      <trkpt lat="46.08559" lon="6.72258">
        <ele>702.683216</ele>
        <time>2023-03-14T21:48:32.731Z</time>
      </trkpt>
      <trkpt lat="46.08574" lon="6.72236">
        <ele>703.199271</ele>
        <time>2023-03-14T21:48:39.443Z</time>
      </trkpt>
      <trkpt lat="46.0862" lon="6.72132">
        <ele>705.332328</ele>
        <time>2023-03-14T21:49:07.052Z</time>
      </trkpt>
      <trkpt lat="46.08628" lon="6.72121">
        <ele>705.557502</ele>
        <time>2023-03-14T21:49:10.279Z</time>
      </trkpt>
      <trkpt lat="46.08644" lon="6.72108">
        <ele>705.937359</ele>
        <time>2023-03-14T21:49:15.906Z</time>
      </trkpt>
      <trkpt lat="46.08652" lon="6.72097">
        <ele>706.170369</ele>
        <time>2023-03-14T21:49:19.591Z</time>
      </trkpt>
      <trkpt lat="46.08679" lon="6.71988">
        <ele>707.828292</ele>
        <time>2023-03-14T21:49:43.133Z</time>
      </trkpt>
      <trkpt lat="46.08712" lon="6.71918">
        <ele>709.033141</ele>
        <time>2023-03-14T21:50:01.006Z</time>
      </trkpt>
      <trkpt lat="46.08727" lon="6.71871">
        <ele>710.085705</ele>
        <time>2023-03-14T21:50:12.297Z</time>
      </trkpt>
      <trkpt lat="46.08798" lon="6.71573">
        <ele>718.024296</ele>
        <time>2023-03-14T21:51:31.366Z</time>
      </trkpt>
      <trkpt lat="46.08798" lon="6.71573">
        <ele>718.045339</ele>
        <time>2023-03-14T21:51:32.250Z</time>
      </trkpt>
      <trkpt lat="46.08798" lon="6.71559">
        <ele>718.509218</ele>
        <time>2023-03-14T21:51:36.419Z</time>
      </trkpt>
      <trkpt lat="46.08793" lon="6.71542">
        <ele>719.149624</ele>
        <time>2023-03-14T21:51:40.826Z</time>
      </trkpt>
      <trkpt lat="46.08763" lon="6.7149">
        <ele>721.462812</ele>
        <time>2023-03-14T21:52:02.633Z</time>
      </trkpt>
      <trkpt lat="46.08741" lon="6.71455">
        <ele>723.066133</ele>
        <time>2023-03-14T21:52:19.028Z</time>
      </trkpt>
      <trkpt lat="46.08732" lon="6.71434">
        <ele>724.041353</ele>
        <time>2023-03-14T21:52:31.758Z</time>
      </trkpt>
      <trkpt lat="46.08728" lon="6.71406">
        <ele>725.18298</ele>
        <time>2023-03-14T21:52:39.687Z</time>
      </trkpt>
      <trkpt lat="46.08729" lon="6.71387">
        <ele>725.961678</ele>
        <time>2023-03-14T21:52:50.261Z</time>
      </trkpt>
      <trkpt lat="46.08731" lon="6.71379">
        <ele>726.297227</ele>
        <time>2023-03-14T21:52:53.297Z</time>
      </trkpt>
      <trkpt lat="46.08739" lon="6.71304">
        <ele>729.378096</ele>
        <time>2023-03-14T21:53:17.374Z</time>
      </trkpt>
      <trkpt lat="46.08735" lon="6.71251">
        <ele>731.557098</ele>
        <time>2023-03-14T21:53:35.705Z</time>
      </trkpt>
      <trkpt lat="46.08733" lon="6.71219">
        <ele>732.8569</ele>
        <time>2023-03-14T21:53:47.891Z</time>
      </trkpt>
      <trkpt lat="46.08737" lon="6.71196">
        <ele>733.814352</ele>
        <time>2023-03-14T21:53:54.644Z</time>
      </trkpt>
      <trkpt lat="46.08782" lon="6.71123">
        <ele>736.227805</ele>
        <time>2023-03-14T21:54:21.815Z</time>
      </trkpt>
      <trkpt lat="46.08791" lon="6.71101">
        <ele>736.863274</ele>
        <time>2023-03-14T21:54:27.875Z</time>
      </trkpt>
      <trkpt lat="46.08811" lon="6.70921">
        <ele>742.389972</ele>
        <time>2023-03-14T21:55:10.549Z</time>
      </trkpt>
      <trkpt lat="46.08836" lon="6.7082">
        <ele>747.368051</ele>
        <time>2023-03-14T21:55:48.140Z</time>
      </trkpt>
      <trkpt lat="46.08852" lon="6.70782">
        <ele>749.395667</ele>
        <time>2023-03-14T21:56:06.691Z</time>
      </trkpt>
      <trkpt lat="46.08856" lon="6.70776">
        <ele>749.789043</ele>
        <time>2023-03-14T21:56:11.130Z</time>
      </trkpt>
      <trkpt lat="46.0886" lon="6.70768">
        <ele>750.215004</ele>
        <time>2023-03-14T21:56:15.307Z</time>
      </trkpt>
      <trkpt lat="46.08864" lon="6.7076">
        <ele>750.700671</ele>
        <time>2023-03-14T21:56:19.746Z</time>
      </trkpt>
      <trkpt lat="46.08869" lon="6.70749">
        <ele>751.304091</ele>
        <time>2023-03-14T21:56:25.232Z</time>
      </trkpt>
      <trkpt lat="46.08874" lon="6.70746">
        <ele>751.681681</ele>
        <time>2023-03-14T21:56:29.838Z</time>
      </trkpt>
      <trkpt lat="46.089" lon="6.70709">
        <ele>755.397487</ele>
        <time>2023-03-14T21:56:57.966Z</time>
      </trkpt>
      <trkpt lat="46.08927" lon="6.70675">
        <ele>759.403665</ele>
        <time>2023-03-14T21:57:29.864Z</time>
      </trkpt>
      <trkpt lat="46.0893" lon="6.70672">
        <ele>759.789457</ele>
        <time>2023-03-14T21:57:34.140Z</time>
      </trkpt>
      <trkpt lat="46.08959" lon="6.70622">
        <ele>764.844508</ele>
        <time>2023-03-14T21:58:16.707Z</time>
      </trkpt>
      <trkpt lat="46.08999" lon="6.70546">
        <ele>772.205348</ele>
        <time>2023-03-14T21:59:15.743Z</time>
      </trkpt>
      <trkpt lat="46.09044" lon="6.70414">
        <ele>780.740839</ele>
        <time>2023-03-14T22:00:38.276Z</time>
      </trkpt>
      <trkpt lat="46.09063" lon="6.7037">
        <ele>783.74642</ele>
        <time>2023-03-14T22:00:58.298Z</time>
      </trkpt>
      <trkpt lat="46.09068" lon="6.70361">
        <ele>784.423894</ele>
        <time>2023-03-14T22:01:02.316Z</time>
      </trkpt>
      <trkpt lat="46.09077" lon="6.70349">
        <ele>785.48301</ele>
        <time>2023-03-14T22:01:08.925Z</time>
      </trkpt>
      <trkpt lat="46.09079" lon="6.70342">
        <ele>785.879599</ele>
        <time>2023-03-14T22:01:11.105Z</time>
      </trkpt>
      <trkpt lat="46.091" lon="6.70337">
        <ele>787.455276</ele>
        <time>2023-03-14T22:01:20.621Z</time>
      </trkpt>
      <trkpt lat="46.0912" lon="6.70328">
        <ele>788.354067</ele>
        <time>2023-03-14T22:01:30.345Z</time>
      </trkpt>
      <trkpt lat="46.09148" lon="6.70327">
        <ele>789.490315</ele>
        <time>2023-03-14T22:01:40.835Z</time>
      </trkpt>
      <trkpt lat="46.09148" lon="6.70316">
        <ele>789.816445</ele>
        <time>2023-03-14T22:01:44.019Z</time>
      </trkpt>
      <trkpt lat="46.09146" lon="6.7029">
        <ele>790.557581</ele>
        <time>2023-03-14T22:01:50.563Z</time>
      </trkpt>
      <trkpt lat="46.0916" lon="6.70248">
        <ele>791.912822</ele>
        <time>2023-03-14T22:02:03.646Z</time>
      </trkpt>
      <trkpt lat="46.09164" lon="6.70222">
        <ele>792.667538</ele>
        <time>2023-03-14T22:02:11.301Z</time>
      </trkpt>
      <trkpt lat="46.09169" lon="6.7019">
        <ele>793.627435</ele>
        <time>2023-03-14T22:02:20.579Z</time>
      </trkpt>
      <trkpt lat="46.09177" lon="6.70163">
        <ele>794.469994</ele>
        <time>2023-03-14T22:02:29.033Z</time>
      </trkpt>
      <trkpt lat="46.09182" lon="6.70127">
        <ele>795.181853</ele>
        <time>2023-03-14T22:02:37.443Z</time>
      </trkpt>
      <trkpt lat="46.09196" lon="6.70032">
        <ele>796.730526</ele>
        <time>2023-03-14T22:03:02.180Z</time>
      </trkpt>
      <trkpt lat="46.092" lon="6.70023">
        <ele>796.913212</ele>
        <time>2023-03-14T22:03:04.180Z</time>
      </trkpt>
      <trkpt lat="46.09209" lon="6.70013">
        <ele>797.163698</ele>
        <time>2023-03-14T22:03:10.299Z</time>
      </trkpt>
      <trkpt lat="46.09242" lon="6.69986">
        <ele>798.033776</ele>
        <time>2023-03-14T22:03:23.628Z</time>
      </trkpt>
      <trkpt lat="46.09268" lon="6.69974">
        <ele>798.659913</ele>
        <time>2023-03-14T22:03:28.303Z</time>
      </trkpt>
      <trkpt lat="46.09276" lon="6.69977">
        <ele>798.862517</ele>
        <time>2023-03-14T22:03:33.815Z</time>
      </trkpt>
      <trkpt lat="46.09292" lon="6.70005">
        <ele>798.094413</ele>
        <time>2023-03-14T22:03:37.661Z</time>
      </trkpt>
      <trkpt lat="46.09297" lon="6.70006">
        <ele>797.90505</ele>
        <time>2023-03-14T22:03:38.445Z</time>
      </trkpt>
      <trkpt lat="46.09302" lon="6.70003">
        <ele>797.722478</ele>
        <time>2023-03-14T22:03:42.783Z</time>
      </trkpt>
      <trkpt lat="46.09306" lon="6.69996">
        <ele>797.486833</ele>
        <time>2023-03-14T22:03:43.729Z</time>
      </trkpt>
      <trkpt lat="46.09377" lon="6.69807">
        <ele>792.327021</ele>
        <time>2023-03-14T22:04:04.912Z</time>
      </trkpt>
      <trkpt lat="46.09381" lon="6.69783">
        <ele>791.967793</ele>
        <time>2023-03-14T22:04:07.313Z</time>
      </trkpt>
      <trkpt lat="46.0938" lon="6.69678">
        <ele>790.446063</ele>
        <time>2023-03-14T22:04:18.146Z</time>
      </trkpt>
      <trkpt lat="46.09385" lon="6.69653">
        <ele>790.058428</ele>
        <time>2023-03-14T22:04:20.895Z</time>
      </trkpt>
      <trkpt lat="46.09407" lon="6.69569">
        <ele>788.756353</ele>
        <time>2023-03-14T22:04:38.145Z</time>
      </trkpt>
      <trkpt lat="46.09409" lon="6.69535">
        <ele>788.661187</ele>
        <time>2023-03-14T22:04:44.879Z</time>
      </trkpt>
      <trkpt lat="46.09412" lon="6.69498">
        <ele>788.56221</ele>
        <time>2023-03-14T22:04:55.859Z</time>
      </trkpt>
      <trkpt lat="46.09409" lon="6.69489">
        <ele>788.537529</ele>
        <time>2023-03-14T22:04:58.530Z</time>
      </trkpt>
      <trkpt lat="46.09399" lon="6.69475">
        <ele>788.482836</ele>
        <time>2023-03-14T22:05:04.910Z</time>
      </trkpt>
      <trkpt lat="46.09391" lon="6.69452">
        <ele>788.414494</ele>
        <time>2023-03-14T22:05:10.967Z</time>
      </trkpt>
      <trkpt lat="46.0939" lon="6.69439">
        <ele>788.379235</ele>
        <time>2023-03-14T22:05:14.095Z</time>
      </trkpt>
      <trkpt lat="46.09393" lon="6.6942">
        <ele>788.328509</ele>
        <time>2023-03-14T22:05:21.231Z</time>
      </trkpt>
      <trkpt lat="46.0943" lon="6.69345">
        <ele>788.08255</ele>
        <time>2023-03-14T22:05:38.433Z</time>
      </trkpt>
      <trkpt lat="46.09455" lon="6.69315">
        <ele>785.716374</ele>
        <time>2023-03-14T22:05:46.159Z</time>
      </trkpt>
      <trkpt lat="46.09487" lon="6.69289">
        <ele>782.546983</ele>
        <time>2023-03-14T22:05:54.607Z</time>
      </trkpt>
      <trkpt lat="46.09491" lon="6.69271">
        <ele>781.422273</ele>
        <time>2023-03-14T22:05:57.834Z</time>
      </trkpt>
      <trkpt lat="46.09496" lon="6.69245">
        <ele>779.839312</ele>
        <time>2023-03-14T22:06:01.882Z</time>
      </trkpt>
      <trkpt lat="46.09498" lon="6.69216">
        <ele>778.071586</ele>
        <time>2023-03-14T22:06:06.303Z</time>
      </trkpt>
      <trkpt lat="46.09488" lon="6.69123">
        <ele>772.406136</ele>
        <time>2023-03-14T22:06:19.779Z</time>
      </trkpt>
      <trkpt lat="46.09482" lon="6.69033">
        <ele>766.687599</ele>
        <time>2023-03-14T22:06:32.772Z</time>
      </trkpt>
      <trkpt lat="46.09474" lon="6.69001">
        <ele>764.564687</ele>
        <time>2023-03-14T22:06:37.731Z</time>
      </trkpt>
      <trkpt lat="46.09471" lon="6.68953">
        <ele>761.574455</ele>
        <time>2023-03-14T22:06:44.871Z</time>
      </trkpt>
      <trkpt lat="46.09457" lon="6.68922">
        <ele>759.205785</ele>
        <time>2023-03-14T22:06:51.073Z</time>
      </trkpt>
      <trkpt lat="46.09455" lon="6.68914">
        <ele>758.664157</ele>
        <time>2023-03-14T22:06:52.399Z</time>
      </trkpt>
      <trkpt lat="46.09458" lon="6.68896">
        <ele>757.504464</ele>
        <time>2023-03-14T22:06:55.546Z</time>
      </trkpt>
      <trkpt lat="46.09461" lon="6.68823">
        <ele>755.978602</ele>
        <time>2023-03-14T22:07:08.604Z</time>
      </trkpt>
      <trkpt lat="46.09465" lon="6.68795">
        <ele>755.881114</ele>
        <time>2023-03-14T22:07:13.889Z</time>
      </trkpt>
      <trkpt lat="46.09467" lon="6.68769">
        <ele>755.792195</ele>
        <time>2023-03-14T22:07:19.692Z</time>
      </trkpt>
      <trkpt lat="46.09472" lon="6.68746">
        <ele>755.711397</ele>
        <time>2023-03-14T22:07:24.700Z</time>
      </trkpt>
      <trkpt lat="46.09478" lon="6.68727">
        <ele>755.640717</ele>
        <time>2023-03-14T22:07:39.790Z</time>
      </trkpt>
      <trkpt lat="46.09485" lon="6.68721">
        <ele>755.598851</ele>
        <time>2023-03-14T22:07:42.142Z</time>
      </trkpt>
      <trkpt lat="46.09521" lon="6.68723">
        <ele>755.42551</ele>
        <time>2023-03-14T22:07:58.691Z</time>
      </trkpt>
      <trkpt lat="46.09539" lon="6.68719">
        <ele>755.336593</ele>
        <time>2023-03-14T22:08:02.837Z</time>
      </trkpt>
      <trkpt lat="46.09559" lon="6.68708">
        <ele>754.830314</ele>
        <time>2023-03-14T22:08:12.367Z</time>
      </trkpt>
      <trkpt lat="46.09583" lon="6.68703">
        <ele>753.595519</ele>
        <time>2023-03-14T22:08:19.946Z</time>
      </trkpt>
      <trkpt lat="46.09608" lon="6.68717">
        <ele>752.267611</ele>
        <time>2023-03-14T22:08:25.656Z</time>
      </trkpt>
      <trkpt lat="46.09613" lon="6.68715">
        <ele>752.011104</ele>
        <time>2023-03-14T22:08:33.243Z</time>
      </trkpt>
      <trkpt lat="46.09617" lon="6.68706">
        <ele>751.644228</ele>
        <time>2023-03-14T22:08:34.894Z</time>
      </trkpt>
      <trkpt lat="46.09607" lon="6.68687">
        <ele>750.836559</ele>
        <time>2023-03-14T22:08:38.129Z</time>
      </trkpt>
      <trkpt lat="46.09599" lon="6.68677">
        <ele>750.279358</ele>
        <time>2023-03-14T22:08:47.124Z</time>
      </trkpt>
      <trkpt lat="46.0959" lon="6.68653">
        <ele>749.340915</ele>
        <time>2023-03-14T22:08:51.163Z</time>
      </trkpt>
      <trkpt lat="46.0959" lon="6.68646">
        <ele>749.09698</ele>
        <time>2023-03-14T22:08:52.120Z</time>
      </trkpt>
      <trkpt lat="46.09582" lon="6.68634">
        <ele>748.503409</ele>
        <time>2023-03-14T22:08:59.030Z</time>
      </trkpt>
      <trkpt lat="46.09572" lon="6.68608">
        <ele>747.482371</ele>
        <time>2023-03-14T22:09:03.306Z</time>
      </trkpt>
      <trkpt lat="46.09564" lon="6.68593">
        <ele>746.8166</ele>
        <time>2023-03-14T22:09:06.142Z</time>
      </trkpt>
      <trkpt lat="46.09553" lon="6.68582">
        <ele>746.208078</ele>
        <time>2023-03-14T22:09:10.257Z</time>
      </trkpt>
      <trkpt lat="46.09523" lon="6.68505">
        <ele>744.871679</ele>
        <time>2023-03-14T22:09:23.768Z</time>
      </trkpt>
      <trkpt lat="46.09502" lon="6.68466">
        <ele>744.109554</ele>
        <time>2023-03-14T22:09:31.852Z</time>
      </trkpt>
      <trkpt lat="46.09495" lon="6.68441">
        <ele>743.693397</ele>
        <time>2023-03-14T22:09:39.485Z</time>
      </trkpt>
      <trkpt lat="46.09495" lon="6.68427">
        <ele>743.478245</ele>
        <time>2023-03-14T22:09:43.702Z</time>
      </trkpt>
      <trkpt lat="46.09498" lon="6.68417">
        <ele>743.314345</ele>
        <time>2023-03-14T22:09:46.609Z</time>
      </trkpt>
      <trkpt lat="46.09496" lon="6.68406">
        <ele>743.14026</ele>
        <time>2023-03-14T22:09:50.096Z</time>
      </trkpt>
      <trkpt lat="46.09506" lon="6.68314">
        <ele>744.019712</ele>
        <time>2023-03-14T22:10:25.770Z</time>
      </trkpt>
      <trkpt lat="46.09509" lon="6.68265">
        <ele>746.205027</ele>
        <time>2023-03-14T22:10:46.249Z</time>
      </trkpt>
      <trkpt lat="46.09508" lon="6.68235">
        <ele>747.541386</ele>
        <time>2023-03-14T22:11:00.562Z</time>
      </trkpt>
      <trkpt lat="46.09499" lon="6.68174">
        <ele>750.292417</ele>
        <time>2023-03-14T22:11:33.545Z</time>
      </trkpt>
      <trkpt lat="46.09504" lon="6.68145">
        <ele>751.634469</ele>
        <time>2023-03-14T22:11:49.556Z</time>
      </trkpt>
      <trkpt lat="46.0951" lon="6.68075">
        <ele>754.567311</ele>
        <time>2023-03-14T22:12:19.439Z</time>
      </trkpt>
      <trkpt lat="46.09511" lon="6.68034">
        <ele>755.997317</ele>
        <time>2023-03-14T22:12:34.487Z</time>
      </trkpt>
      <trkpt lat="46.09519" lon="6.67954">
        <ele>758.803801</ele>
        <time>2023-03-14T22:13:03.002Z</time>
      </trkpt>
      <trkpt lat="46.0952" lon="6.67908">
        <ele>760.429943</ele>
        <time>2023-03-14T22:13:22.255Z</time>
      </trkpt>
      <trkpt lat="46.09526" lon="6.67859">
        <ele>762.153858</ele>
        <time>2023-03-14T22:13:43.232Z</time>
      </trkpt>
      <trkpt lat="46.09527" lon="6.67842">
        <ele>762.76074</ele>
        <time>2023-03-14T22:13:48.385Z</time>
      </trkpt>
      <trkpt lat="46.09527" lon="6.67805">
        <ele>764.205581</ele>
        <time>2023-03-14T22:14:00.716Z</time>
      </trkpt>
      <trkpt lat="46.09532" lon="6.67765">
        <ele>765.853203</ele>
        <time>2023-03-14T22:14:11.451Z</time>
      </trkpt>
      <trkpt lat="46.09544" lon="6.67727">
        <ele>767.491877</ele>
        <time>2023-03-14T22:14:22.598Z</time>
      </trkpt>
      <trkpt lat="46.09553" lon="6.67705">
        <ele>768.516349</ele>
        <time>2023-03-14T22:14:33.312Z</time>
      </trkpt>
      <trkpt lat="46.09571" lon="6.6767">
        <ele>770.249359</ele>
        <time>2023-03-14T22:14:49.074Z</time>
      </trkpt>
      <trkpt lat="46.09579" lon="6.67657">
        <ele>770.957025</ele>
        <time>2023-03-14T22:14:54.992Z</time>
      </trkpt>
      <trkpt lat="46.0958" lon="6.6765">
        <ele>771.222141</ele>
        <time>2023-03-14T22:14:57.330Z</time>
      </trkpt>
      <trkpt lat="46.09576" lon="6.67639">
        <ele>771.744116</ele>
        <time>2023-03-14T22:15:01.054Z</time>
      </trkpt>
      <trkpt lat="46.0959" lon="6.67599">
        <ele>773.538493</ele>
        <time>2023-03-14T22:15:19.827Z</time>
      </trkpt>
      <trkpt lat="46.09597" lon="6.67582">
        <ele>774.34843</ele>
        <time>2023-03-14T22:15:28.506Z</time>
      </trkpt>
      <trkpt lat="46.09601" lon="6.67571">
        <ele>774.884068</ele>
        <time>2023-03-14T22:15:33.894Z</time>
      </trkpt>
      <trkpt lat="46.09602" lon="6.67569">
        <ele>774.982997</ele>
        <time>2023-03-14T22:15:34.501Z</time>
      </trkpt>
      <trkpt lat="46.09603" lon="6.67565">
        <ele>775.154259</ele>
        <time>2023-03-14T22:15:35.611Z</time>
      </trkpt>
      <trkpt lat="46.0961" lon="6.6755">
        <ele>775.89259</ele>
        <time>2023-03-14T22:15:41.504Z</time>
      </trkpt>
      <trkpt lat="46.0963" lon="6.67501">
        <ele>778.241085</ele>
        <time>2023-03-14T22:16:00.952Z</time>
      </trkpt>
      <trkpt lat="46.09629" lon="6.67511">
        <ele>778.667727</ele>
        <time>2023-03-14T22:16:05.306Z</time>
      </trkpt>
      <trkpt lat="46.09632" lon="6.6752">
        <ele>779.106779</ele>
        <time>2023-03-14T22:16:07.512Z</time>
      </trkpt>
      <trkpt lat="46.09639" lon="6.67526">
        <ele>779.573619</ele>
        <time>2023-03-14T22:16:09.780Z</time>
      </trkpt>
      <trkpt lat="46.09647" lon="6.67526">
        <ele>780.094456</ele>
        <time>2023-03-14T22:16:15.318Z</time>
      </trkpt>
      <trkpt lat="46.09652" lon="6.67522">
        <ele>780.392996</ele>
        <time>2023-03-14T22:16:16.006Z</time>
      </trkpt>
      <trkpt lat="46.09689" lon="6.67439">
        <ele>784.807132</ele>
        <time>2023-03-14T22:16:49.691Z</time>
      </trkpt>
      <trkpt lat="46.09701" lon="6.67394">
        <ele>788.005676</ele>
        <time>2023-03-14T22:17:08.658Z</time>
      </trkpt>
      <trkpt lat="46.09707" lon="6.67363">
        <ele>790.113263</ele>
        <time>2023-03-14T22:17:20.718Z</time>
      </trkpt>
      <trkpt lat="46.09709" lon="6.67358">
        <ele>790.511244</ele>
        <time>2023-03-14T22:17:22.861Z</time>
      </trkpt>
      <trkpt lat="46.09713" lon="6.67357">
        <ele>790.852594</ele>
        <time>2023-03-14T22:17:24.396Z</time>
      </trkpt>
      <trkpt lat="46.09718" lon="6.67363">
        <ele>791.438499</ele>
        <time>2023-03-14T22:17:30.910Z</time>
      </trkpt>
      <trkpt lat="46.09719" lon="6.67373">
        <ele>792.115333</ele>
        <time>2023-03-14T22:17:33.931Z</time>
      </trkpt>
      <trkpt lat="46.09713" lon="6.67405">
        <ele>794.337641</ele>
        <time>2023-03-14T22:17:47.570Z</time>
      </trkpt>
      <trkpt lat="46.09713" lon="6.6743">
        <ele>795.963236</ele>
        <time>2023-03-14T22:18:01.840Z</time>
      </trkpt>
      <trkpt lat="46.09712" lon="6.67521">
        <ele>802.440114</ele>
        <time>2023-03-14T22:18:52.620Z</time>
      </trkpt>
      <trkpt lat="46.09709" lon="6.67637">
        <ele>814.254158</ele>
        <time>2023-03-14T22:20:06.791Z</time>
      </trkpt>
      <trkpt lat="46.09702" lon="6.67665">
        <ele>817.179906</ele>
        <time>2023-03-14T22:20:24.294Z</time>
      </trkpt>
      <trkpt lat="46.09687" lon="6.67707">
        <ele>821.961904</ele>
        <time>2023-03-14T22:20:57.196Z</time>
      </trkpt>
      <trkpt lat="46.09668" lon="6.67753">
        <ele>827.395205</ele>
        <time>2023-03-14T22:21:35.166Z</time>
      </trkpt>
      <trkpt lat="46.09659" lon="6.67767">
        <ele>828.965745</ele>
        <time>2023-03-14T22:21:46.923Z</time>
      </trkpt>
      <trkpt lat="46.09666" lon="6.67769">
        <ele>829.86947</ele>
        <time>2023-03-14T22:21:57.745Z</time>
      </trkpt>
      <trkpt lat="46.09683" lon="6.67762">
        <ele>831.974759</ele>
        <time>2023-03-14T22:22:13.059Z</time>
      </trkpt>
      <trkpt lat="46.09701" lon="6.67744">
        <ele>834.623366</ele>
        <time>2023-03-14T22:22:38.316Z</time>
      </trkpt>
      <trkpt lat="46.09715" lon="6.67739">
        <ele>836.377464</ele>
        <time>2023-03-14T22:22:49.695Z</time>
      </trkpt>
      <trkpt lat="46.09735" lon="6.67742">
        <ele>838.787718</ele>
        <time>2023-03-14T22:23:12.768Z</time>
      </trkpt>
      <trkpt lat="46.09741" lon="6.67746">
        <ele>839.649906</ele>
        <time>2023-03-14T22:23:18.980Z</time>
      </trkpt>
      <trkpt lat="46.09759" lon="6.6777">
        <ele>842.629038</ele>
        <time>2023-03-14T22:23:43.543Z</time>
      </trkpt>
      <trkpt lat="46.09764" lon="6.67774">
        <ele>843.275929</ele>
        <time>2023-03-14T22:23:51.452Z</time>
      </trkpt>
      <trkpt lat="46.09781" lon="6.67772">
        <ele>845.44979</ele>
        <time>2023-03-14T22:23:57.357Z</time>
      </trkpt>
      <trkpt lat="46.09792" lon="6.67744">
        <ele>848.158255</ele>
        <time>2023-03-14T22:24:18.091Z</time>
      </trkpt>
      <trkpt lat="46.09803" lon="6.67709">
        <ele>849.604096</ele>
        <time>2023-03-14T22:24:35.534Z</time>
      </trkpt>
      <trkpt lat="46.09835" lon="6.6763">
        <ele>850.750097</ele>
        <time>2023-03-14T22:25:03.725Z</time>
      </trkpt>
      <trkpt lat="46.09845" lon="6.67616">
        <ele>851.007469</ele>
        <time>2023-03-14T22:25:15.660Z</time>
      </trkpt>
      <trkpt lat="46.09838" lon="6.67606">
        <ele>851.187105</ele>
        <time>2023-03-14T22:25:19.917Z</time>
      </trkpt>
      <trkpt lat="46.09844" lon="6.67592">
        <ele>851.39499</ele>
        <time>2023-03-14T22:25:24.806Z</time>
      </trkpt>
      <trkpt lat="46.09841" lon="6.67496">
        <ele>852.452036</ele>
        <time>2023-03-14T22:25:53.307Z</time>
      </trkpt>
      <trkpt lat="46.09836" lon="6.67453">
        <ele>851.216788</ele>
        <time>2023-03-14T22:26:06.247Z</time>
      </trkpt>
      <trkpt lat="46.09848" lon="6.6743">
        <ele>850.401324</ele>
        <time>2023-03-14T22:26:14.783Z</time>
      </trkpt>
      <trkpt lat="46.09864" lon="6.6736">
        <ele>848.313187</ele>
        <time>2023-03-14T22:26:36.683Z</time>
      </trkpt>
      <trkpt lat="46.09866" lon="6.67312">
        <ele>846.950846</ele>
        <time>2023-03-14T22:26:50.950Z</time>
      </trkpt>
      <trkpt lat="46.09879" lon="6.67252">
        <ele>845.155049</ele>
        <time>2023-03-14T22:27:09.595Z</time>
      </trkpt>
      <trkpt lat="46.09877" lon="6.67223">
        <ele>844.035349</ele>
        <time>2023-03-14T22:27:18.243Z</time>
      </trkpt>
      <trkpt lat="46.09907" lon="6.67121">
        <ele>839.778484</ele>
        <time>2023-03-14T22:27:51.196Z</time>
      </trkpt>
      <trkpt lat="46.09923" lon="6.67079">
        <ele>837.937334</ele>
        <time>2023-03-14T22:28:05.433Z</time>
      </trkpt>
      <trkpt lat="46.0991" lon="6.66999">
        <ele>835.025612</ele>
        <time>2023-03-14T22:28:29.815Z</time>
      </trkpt>
      <trkpt lat="46.09898" lon="6.66982">
        <ele>834.568854</ele>
        <time>2023-03-14T22:28:37.271Z</time>
      </trkpt>
      <trkpt lat="46.09921" lon="6.66947">
        <ele>833.681307</ele>
        <time>2023-03-14T22:28:44.049Z</time>
      </trkpt>
      <trkpt lat="46.09939" lon="6.66905">
        <ele>832.786419</ele>
        <time>2023-03-14T22:28:49.607Z</time>
      </trkpt>
      <trkpt lat="46.09955" lon="6.6688">
        <ele>832.175398</ele>
        <time>2023-03-14T22:28:53.194Z</time>
      </trkpt>
      <trkpt lat="46.10022" lon="6.6679">
        <ele>827.699203</ele>
        <time>2023-03-14T22:29:09.263Z</time>
      </trkpt>
      <trkpt lat="46.10019" lon="6.66773">
        <ele>826.467875</ele>
        <time>2023-03-14T22:29:11.728Z</time>
      </trkpt>
      <trkpt lat="46.10029" lon="6.66715">
        <ele>822.432686</ele>
        <time>2023-03-14T22:29:20.763Z</time>
      </trkpt>
      <trkpt lat="46.10045" lon="6.66677">
        <ele>819.371932</ele>
        <time>2023-03-14T22:29:27.165Z</time>
      </trkpt>
      <trkpt lat="46.1005" lon="6.66665">
        <ele>818.395223</ele>
        <time>2023-03-14T22:29:31.627Z</time>
      </trkpt>
      <trkpt lat="46.10044" lon="6.66658">
        <ele>817.680238</ele>
        <time>2023-03-14T22:29:36.641Z</time>
      </trkpt>
      <trkpt lat="46.10041" lon="6.66644">
        <ele>816.657742</ele>
        <time>2023-03-14T22:29:44.032Z</time>
      </trkpt>
      <trkpt lat="46.10048" lon="6.66608">
        <ele>814.10298</ele>
        <time>2023-03-14T22:30:02.097Z</time>
      </trkpt>
      <trkpt lat="46.10033" lon="6.66611">
        <ele>812.495827</ele>
        <time>2023-03-14T22:30:05.039Z</time>
      </trkpt>
      <trkpt lat="46.10018" lon="6.66602">
        <ele>809.806526</ele>
        <time>2023-03-14T22:30:08.846Z</time>
      </trkpt>
      <trkpt lat="46.10008" lon="6.66601">
        <ele>808.028667</ele>
        <time>2023-03-14T22:30:10.894Z</time>
      </trkpt>
      <trkpt lat="46.09999" lon="6.66612">
        <ele>806.049485</ele>
        <time>2023-03-14T22:30:13.129Z</time>
      </trkpt>
      <trkpt lat="46.09991" lon="6.666">
        <ele>804.030023</ele>
        <time>2023-03-14T22:30:16.214Z</time>
      </trkpt>
      <trkpt lat="46.0999" lon="6.6658">
        <ele>801.577757</ele>
        <time>2023-03-14T22:30:19.031Z</time>
      </trkpt>
      <trkpt lat="46.09994" lon="6.66573">
        <ele>800.633124</ele>
        <time>2023-03-14T22:30:20.114Z</time>
      </trkpt>
      <trkpt lat="46.09994" lon="6.66564">
        <ele>799.492887</ele>
        <time>2023-03-14T22:30:21.454Z</time>
      </trkpt>
      <trkpt lat="46.09985" lon="6.66555">
        <ele>797.649677</ele>
        <time>2023-03-14T22:30:24.025Z</time>
      </trkpt>
      <trkpt lat="46.09977" lon="6.66555">
        <ele>796.263623</ele>
        <time>2023-03-14T22:30:25.641Z</time>
      </trkpt>
      <trkpt lat="46.0996" lon="6.66569">
        <ele>792.919737</ele>
        <time>2023-03-14T22:30:29.444Z</time>
      </trkpt>
      <trkpt lat="46.09954" lon="6.66571">
        <ele>791.908777</ele>
        <time>2023-03-14T22:30:30.803Z</time>
      </trkpt>
      <trkpt lat="46.09956" lon="6.66538">
        <ele>787.982172</ele>
        <time>2023-03-14T22:30:35.273Z</time>
      </trkpt>
      <trkpt lat="46.09961" lon="6.66523">
        <ele>786.088111</ele>
        <time>2023-03-14T22:30:37.490Z</time>
      </trkpt>
      <trkpt lat="46.09961" lon="6.66511">
        <ele>784.628777</ele>
        <time>2023-03-14T22:30:39.169Z</time>
      </trkpt>
      <trkpt lat="46.09959" lon="6.66505">
        <ele>783.879703</ele>
        <time>2023-03-14T22:30:40.014Z</time>
      </trkpt>
      <trkpt lat="46.09946" lon="6.66509">
        <ele>781.465028</ele>
        <time>2023-03-14T22:30:42.613Z</time>
      </trkpt>
      <trkpt lat="46.09925" lon="6.66542">
        <ele>774.424184</ele>
        <time>2023-03-14T22:30:48.749Z</time>
      </trkpt>
      <trkpt lat="46.09907" lon="6.66581">
        <ele>767.202019</ele>
        <time>2023-03-14T22:30:55.067Z</time>
      </trkpt>
      <trkpt lat="46.09877" lon="6.66629">
        <ele>757.229702</ele>
        <time>2023-03-14T22:31:03.683Z</time>
      </trkpt>
      <trkpt lat="46.09873" lon="6.66629">
        <ele>756.28598</ele>
        <time>2023-03-14T22:31:04.496Z</time>
      </trkpt>
      <trkpt lat="46.09868" lon="6.66585">
        <ele>749.404499</ele>
        <time>2023-03-14T22:31:10.462Z</time>
      </trkpt>
      <trkpt lat="46.09854" lon="6.66602">
        <ele>745.237688</ele>
        <time>2023-03-14T22:31:14.059Z</time>
      </trkpt>
      <trkpt lat="46.09844" lon="6.6663">
        <ele>740.551676</ele>
        <time>2023-03-14T22:31:18.233Z</time>
      </trkpt>
      <trkpt lat="46.0984" lon="6.66635">
        <ele>739.402539</ele>
        <time>2023-03-14T22:31:19.362Z</time>
      </trkpt>
      <trkpt lat="46.09828" lon="6.66661">
        <ele>735.109172</ele>
        <time>2023-03-14T22:31:23.569Z</time>
      </trkpt>
      <trkpt lat="46.0982" lon="6.66687">
        <ele>731.161228</ele>
        <time>2023-03-14T22:31:27.410Z</time>
      </trkpt>
      <trkpt lat="46.09816" lon="6.66624">
        <ele>722.415408</ele>
        <time>2023-03-14T22:31:35.945Z</time>
      </trkpt>
      <trkpt lat="46.09819" lon="6.66589">
        <ele>717.549062</ele>
        <time>2023-03-14T22:31:40.788Z</time>
      </trkpt>
      <trkpt lat="46.09827" lon="6.66555">
        <ele>712.566042</ele>
        <time>2023-03-14T22:31:46.021Z</time>
      </trkpt>
      <trkpt lat="46.09822" lon="6.66533">
        <ele>709.430422</ele>
        <time>2023-03-14T22:31:49.409Z</time>
      </trkpt>
      <trkpt lat="46.09811" lon="6.665">
        <ele>704.969424</ele>
        <time>2023-03-14T22:31:54.899Z</time>
      </trkpt>
      <trkpt lat="46.09811" lon="6.66489">
        <ele>704.109068</ele>
        <time>2023-03-14T22:31:56.568Z</time>
      </trkpt>
      <trkpt lat="46.09814" lon="6.66478">
        <ele>703.200561</ele>
        <time>2023-03-14T22:31:58.236Z</time>
      </trkpt>
      <trkpt lat="46.09827" lon="6.66461">
        <ele>701.294955</ele>
        <time>2023-03-14T22:32:01.611Z</time>
      </trkpt>
      <trkpt lat="46.09826" lon="6.66448">
        <ele>700.31212</ele>
        <time>2023-03-14T22:32:03.502Z</time>
      </trkpt>
      <trkpt lat="46.09814" lon="6.66408">
        <ele>696.997884</ele>
        <time>2023-03-14T22:32:09.792Z</time>
      </trkpt>
      <trkpt lat="46.09814" lon="6.66392">
        <ele>695.769161</ele>
        <time>2023-03-14T22:32:12.459Z</time>
      </trkpt>
      <trkpt lat="46.09816" lon="6.6638">
        <ele>694.789604</ele>
        <time>2023-03-14T22:32:14.514Z</time>
      </trkpt>
      <trkpt lat="46.09822" lon="6.66375">
        <ele>694.093184</ele>
        <time>2023-03-14T22:32:15.764Z</time>
      </trkpt>
      <trkpt lat="46.09841" lon="6.66372">
        <ele>691.8914</ele>
        <time>2023-03-14T22:32:20.189Z</time>
      </trkpt>
      <trkpt lat="46.09849" lon="6.66368">
        <ele>691.002023</ele>
        <time>2023-03-14T22:32:22.028Z</time>
      </trkpt>
      <trkpt lat="46.09853" lon="6.66361">
        <ele>690.336135</ele>
        <time>2023-03-14T22:32:23.202Z</time>
      </trkpt>
      <trkpt lat="46.09853" lon="6.66355">
        <ele>689.813836</ele>
        <time>2023-03-14T22:32:24.149Z</time>
      </trkpt>
      <trkpt lat="46.09833" lon="6.66332">
        <ele>687.016512</ele>
        <time>2023-03-14T22:32:29.858Z</time>
      </trkpt>
      <trkpt lat="46.0982" lon="6.66329">
        <ele>685.651758</ele>
        <time>2023-03-14T22:32:32.326Z</time>
      </trkpt>
      <trkpt lat="46.09797" lon="6.66317">
        <ele>683.124521</ele>
        <time>2023-03-14T22:32:37.830Z</time>
      </trkpt>
      <trkpt lat="46.09763" lon="6.66322">
        <ele>679.666365</ele>
        <time>2023-03-14T22:32:45.081Z</time>
      </trkpt>
      <trkpt lat="46.09751" lon="6.66333">
        <ele>678.22531</ele>
        <time>2023-03-14T22:32:47.919Z</time>
      </trkpt>
      <trkpt lat="46.09748" lon="6.66341">
        <ele>677.543036</ele>
        <time>2023-03-14T22:32:49.559Z</time>
      </trkpt>
      <trkpt lat="46.09741" lon="6.66369">
        <ele>675.462191</ele>
        <time>2023-03-14T22:32:53.882Z</time>
      </trkpt>
      <trkpt lat="46.0974" lon="6.66376">
        <ele>674.98387</ele>
        <time>2023-03-14T22:32:54.440Z</time>
      </trkpt>
      <trkpt lat="46.09732" lon="6.66407">
        <ele>672.6306</ele>
        <time>2023-03-14T22:32:57.468Z</time>
      </trkpt>
      <trkpt lat="46.09713" lon="6.66402">
        <ele>670.663511</ele>
        <time>2023-03-14T22:32:59.821Z</time>
      </trkpt>
      <trkpt lat="46.09706" lon="6.66397">
        <ele>669.85671</ele>
        <time>2023-03-14T22:33:00.855Z</time>
      </trkpt>
      <trkpt lat="46.0968" lon="6.66363">
        <ele>667.106074</ele>
        <time>2023-03-14T22:33:05.652Z</time>
      </trkpt>
      <trkpt lat="46.09646" lon="6.66345">
        <ele>665.673867</ele>
        <time>2023-03-14T22:33:10.607Z</time>
      </trkpt>
      <trkpt lat="46.09607" lon="6.66331">
        <ele>664.07681</ele>
        <time>2023-03-14T22:33:16.215Z</time>
      </trkpt>
      <trkpt lat="46.09591" lon="6.66321">
        <ele>663.363816</ele>
        <time>2023-03-14T22:33:19.102Z</time>
      </trkpt>
      <trkpt lat="46.09568" lon="6.66315">
        <ele>662.43763</ele>
        <time>2023-03-14T22:33:22.744Z</time>
      </trkpt>
      <trkpt lat="46.09543" lon="6.66303">
        <ele>661.394172</ele>
        <time>2023-03-14T22:33:27.550Z</time>
      </trkpt>
      <trkpt lat="46.09545" lon="6.66297">
        <ele>661.20443</ele>
        <time>2023-03-14T22:33:28.346Z</time>
      </trkpt>
      <trkpt lat="46.0955" lon="6.6628">
        <ele>660.692856</ele>
        <time>2023-03-14T22:33:30.595Z</time>
      </trkpt>
      <trkpt lat="46.09554" lon="6.66266">
        <ele>660.45146</ele>
        <time>2023-03-14T22:33:32.530Z</time>
      </trkpt>
      <trkpt lat="46.09567" lon="6.66219">
        <ele>660.354768</ele>
        <time>2023-03-14T22:33:38.620Z</time>
      </trkpt>
      <trkpt lat="46.09574" lon="6.66224">
        <ele>660.333127</ele>
        <time>2023-03-14T22:33:40.086Z</time>
      </trkpt>
      <trkpt lat="46.09587" lon="6.66187">
        <ele>660.25284</ele>
        <time>2023-03-14T22:33:47.256Z</time>
      </trkpt>
      <trkpt lat="46.09605" lon="6.66116">
        <ele>660.106744</ele>
        <time>2023-03-14T22:34:00.465Z</time>
      </trkpt>
      <trkpt lat="46.09606" lon="6.66106">
        <ele>660.087712</ele>
        <time>2023-03-14T22:34:02.190Z</time>
      </trkpt>
      <trkpt lat="46.09602" lon="6.66096">
        <ele>660.067182</ele>
        <time>2023-03-14T22:34:04.044Z</time>
      </trkpt>
      <trkpt lat="46.09653" lon="6.65936">
        <ele>659.894149</ele>
        <time>2023-03-14T22:34:27.331Z</time>
      </trkpt>
      <trkpt lat="46.09646" lon="6.65921">
        <ele>659.884046</ele>
        <time>2023-03-14T22:34:31.238Z</time>
      </trkpt>
      <trkpt lat="46.09629" lon="6.658">
        <ele>659.806818</ele>
        <time>2023-03-14T22:34:58.030Z</time>
      </trkpt>
      <trkpt lat="46.09623" lon="6.65749">
        <ele>659.695498</ele>
        <time>2023-03-14T22:35:09.304Z</time>
      </trkpt>
      <trkpt lat="46.0962" lon="6.65654">
        <ele>659.490347</ele>
        <time>2023-03-14T22:35:29.918Z</time>
      </trkpt>
      <trkpt lat="46.09674" lon="6.65759">
        <ele>659.122642</ele>
        <time>2023-03-14T22:35:57.371Z</time>
      </trkpt>
      <trkpt lat="46.09688" lon="6.65769">
        <ele>658.987227</ele>
        <time>2023-03-14T22:36:02.256Z</time>
      </trkpt>
      <trkpt lat="46.09694" lon="6.65737">
        <ele>658.78919</ele>
        <time>2023-03-14T22:36:06.506Z</time>
      </trkpt>
      <trkpt lat="46.09702" lon="6.65718">
        <ele>658.660181</ele>
        <time>2023-03-14T22:36:09.371Z</time>
      </trkpt>
      <trkpt lat="46.09702" lon="6.65701">
        <ele>658.559646</ele>
        <time>2023-03-14T22:36:11.495Z</time>
      </trkpt>
      <trkpt lat="46.09706" lon="6.6569">
        <ele>658.489377</ele>
        <time>2023-03-14T22:36:13.025Z</time>
      </trkpt>
      <trkpt lat="46.09706" lon="6.65673">
        <ele>658.391295</ele>
        <time>2023-03-14T22:36:15.206Z</time>
      </trkpt>
      <trkpt lat="46.097" lon="6.65652">
        <ele>658.257806</ele>
        <time>2023-03-14T22:36:17.988Z</time>
      </trkpt>
      <trkpt lat="46.09687" lon="6.65628">
        <ele>658.076154</ele>
        <time>2023-03-14T22:36:21.880Z</time>
      </trkpt>
      <trkpt lat="46.09682" lon="6.65624">
        <ele>658.024609</ele>
        <time>2023-03-14T22:36:22.944Z</time>
      </trkpt>
      <trkpt lat="46.09674" lon="6.65625">
        <ele>657.95628</ele>
        <time>2023-03-14T22:36:24.330Z</time>
      </trkpt>
      <trkpt lat="46.09661" lon="6.65639">
        <ele>657.821423</ele>
        <time>2023-03-14T22:36:27.165Z</time>
      </trkpt>
      <trkpt lat="46.09656" lon="6.65641">
        <ele>657.771146</ele>
        <time>2023-03-14T22:36:28.210Z</time>
      </trkpt>
      <trkpt lat="46.0965" lon="6.65641">
        <ele>657.72495</ele>
        <time>2023-03-14T22:36:29.134Z</time>
      </trkpt>
      <trkpt lat="46.09641" lon="6.65632">
        <ele>657.576318</ele>
        <time>2023-03-14T22:36:31.074Z</time>
      </trkpt>
      <trkpt lat="46.09641" lon="6.65615">
        <ele>657.417681</ele>
        <time>2023-03-14T22:36:33.165Z</time>
      </trkpt>
      <trkpt lat="46.09636" lon="6.65575">
        <ele>657.055328</ele>
        <time>2023-03-14T22:36:37.955Z</time>
      </trkpt>
      <trkpt lat="46.09646" lon="6.65494">
        <ele>656.301503</ele>
        <time>2023-03-14T22:36:47.909Z</time>
      </trkpt>
      <trkpt lat="46.09652" lon="6.65472">
        <ele>656.090914</ele>
        <time>2023-03-14T22:36:50.686Z</time>
      </trkpt>
      <trkpt lat="46.09654" lon="6.65397">
        <ele>655.404147</ele>
        <time>2023-03-14T22:36:59.722Z</time>
      </trkpt>
      <trkpt lat="46.09662" lon="6.65385">
        <ele>655.256888</ele>
        <time>2023-03-14T22:37:01.681Z</time>
      </trkpt>
      <trkpt lat="46.09684" lon="6.65372">
        <ele>654.940475</ele>
        <time>2023-03-14T22:37:05.826Z</time>
      </trkpt>
      <trkpt lat="46.09726" lon="6.65319">
        <ele>654.203944</ele>
        <time>2023-03-14T22:37:15.698Z</time>
      </trkpt>
      <trkpt lat="46.09726" lon="6.65318">
        <ele>654.197168</ele>
        <time>2023-03-14T22:37:15.782Z</time>
      </trkpt>
      <trkpt lat="46.09745" lon="6.65284">
        <ele>653.797252</ele>
        <time>2023-03-14T22:37:20.971Z</time>
      </trkpt>
      <trkpt lat="46.09751" lon="6.65266">
        <ele>653.61514</ele>
        <time>2023-03-14T22:37:23.347Z</time>
      </trkpt>
      <trkpt lat="46.09757" lon="6.65233">
        <ele>653.295046</ele>
        <time>2023-03-14T22:37:27.500Z</time>
      </trkpt>
      <trkpt lat="46.09733" lon="6.65198">
        <ele>652.851657</ele>
        <time>2023-03-14T22:37:33.488Z</time>
      </trkpt>
      <trkpt lat="46.09729" lon="6.6519">
        <ele>652.76799</ele>
        <time>2023-03-14T22:37:34.719Z</time>
      </trkpt>
      <trkpt lat="46.09725" lon="6.65168">
        <ele>652.576702</ele>
        <time>2023-03-14T22:37:37.426Z</time>
      </trkpt>
      <trkpt lat="46.09719" lon="6.65153">
        <ele>652.434724</ele>
        <time>2023-03-14T22:37:39.520Z</time>
      </trkpt>
      <trkpt lat="46.09708" lon="6.65142">
        <ele>652.267645</ele>
        <time>2023-03-14T22:37:41.990Z</time>
      </trkpt>
      <trkpt lat="46.097" lon="6.65126">
        <ele>652.10238</ele>
        <time>2023-03-14T22:37:44.305Z</time>
      </trkpt>
      <trkpt lat="46.09702" lon="6.65119">
        <ele>652.040735</ele>
        <time>2023-03-14T22:37:45.831Z</time>
      </trkpt>
      <trkpt lat="46.09712" lon="6.65088">
        <ele>651.749042</ele>
        <time>2023-03-14T22:37:50.092Z</time>
      </trkpt>
      <trkpt lat="46.09716" lon="6.65063">
        <ele>651.533384</ele>
        <time>2023-03-14T22:37:53.245Z</time>
      </trkpt>
      <trkpt lat="46.09731" lon="6.65031">
        <ele>651.207518</ele>
        <time>2023-03-14T22:37:57.958Z</time>
      </trkpt>
      <trkpt lat="46.09736" lon="6.65003">
        <ele>650.96509</ele>
        <time>2023-03-14T22:38:01.577Z</time>
      </trkpt>
      <trkpt lat="46.09745" lon="6.64981">
        <ele>650.762107</ele>
        <time>2023-03-14T22:38:04.525Z</time>
      </trkpt>
      <trkpt lat="46.09745" lon="6.64975">
        <ele>650.715501</ele>
        <time>2023-03-14T22:38:05.330Z</time>
      </trkpt>
      <trkpt lat="46.09735" lon="6.64945">
        <ele>650.475735</ele>
        <time>2023-03-14T22:38:09.322Z</time>
      </trkpt>
      <trkpt lat="46.09732" lon="6.64925">
        <ele>650.323148</ele>
        <time>2023-03-14T22:38:11.885Z</time>
      </trkpt>
      <trkpt lat="46.09757" lon="6.64794">
        <ele>649.338676</ele>
        <time>2023-03-14T22:38:28.890Z</time>
      </trkpt>
      <trkpt lat="46.09768" lon="6.64771">
        <ele>649.142939</ele>
        <time>2023-03-14T22:38:32.249Z</time>
      </trkpt>
      <trkpt lat="46.09782" lon="6.64665">
        <ele>648.295066</ele>
        <time>2023-03-14T22:38:45.477Z</time>
      </trkpt>
      <trkpt lat="46.09793" lon="6.64621">
        <ele>647.911625</ele>
        <time>2023-03-14T22:38:51.237Z</time>
      </trkpt>
      <trkpt lat="46.09813" lon="6.6449">
        <ele>646.828185</ele>
        <time>2023-03-14T22:39:07.507Z</time>
      </trkpt>
      <trkpt lat="46.09814" lon="6.6447">
        <ele>646.656699</ele>
        <time>2023-03-14T22:39:10.049Z</time>
      </trkpt>
      <trkpt lat="46.0981" lon="6.64436">
        <ele>646.372689</ele>
        <time>2023-03-14T22:39:14.236Z</time>
      </trkpt>
      <trkpt lat="46.09811" lon="6.64421">
        <ele>646.251865</ele>
        <time>2023-03-14T22:39:16.010Z</time>
      </trkpt>
      <trkpt lat="46.09839" lon="6.6435">
        <ele>645.58312</ele>
        <time>2023-03-14T22:39:25.870Z</time>
      </trkpt>
      <trkpt lat="46.09848" lon="6.64336">
        <ele>645.417542</ele>
        <time>2023-03-14T22:39:28.298Z</time>
      </trkpt>
      <trkpt lat="46.09859" lon="6.64305">
        <ele>645.135325</ele>
        <time>2023-03-14T22:39:32.481Z</time>
      </trkpt>
      <trkpt lat="46.09858" lon="6.64277">
        <ele>644.898002</ele>
        <time>2023-03-14T22:39:36.020Z</time>
      </trkpt>
      <trkpt lat="46.09848" lon="6.64229">
        <ele>644.500279</ele>
        <time>2023-03-14T22:39:42.160Z</time>
      </trkpt>
      <trkpt lat="46.09875" lon="6.64107">
        <ele>643.520571</ele>
        <time>2023-03-14T22:39:57.908Z</time>
      </trkpt>
      <trkpt lat="46.09873" lon="6.64089">
        <ele>643.377537</ele>
        <time>2023-03-14T22:40:00.210Z</time>
      </trkpt>
      <trkpt lat="46.09879" lon="6.6405">
        <ele>643.073603</ele>
        <time>2023-03-14T22:40:05.064Z</time>
      </trkpt>
      <trkpt lat="46.09889" lon="6.64008">
        <ele>642.729291</ele>
        <time>2023-03-14T22:40:10.566Z</time>
      </trkpt>
      <trkpt lat="46.09897" lon="6.63964">
        <ele>642.401198</ele>
        <time>2023-03-14T22:40:16.122Z</time>
      </trkpt>
      <trkpt lat="46.09898" lon="6.63947">
        <ele>642.275294</ele>
        <time>2023-03-14T22:40:18.261Z</time>
      </trkpt>
      <trkpt lat="46.09896" lon="6.63943">
        <ele>642.236666</ele>
        <time>2023-03-14T22:40:18.924Z</time>
      </trkpt>
      <trkpt lat="46.0991" lon="6.63896">
        <ele>641.870529</ele>
        <time>2023-03-14T22:40:25.148Z</time>
      </trkpt>
      <trkpt lat="46.09922" lon="6.63825">
        <ele>641.344584</ele>
        <time>2023-03-14T22:40:34.127Z</time>
      </trkpt>
      <trkpt lat="46.09925" lon="6.6382">
        <ele>641.298686</ele>
        <time>2023-03-14T22:40:34.924Z</time>
      </trkpt>
      <trkpt lat="46.09924" lon="6.63798">
        <ele>641.133546</ele>
        <time>2023-03-14T22:40:37.753Z</time>
      </trkpt>
      <trkpt lat="46.09926" lon="6.63785">
        <ele>641.041182</ele>
        <time>2023-03-14T22:40:39.346Z</time>
      </trkpt>
      <trkpt lat="46.09932" lon="6.63772">
        <ele>640.929439</ele>
        <time>2023-03-14T22:40:41.279Z</time>
      </trkpt>
      <trkpt lat="46.0994" lon="6.63709">
        <ele>640.554708</ele>
        <time>2023-03-14T22:40:49.331Z</time>
      </trkpt>
      <trkpt lat="46.09951" lon="6.63652">
        <ele>640.237929</ele>
        <time>2023-03-14T22:40:56.731Z</time>
      </trkpt>
      <trkpt lat="46.09956" lon="6.63638">
        <ele>640.151089</ele>
        <time>2023-03-14T22:40:58.777Z</time>
      </trkpt>
      <trkpt lat="46.09962" lon="6.63544">
        <ele>639.641</ele>
        <time>2023-03-14T22:41:10.985Z</time>
      </trkpt>
      <trkpt lat="46.09968" lon="6.63511">
        <ele>639.45716</ele>
        <time>2023-03-14T22:41:15.355Z</time>
      </trkpt>
      <trkpt lat="46.09967" lon="6.63465">
        <ele>639.270179</ele>
        <time>2023-03-14T22:41:21.234Z</time>
      </trkpt>
      <trkpt lat="46.09976" lon="6.63405">
        <ele>639.032078</ele>
        <time>2023-03-14T22:41:29.171Z</time>
      </trkpt>
      <trkpt lat="46.09989" lon="6.6335">
        <ele>638.804752</ele>
        <time>2023-03-14T22:41:36.817Z</time>
      </trkpt>
      <trkpt lat="46.0999" lon="6.63323">
        <ele>638.700303</ele>
        <time>2023-03-14T22:41:40.286Z</time>
      </trkpt>
      <trkpt lat="46.09996" lon="6.63316">
        <ele>638.65899</ele>
        <time>2023-03-14T22:41:41.710Z</time>
      </trkpt>
      <trkpt lat="46.10019" lon="6.63297">
        <ele>638.508368</ele>
        <time>2023-03-14T22:41:46.761Z</time>
      </trkpt>
      <trkpt lat="46.10022" lon="6.6329">
        <ele>638.478322</ele>
        <time>2023-03-14T22:41:47.784Z</time>
      </trkpt>
      <trkpt lat="46.10022" lon="6.63274">
        <ele>638.414624</ele>
        <time>2023-03-14T22:41:49.966Z</time>
      </trkpt>
      <trkpt lat="46.10043" lon="6.6319">
        <ele>638.087403</ele>
        <time>2023-03-14T22:42:01.492Z</time>
      </trkpt>
      <trkpt lat="46.10046" lon="6.63165">
        <ele>637.990289</ele>
        <time>2023-03-14T22:42:04.926Z</time>
      </trkpt>
      <trkpt lat="46.10039" lon="6.63127">
        <ele>637.846148</ele>
        <time>2023-03-14T22:42:09.977Z</time>
      </trkpt>
      <trkpt lat="46.10039" lon="6.63113">
        <ele>637.796412</ele>
        <time>2023-03-14T22:42:11.742Z</time>
      </trkpt>
      <trkpt lat="46.10046" lon="6.63071">
        <ele>637.634763</ele>
        <time>2023-03-14T22:42:17.521Z</time>
      </trkpt>
      <trkpt lat="46.10044" lon="6.63009">
        <ele>637.414619</ele>
        <time>2023-03-14T22:42:25.715Z</time>
      </trkpt>
      <trkpt lat="46.10056" lon="6.62961">
        <ele>637.251318</ele>
        <time>2023-03-14T22:42:32.450Z</time>
      </trkpt>
      <trkpt lat="46.10059" lon="6.62916">
        <ele>637.107051</ele>
        <time>2023-03-14T22:42:38.411Z</time>
      </trkpt>
      <trkpt lat="46.10057" lon="6.62873">
        <ele>636.96907</ele>
        <time>2023-03-14T22:42:44.102Z</time>
      </trkpt>
      <trkpt lat="46.10058" lon="6.62857">
        <ele>636.916192</ele>
        <time>2023-03-14T22:42:46.296Z</time>
      </trkpt>
      <trkpt lat="46.10066" lon="6.62834">
        <ele>636.834369</ele>
        <time>2023-03-14T22:42:49.685Z</time>
      </trkpt>
      <trkpt lat="46.10074" lon="6.62824">
        <ele>636.785825</ele>
        <time>2023-03-14T22:42:51.700Z</time>
      </trkpt>
      <trkpt lat="46.10084" lon="6.62805">
        <ele>636.709491</ele>
        <time>2023-03-14T22:42:54.789Z</time>
      </trkpt>
      <trkpt lat="46.10086" lon="6.62788">
        <ele>636.655093</ele>
        <time>2023-03-14T22:42:56.984Z</time>
      </trkpt>
      <trkpt lat="46.10084" lon="6.62755">
        <ele>636.546268</ele>
        <time>2023-03-14T22:43:01.316Z</time>
      </trkpt>
      <trkpt lat="46.10085" lon="6.62716">
        <ele>636.415994</ele>
        <time>2023-03-14T22:43:06.502Z</time>
      </trkpt>
      <trkpt lat="46.10083" lon="6.62698">
        <ele>636.356053</ele>
        <time>2023-03-14T22:43:08.833Z</time>
      </trkpt>
      <trkpt lat="46.10088" lon="6.62613">
        <ele>636.075416</ele>
        <time>2023-03-14T22:43:20.071Z</time>
      </trkpt>
      <trkpt lat="46.10087" lon="6.62591">
        <ele>636.001105</ele>
        <time>2023-03-14T22:43:22.986Z</time>
      </trkpt>
      <trkpt lat="46.1009" lon="6.62567">
        <ele>635.922783</ele>
        <time>2023-03-14T22:43:28.017Z</time>
      </trkpt>
      <trkpt lat="46.10098" lon="6.62554">
        <ele>635.86508</ele>
        <time>2023-03-14T22:43:31.731Z</time>
      </trkpt>
      <trkpt lat="46.10102" lon="6.62542">
        <ele>635.820463</ele>
        <time>2023-03-14T22:43:34.583Z</time>
      </trkpt>
      <trkpt lat="46.10102" lon="6.62531">
        <ele>635.784802</ele>
        <time>2023-03-14T22:43:36.883Z</time>
      </trkpt>
      <trkpt lat="46.10078" lon="6.62388">
        <ele>635.511512</ele>
        <time>2023-03-14T22:44:08.131Z</time>
      </trkpt>
      <trkpt lat="46.10076" lon="6.62374">
        <ele>635.485066</ele>
        <time>2023-03-14T22:44:11.193Z</time>
      </trkpt>
      <trkpt lat="46.10044" lon="6.62121">
        <ele>635.39827</ele>
        <time>2023-03-14T22:45:07.938Z</time>
      </trkpt>
      <trkpt lat="46.1004" lon="6.62075">
        <ele>635.426879</ele>
        <time>2023-03-14T22:45:18.551Z</time>
      </trkpt>
      <trkpt lat="46.10035" lon="6.62051">
        <ele>635.442028</ele>
        <time>2023-03-14T22:45:24.180Z</time>
      </trkpt>
      <trkpt lat="46.10031" lon="6.62042">
        <ele>635.448657</ele>
        <time>2023-03-14T22:45:26.638Z</time>
      </trkpt>
      <trkpt lat="46.10026" lon="6.62048">
        <ele>635.454081</ele>
        <time>2023-03-14T22:45:28.652Z</time>
      </trkpt>
      <trkpt lat="46.10018" lon="6.62056">
        <ele>635.467163</ele>
        <time>2023-03-14T22:45:32.061Z</time>
      </trkpt>
      <trkpt lat="46.1" lon="6.62064">
        <ele>635.514614</ele>
        <time>2023-03-14T22:45:38.234Z</time>
      </trkpt>
      <trkpt lat="46.09989" lon="6.62072">
        <ele>635.54482</ele>
        <time>2023-03-14T22:45:42.181Z</time>
      </trkpt>
      <trkpt lat="46.09963" lon="6.6209">
        <ele>635.616444</ele>
        <time>2023-03-14T22:45:51.630Z</time>
      </trkpt>
      <trkpt lat="46.09961" lon="6.62091">
        <ele>635.622335</ele>
        <time>2023-03-14T22:45:52.395Z</time>
      </trkpt>
      <trkpt lat="46.0996" lon="6.62137">
        <ele>635.702072</ele>
        <time>2023-03-14T22:46:02.936Z</time>
      </trkpt>
      <trkpt lat="46.09964" lon="6.62187">
        <ele>635.789191</ele>
        <time>2023-03-14T22:46:14.492Z</time>
      </trkpt>
      <trkpt lat="46.09992" lon="6.62244">
        <ele>635.910065</ele>
        <time>2023-03-14T22:46:30.568Z</time>
      </trkpt>
      <trkpt lat="46.10002" lon="6.62272">
        <ele>635.960026</ele>
        <time>2023-03-14T22:46:37.958Z</time>
      </trkpt>
      <trkpt lat="46.10013" lon="6.6238">
        <ele>636.128774</ele>
        <time>2023-03-14T22:47:02.511Z</time>
      </trkpt>
      <trkpt lat="46.10011" lon="6.62459">
        <ele>636.252593</ele>
        <time>2023-03-14T22:47:20.736Z</time>
      </trkpt>
      <trkpt lat="46.10011" lon="6.6251">
        <ele>636.343914</ele>
        <time>2023-03-14T22:47:32.465Z</time>
      </trkpt>
      <trkpt lat="46.1001" lon="6.62538">
        <ele>636.418806</ele>
        <time>2023-03-14T22:47:36.685Z</time>
      </trkpt>
      <trkpt lat="46.1001" lon="6.62584">
        <ele>636.542087</ele>
        <time>2023-03-14T22:47:47.448Z</time>
      </trkpt>
      <trkpt lat="46.10017" lon="6.62682">
        <ele>636.806461</ele>
        <time>2023-03-14T22:48:10.658Z</time>
      </trkpt>
      <trkpt lat="46.09996" lon="6.62896">
        <ele>637.424766</ele>
        <time>2023-03-14T22:49:01.226Z</time>
      </trkpt>
      <trkpt lat="46.09983" lon="6.62975">
        <ele>637.668669</ele>
        <time>2023-03-14T22:49:20.547Z</time>
      </trkpt>
      <trkpt lat="46.09983" lon="6.63014">
        <ele>637.783309</ele>
        <time>2023-03-14T22:49:29.636Z</time>
      </trkpt>
      <trkpt lat="46.09973" lon="6.6309">
        <ele>637.989964</ele>
        <time>2023-03-14T22:49:47.637Z</time>
      </trkpt>
      <trkpt lat="46.09931" lon="6.63349">
        <ele>638.723147</ele>
        <time>2023-03-14T22:50:49.609Z</time>
      </trkpt>
      <trkpt lat="46.09906" lon="6.63535">
        <ele>639.312391</ele>
        <time>2023-03-14T22:51:34.304Z</time>
      </trkpt>
      <trkpt lat="46.09887" lon="6.63643">
        <ele>639.913482</ele>
        <time>2023-03-14T22:52:01.459Z</time>
      </trkpt>
      <trkpt lat="46.09857" lon="6.63748">
        <ele>640.523887</ele>
        <time>2023-03-14T22:52:29.871Z</time>
      </trkpt>
      <trkpt lat="46.09842" lon="6.63842">
        <ele>641.163885</ele>
        <time>2023-03-14T22:52:54.440Z</time>
      </trkpt>
      <trkpt lat="46.09828" lon="6.63891">
        <ele>641.532831</ele>
        <time>2023-03-14T22:53:07.911Z</time>
      </trkpt>
      <trkpt lat="46.09826" lon="6.63976">
        <ele>642.122524</ele>
        <time>2023-03-14T22:53:29.529Z</time>
      </trkpt>
      <trkpt lat="46.09818" lon="6.6404">
        <ele>642.59314</ele>
        <time>2023-03-14T22:53:46.426Z</time>
      </trkpt>
      <trkpt lat="46.09815" lon="6.64084">
        <ele>642.928592</ele>
        <time>2023-03-14T22:53:57.757Z</time>
      </trkpt>
      <trkpt lat="46.09785" lon="6.64199">
        <ele>643.858222</ele>
        <time>2023-03-14T22:54:29.462Z</time>
      </trkpt>
      <trkpt lat="46.09762" lon="6.64315">
        <ele>644.822456</ele>
        <time>2023-03-14T22:55:00.875Z</time>
      </trkpt>
      <trkpt lat="46.0975" lon="6.64419">
        <ele>645.719738</ele>
        <time>2023-03-14T22:55:28.535Z</time>
      </trkpt>
      <trkpt lat="46.0973" lon="6.64468">
        <ele>646.207506</ele>
        <time>2023-03-14T22:55:43.547Z</time>
      </trkpt>
      <trkpt lat="46.09728" lon="6.64538">
        <ele>646.814093</ele>
        <time>2023-03-14T22:56:01.893Z</time>
      </trkpt>
      <trkpt lat="46.09684" lon="6.64833">
        <ele>649.517278</ele>
        <time>2023-03-14T22:57:22.248Z</time>
      </trkpt>
      <trkpt lat="46.0964" lon="6.65093">
        <ele>651.952038</ele>
        <time>2023-03-14T22:58:33.242Z</time>
      </trkpt>
      <trkpt lat="46.09627" lon="6.65123">
        <ele>652.267355</ele>
        <time>2023-03-14T22:58:42.234Z</time>
      </trkpt>
      <trkpt lat="46.09634" lon="6.65154">
        <ele>652.559419</ele>
        <time>2023-03-14T22:58:50.770Z</time>
      </trkpt>
      <trkpt lat="46.0962" lon="6.65216">
        <ele>653.143547</ele>
        <time>2023-03-14T22:59:07.966Z</time>
      </trkpt>
      <trkpt lat="46.09609" lon="6.65241">
        <ele>653.41328</ele>
        <time>2023-03-14T22:59:16.070Z</time>
      </trkpt>
      <trkpt lat="46.09597" lon="6.65338">
        <ele>654.534376</ele>
        <time>2023-03-14T22:59:42.894Z</time>
      </trkpt>
      <trkpt lat="46.09571" lon="6.65444">
        <ele>655.908015</ele>
        <time>2023-03-14T23:00:14.730Z</time>
      </trkpt>
      <trkpt lat="46.09538" lon="6.65628">
        <ele>657.959697</ele>
        <time>2023-03-14T23:01:09.496Z</time>
      </trkpt>
      <trkpt lat="46.09534" lon="6.65716">
        <ele>658.827104</ele>
        <time>2023-03-14T23:01:32.832Z</time>
      </trkpt>
      <trkpt lat="46.09555" lon="6.65772">
        <ele>659.375676</ele>
        <time>2023-03-14T23:01:48.527Z</time>
      </trkpt>
      <trkpt lat="46.09561" lon="6.65844">
        <ele>659.543801</ele>
        <time>2023-03-14T23:02:05.994Z</time>
      </trkpt>
      <trkpt lat="46.09561" lon="6.65879">
        <ele>659.625283</ele>
        <time>2023-03-14T23:02:14.142Z</time>
      </trkpt>
      <trkpt lat="46.09543" lon="6.65931">
        <ele>659.759355</ele>
        <time>2023-03-14T23:02:27.299Z</time>
      </trkpt>
      <trkpt lat="46.09519" lon="6.65967">
        <ele>659.873938</ele>
        <time>2023-03-14T23:02:38.343Z</time>
      </trkpt>
      <trkpt lat="46.09486" lon="6.65996">
        <ele>659.956381</ele>
        <time>2023-03-14T23:02:50.811Z</time>
      </trkpt>
      <trkpt lat="46.09461" lon="6.66046">
        <ele>659.967545</ele>
        <time>2023-03-14T23:03:04.230Z</time>
      </trkpt>
      <trkpt lat="46.09459" lon="6.6605">
        <ele>659.968542</ele>
        <time>2023-03-14T23:03:05.436Z</time>
      </trkpt>
      <trkpt lat="46.09404" lon="6.66089">
        <ele>659.984851</ele>
        <time>2023-03-14T23:03:25.053Z</time>
      </trkpt>
      <trkpt lat="46.09352" lon="6.66103">
        <ele>659.998931</ele>
        <time>2023-03-14T23:03:41.959Z</time>
      </trkpt>
      <trkpt lat="46.09332" lon="6.66115">
        <ele>660.000012</ele>
        <time>2023-03-14T23:03:48.693Z</time>
      </trkpt>
      <trkpt lat="46.09315" lon="6.66166">
        <ele>660.000012</ele>
        <time>2023-03-14T23:04:01.275Z</time>
      </trkpt>
      <trkpt lat="46.09266" lon="6.66258">
        <ele>660.000012</ele>
        <time>2023-03-14T23:04:26.901Z</time>
      </trkpt>
      <trkpt lat="46.09242" lon="6.66284">
        <ele>660.000012</ele>
        <time>2023-03-14T23:04:36.292Z</time>
      </trkpt>
      <trkpt lat="46.09201" lon="6.66343">
        <ele>660.0056</ele>
        <time>2023-03-14T23:04:54.669Z</time>
      </trkpt>
      <trkpt lat="46.09123" lon="6.66414">
        <ele>660.017163</ele>
        <time>2023-03-14T23:05:24.177Z</time>
      </trkpt>
      <trkpt lat="46.09094" lon="6.66432">
        <ele>660.021042</ele>
        <time>2023-03-14T23:05:34.087Z</time>
      </trkpt>
      <trkpt lat="46.09042" lon="6.66418">
        <ele>660.13234</ele>
        <time>2023-03-14T23:05:51.035Z</time>
      </trkpt>
      <trkpt lat="46.09036" lon="6.66455">
        <ele>660.200738</ele>
        <time>2023-03-14T23:05:59.561Z</time>
      </trkpt>
      <trkpt lat="46.09011" lon="6.66509">
        <ele>660.31939</ele>
        <time>2023-03-14T23:06:14.579Z</time>
      </trkpt>
      <trkpt lat="46.08963" lon="6.66545">
        <ele>660.460374</ele>
        <time>2023-03-14T23:06:32.587Z</time>
      </trkpt>
      <trkpt lat="46.08926" lon="6.66587">
        <ele>660.642788</ele>
        <time>2023-03-14T23:06:49.243Z</time>
      </trkpt>
      <trkpt lat="46.08923" lon="6.66593">
        <ele>660.663807</ele>
        <time>2023-03-14T23:06:50.812Z</time>
      </trkpt>
      <trkpt lat="46.08914" lon="6.66592">
        <ele>660.70029</ele>
        <time>2023-03-14T23:06:53.537Z</time>
      </trkpt>
      <trkpt lat="46.08894" lon="6.66602">
        <ele>660.789913</ele>
        <time>2023-03-14T23:07:00.799Z</time>
      </trkpt>
      <trkpt lat="46.08816" lon="6.66671">
        <ele>661.184867</ele>
        <time>2023-03-14T23:07:31.462Z</time>
      </trkpt>
      <trkpt lat="46.08808" lon="6.66682">
        <ele>661.231451</ele>
        <time>2023-03-14T23:07:35.606Z</time>
      </trkpt>
      <trkpt lat="46.08816" lon="6.66691">
        <ele>661.281238</ele>
        <time>2023-03-14T23:07:38.851Z</time>
      </trkpt>
      <trkpt lat="46.08842" lon="6.66719">
        <ele>661.472138</ele>
        <time>2023-03-14T23:07:50.224Z</time>
      </trkpt>
      <trkpt lat="46.08842" lon="6.66733">
        <ele>661.532568</ele>
        <time>2023-03-14T23:07:53.485Z</time>
      </trkpt>
      <trkpt lat="46.08842" lon="6.66741">
        <ele>661.565306</ele>
        <time>2023-03-14T23:07:55.787Z</time>
      </trkpt>
      <trkpt lat="46.08843" lon="6.6675">
        <ele>661.603897</ele>
        <time>2023-03-14T23:07:58.039Z</time>
      </trkpt>
      <trkpt lat="46.08844" lon="6.66758">
        <ele>661.635228</ele>
        <time>2023-03-14T23:08:00.035Z</time>
      </trkpt>
      <trkpt lat="46.08844" lon="6.66763">
        <ele>661.657406</ele>
        <time>2023-03-14T23:08:01.243Z</time>
      </trkpt>
      <trkpt lat="46.08835" lon="6.66782">
        <ele>661.753043</ele>
        <time>2023-03-14T23:08:06.376Z</time>
      </trkpt>
      <trkpt lat="46.08822" lon="6.66806">
        <ele>661.877944</ele>
        <time>2023-03-14T23:08:13.864Z</time>
      </trkpt>
      <trkpt lat="46.0881" lon="6.66808">
        <ele>661.950281</ele>
        <time>2023-03-14T23:08:17.601Z</time>
      </trkpt>
      <trkpt lat="46.08804" lon="6.66809">
        <ele>661.985491</ele>
        <time>2023-03-14T23:08:20.198Z</time>
      </trkpt>
      <trkpt lat="46.08787" lon="6.66824">
        <ele>662.10349</ele>
        <time>2023-03-14T23:08:26.928Z</time>
      </trkpt>
      <trkpt lat="46.0875" lon="6.66918">
        <ele>662.641246</ele>
        <time>2023-03-14T23:08:53.362Z</time>
      </trkpt>
      <trkpt lat="46.0875" lon="6.66952">
        <ele>662.837481</ele>
        <time>2023-03-14T23:09:02.689Z</time>
      </trkpt>
      <trkpt lat="46.08758" lon="6.67018">
        <ele>663.231415</ele>
        <time>2023-03-14T23:09:20.093Z</time>
      </trkpt>
      <trkpt lat="46.08761" lon="6.67053">
        <ele>663.438029</ele>
        <time>2023-03-14T23:09:28.564Z</time>
      </trkpt>
      <trkpt lat="46.08746" lon="6.67133">
        <ele>663.885105</ele>
        <time>2023-03-14T23:09:48.409Z</time>
      </trkpt>
      <trkpt lat="46.08746" lon="6.67134">
        <ele>663.886395</ele>
        <time>2023-03-14T23:09:48.574Z</time>
      </trkpt>
      <trkpt lat="46.08741" lon="6.67144">
        <ele>663.917793</ele>
        <time>2023-03-14T23:09:51.519Z</time>
      </trkpt>
      <trkpt lat="46.08731" lon="6.67153">
        <ele>663.959513</ele>
        <time>2023-03-14T23:09:55.943Z</time>
      </trkpt>
      <trkpt lat="46.08765" lon="6.67217">
        <ele>664.159635</ele>
        <time>2023-03-14T23:10:14.983Z</time>
      </trkpt>
      <trkpt lat="46.08774" lon="6.67296">
        <ele>664.356141</ele>
        <time>2023-03-14T23:10:33.227Z</time>
      </trkpt>
      <trkpt lat="46.08757" lon="6.67325">
        <ele>664.450656</ele>
        <time>2023-03-14T23:10:41.671Z</time>
      </trkpt>
      <trkpt lat="46.08768" lon="6.67386">
        <ele>664.636486</ele>
        <time>2023-03-14T23:10:55.826Z</time>
      </trkpt>
      <trkpt lat="46.0875" lon="6.67444">
        <ele>664.831798</ele>
        <time>2023-03-14T23:11:10.219Z</time>
      </trkpt>
      <trkpt lat="46.08765" lon="6.67503">
        <ele>665.026173</ele>
        <time>2023-03-14T23:11:24.904Z</time>
      </trkpt>
      <trkpt lat="46.08767" lon="6.67521">
        <ele>665.083455</ele>
        <time>2023-03-14T23:11:29.514Z</time>
      </trkpt>
      <trkpt lat="46.08743" lon="6.6786">
        <ele>666.837999</ele>
        <time>2023-03-14T23:12:54.083Z</time>
      </trkpt>
      <trkpt lat="46.08745" lon="6.67886">
        <ele>667.009191</ele>
        <time>2023-03-14T23:13:00.996Z</time>
      </trkpt>
      <trkpt lat="46.08748" lon="6.67887">
        <ele>667.031315</ele>
        <time>2023-03-14T23:13:01.539Z</time>
      </trkpt>
      <trkpt lat="46.08773" lon="6.67891">
        <ele>667.269003</ele>
        <time>2023-03-14T23:13:07.559Z</time>
      </trkpt>
      <trkpt lat="46.08776" lon="6.67891">
        <ele>667.289308</ele>
        <time>2023-03-14T23:13:08.079Z</time>
      </trkpt>
      <trkpt lat="46.08755" lon="6.68176">
        <ele>669.178364</ele>
        <time>2023-03-14T23:14:20.492Z</time>
      </trkpt>
      <trkpt lat="46.0875" lon="6.6829">
        <ele>669.979169</ele>
        <time>2023-03-14T23:14:49.981Z</time>
      </trkpt>
      <trkpt lat="46.0874" lon="6.68403">
        <ele>670.734276</ele>
        <time>2023-03-14T23:15:18.856Z</time>
      </trkpt>
      <trkpt lat="46.08739" lon="6.68409">
        <ele>670.777329</ele>
        <time>2023-03-14T23:15:20.815Z</time>
      </trkpt>
      <trkpt lat="46.08737" lon="6.68454">
        <ele>671.071763</ele>
        <time>2023-03-14T23:15:34.191Z</time>
      </trkpt>
      <trkpt lat="46.08733" lon="6.68467">
        <ele>671.164626</ele>
        <time>2023-03-14T23:15:38.410Z</time>
      </trkpt>
      <trkpt lat="46.08742" lon="6.68521">
        <ele>671.527262</ele>
        <time>2023-03-14T23:15:54.883Z</time>
      </trkpt>
      <trkpt lat="46.08756" lon="6.68568">
        <ele>671.861259</ele>
        <time>2023-03-14T23:16:10.056Z</time>
      </trkpt>
      <trkpt lat="46.08759" lon="6.68603">
        <ele>672.070475</ele>
        <time>2023-03-14T23:16:20.517Z</time>
      </trkpt>
      <trkpt lat="46.08755" lon="6.68623">
        <ele>672.189058</ele>
        <time>2023-03-14T23:16:26.691Z</time>
      </trkpt>
      <trkpt lat="46.08755" lon="6.68623">
        <ele>672.189058</ele>
        <time>2023-03-14T23:16:26.695Z</time>
      </trkpt>
      <trkpt lat="46.08755" lon="6.68624">
        <ele>672.194442</ele>
        <time>2023-03-14T23:16:27.195Z</time>
      </trkpt>
      <trkpt lat="46.08756" lon="6.68663">
        <ele>672.419</ele>
        <time>2023-03-14T23:16:36.903Z</time>
      </trkpt>
      <trkpt lat="46.08753" lon="6.68703">
        <ele>672.648209</ele>
        <time>2023-03-14T23:16:47.226Z</time>
      </trkpt>
      <trkpt lat="46.0874" lon="6.68764">
        <ele>673.01013</ele>
        <time>2023-03-14T23:17:02.685Z</time>
      </trkpt>
      <trkpt lat="46.08734" lon="6.68776">
        <ele>673.093111</ele>
        <time>2023-03-14T23:17:06.524Z</time>
      </trkpt>
      <trkpt lat="46.08749" lon="6.68795">
        <ele>673.248796</ele>
        <time>2023-03-14T23:17:13.092Z</time>
      </trkpt>
      <trkpt lat="46.08751" lon="6.68834">
        <ele>673.466679</ele>
        <time>2023-03-14T23:17:22.758Z</time>
      </trkpt>
      <trkpt lat="46.0875" lon="6.68872">
        <ele>673.666442</ele>
        <time>2023-03-14T23:17:31.939Z</time>
      </trkpt>
      <trkpt lat="46.08766" lon="6.68913">
        <ele>673.909314</ele>
        <time>2023-03-14T23:17:43.093Z</time>
      </trkpt>
      <trkpt lat="46.08757" lon="6.68927">
        <ele>674.005946</ele>
        <time>2023-03-14T23:17:47.643Z</time>
      </trkpt>
      <trkpt lat="46.08736" lon="6.68939">
        <ele>674.179153</ele>
        <time>2023-03-14T23:17:55.944Z</time>
      </trkpt>
      <trkpt lat="46.08735" lon="6.68965">
        <ele>674.31278</ele>
        <time>2023-03-14T23:18:02.529Z</time>
      </trkpt>
      <trkpt lat="46.08726" lon="6.69001">
        <ele>674.507121</ele>
        <time>2023-03-14T23:18:11.823Z</time>
      </trkpt>
      <trkpt lat="46.08702" lon="6.69033">
        <ele>674.756589</ele>
        <time>2023-03-14T23:18:23.686Z</time>
      </trkpt>
      <trkpt lat="46.08702" lon="6.69033">
        <ele>674.760701</ele>
        <time>2023-03-14T23:18:23.836Z</time>
      </trkpt>
      <trkpt lat="46.08683" lon="6.69088">
        <ele>675.184155</ele>
        <time>2023-03-14T23:18:38.959Z</time>
      </trkpt>
      <trkpt lat="46.08657" lon="6.69106">
        <ele>675.482278</ele>
        <time>2023-03-14T23:18:49.768Z</time>
      </trkpt>
      <trkpt lat="46.08673" lon="6.69151">
        <ele>675.832136</ele>
        <time>2023-03-14T23:19:02.639Z</time>
      </trkpt>
      <trkpt lat="46.08669" lon="6.69171">
        <ele>675.977033</ele>
        <time>2023-03-14T23:19:07.973Z</time>
      </trkpt>
      <trkpt lat="46.08653" lon="6.69203">
        <ele>676.251232</ele>
        <time>2023-03-14T23:19:18.121Z</time>
      </trkpt>
      <trkpt lat="46.08647" lon="6.69239">
        <ele>676.510721</ele>
        <time>2023-03-14T23:19:27.834Z</time>
      </trkpt>
      <trkpt lat="46.08635" lon="6.69255">
        <ele>676.654588</ele>
        <time>2023-03-14T23:19:33.877Z</time>
      </trkpt>
      <trkpt lat="46.08612" lon="6.69266">
        <ele>676.85677</ele>
        <time>2023-03-14T23:19:42.945Z</time>
      </trkpt>
      <trkpt lat="46.08601" lon="6.693">
        <ele>677.082564</ele>
        <time>2023-03-14T23:19:52.792Z</time>
      </trkpt>
      <trkpt lat="46.08604" lon="6.69323">
        <ele>677.21998</ele>
        <time>2023-03-14T23:19:58.751Z</time>
      </trkpt>
      <trkpt lat="46.08582" lon="6.69369">
        <ele>677.541793</ele>
        <time>2023-03-14T23:20:12.279Z</time>
      </trkpt>
      <trkpt lat="46.08546" lon="6.69413">
        <ele>677.94392</ele>
        <time>2023-03-14T23:20:28.984Z</time>
      </trkpt>
      <trkpt lat="46.08534" lon="6.69453">
        <ele>678.140456</ele>
        <time>2023-03-14T23:20:39.770Z</time>
      </trkpt>
      <trkpt lat="46.08538" lon="6.69476">
        <ele>678.206096</ele>
        <time>2023-03-14T23:20:45.449Z</time>
      </trkpt>
      <trkpt lat="46.08534" lon="6.69509">
        <ele>678.298755</ele>
        <time>2023-03-14T23:20:53.383Z</time>
      </trkpt>
      <trkpt lat="46.08488" lon="6.69626">
        <ele>678.676619</ele>
        <time>2023-03-14T23:21:24.862Z</time>
      </trkpt>
      <trkpt lat="46.08487" lon="6.69651">
        <ele>678.745569</ele>
        <time>2023-03-14T23:21:30.513Z</time>
      </trkpt>
      <trkpt lat="46.0847" lon="6.69668">
        <ele>678.812774</ele>
        <time>2023-03-14T23:21:37.323Z</time>
      </trkpt>
      <trkpt lat="46.08471" lon="6.69685">
        <ele>678.828102</ele>
        <time>2023-03-14T23:21:41.227Z</time>
      </trkpt>
      <trkpt lat="46.08457" lon="6.69693">
        <ele>678.846529</ele>
        <time>2023-03-14T23:21:45.871Z</time>
      </trkpt>
      <trkpt lat="46.08455" lon="6.69755">
        <ele>678.901914</ele>
        <time>2023-03-14T23:21:59.820Z</time>
      </trkpt>
      <trkpt lat="46.08432" lon="6.698">
        <ele>678.951239</ele>
        <time>2023-03-14T23:22:12.196Z</time>
      </trkpt>
      <trkpt lat="46.08434" lon="6.69816">
        <ele>678.965437</ele>
        <time>2023-03-14T23:22:15.765Z</time>
      </trkpt>
      <trkpt lat="46.08452" lon="6.69861">
        <ele>679.011717</ele>
        <time>2023-03-14T23:22:27.327Z</time>
      </trkpt>
      <trkpt lat="46.0845" lon="6.69883">
        <ele>679.031657</ele>
        <time>2023-03-14T23:22:32.311Z</time>
      </trkpt>
      <trkpt lat="46.08431" lon="6.69971">
        <ele>679.177771</ele>
        <time>2023-03-14T23:22:52.877Z</time>
      </trkpt>
      <trkpt lat="46.08398" lon="6.70084">
        <ele>679.380177</ele>
        <time>2023-03-14T23:23:21.350Z</time>
      </trkpt>
      <trkpt lat="46.0838" lon="6.70134">
        <ele>679.487771</ele>
        <time>2023-03-14T23:23:34.195Z</time>
      </trkpt>
      <trkpt lat="46.08377" lon="6.70194">
        <ele>679.744804</ele>
        <time>2023-03-14T23:23:48.268Z</time>
      </trkpt>
      <trkpt lat="46.08386" lon="6.70246">
        <ele>679.97705</ele>
        <time>2023-03-14T23:24:01.206Z</time>
      </trkpt>
      <trkpt lat="46.08385" lon="6.70288">
        <ele>680.156077</ele>
        <time>2023-03-14T23:24:11.409Z</time>
      </trkpt>
      <trkpt lat="46.08371" lon="6.70314">
        <ele>680.295715</ele>
        <time>2023-03-14T23:24:19.644Z</time>
      </trkpt>
      <trkpt lat="46.08337" lon="6.7035">
        <ele>680.555232</ele>
        <time>2023-03-14T23:24:34.666Z</time>
      </trkpt>
      <trkpt lat="46.08333" lon="6.70375">
        <ele>680.721654</ele>
        <time>2023-03-14T23:24:40.958Z</time>
      </trkpt>
      <trkpt lat="46.08329" lon="6.70443">
        <ele>681.186915</ele>
        <time>2023-03-14T23:24:58.408Z</time>
      </trkpt>
      <trkpt lat="46.08337" lon="6.7045">
        <ele>681.276222</ele>
        <time>2023-03-14T23:25:01.738Z</time>
      </trkpt>
      <trkpt lat="46.08318" lon="6.70468">
        <ele>681.494953</ele>
        <time>2023-03-14T23:25:10.093Z</time>
      </trkpt>
      <trkpt lat="46.08293" lon="6.70499">
        <ele>681.820108</ele>
        <time>2023-03-14T23:25:22.356Z</time>
      </trkpt>
      <trkpt lat="46.08282" lon="6.70518">
        <ele>681.98967</ele>
        <time>2023-03-14T23:25:28.735Z</time>
      </trkpt>
      <trkpt lat="46.08271" lon="6.7053">
        <ele>682.118511</ele>
        <time>2023-03-14T23:25:33.661Z</time>
      </trkpt>
      <trkpt lat="46.0824" lon="6.70534">
        <ele>682.413909</ele>
        <time>2023-03-14T23:25:45.198Z</time>
      </trkpt>
      <trkpt lat="46.0824" lon="6.70541">
        <ele>682.459322</ele>
        <time>2023-03-14T23:25:47.062Z</time>
      </trkpt>
      <trkpt lat="46.08241" lon="6.7055">
        <ele>682.516468</ele>
        <time>2023-03-14T23:25:49.397Z</time>
      </trkpt>
      <trkpt lat="46.08238" lon="6.70586">
        <ele>682.745769</ele>
        <time>2023-03-14T23:25:58.719Z</time>
      </trkpt>
      <trkpt lat="46.08217" lon="6.70665">
        <ele>683.265386</ele>
        <time>2023-03-14T23:26:19.736Z</time>
      </trkpt>
      <trkpt lat="46.08217" lon="6.70687">
        <ele>683.404863</ele>
        <time>2023-03-14T23:26:25.460Z</time>
      </trkpt>
      <trkpt lat="46.0822" lon="6.70706">
        <ele>683.527438</ele>
        <time>2023-03-14T23:26:30.350Z</time>
      </trkpt>
      <trkpt lat="46.08231" lon="6.70726">
        <ele>683.684287</ele>
        <time>2023-03-14T23:26:36.851Z</time>
      </trkpt>
      <trkpt lat="46.08249" lon="6.70751">
        <ele>683.910915</ele>
        <time>2023-03-14T23:26:45.821Z</time>
      </trkpt>
      <trkpt lat="46.0826" lon="6.70777">
        <ele>684.062196</ele>
        <time>2023-03-14T23:26:53.310Z</time>
      </trkpt>
      <trkpt lat="46.08276" lon="6.7086">
        <ele>684.488017</ele>
        <time>2023-03-14T23:27:14.344Z</time>
      </trkpt>
      <trkpt lat="46.08297" lon="6.7094">
        <ele>684.910382</ele>
        <time>2023-03-14T23:27:35.143Z</time>
      </trkpt>
      <trkpt lat="46.083" lon="6.70953">
        <ele>684.975037</ele>
        <time>2023-03-14T23:27:37.299Z</time>
      </trkpt>
      <trkpt lat="46.08305" lon="6.70973">
        <ele>685.078535</ele>
        <time>2023-03-14T23:27:40.893Z</time>
      </trkpt>
      <trkpt lat="46.08313" lon="6.70988">
        <ele>685.171668</ele>
        <time>2023-03-14T23:27:44.059Z</time>
      </trkpt>
      <trkpt lat="46.084" lon="6.71084">
        <ele>685.923021</ele>
        <time>2023-03-14T23:28:09.919Z</time>
      </trkpt>
      <trkpt lat="46.08411" lon="6.71093">
        <ele>686.005826</ele>
        <time>2023-03-14T23:28:12.808Z</time>
      </trkpt>
      <trkpt lat="46.08405" lon="6.71116">
        <ele>686.119847</ele>
        <time>2023-03-14T23:28:16.774Z</time>
      </trkpt>
      <trkpt lat="46.08405" lon="6.7112">
        <ele>686.137697</ele>
        <time>2023-03-14T23:28:17.396Z</time>
      </trkpt>
      <trkpt lat="46.08388" lon="6.71188">
        <ele>686.482415</ele>
        <time>2023-03-14T23:28:29.056Z</time>
      </trkpt>
      <trkpt lat="46.08379" lon="6.71256">
        <ele>686.854905</ele>
        <time>2023-03-14T23:28:40.662Z</time>
      </trkpt>
      <trkpt lat="46.08359" lon="6.7152">
        <ele>688.293423</ele>
        <time>2023-03-14T23:29:25.349Z</time>
      </trkpt>
      <trkpt lat="46.08357" lon="6.71581">
        <ele>688.632131</ele>
        <time>2023-03-14T23:29:35.645Z</time>
      </trkpt>
      <trkpt lat="46.08349" lon="6.71581">
        <ele>688.694346</ele>
        <time>2023-03-14T23:29:37.433Z</time>
      </trkpt>
      <trkpt lat="46.08345" lon="6.7159">
        <ele>688.75211</ele>
        <time>2023-03-14T23:29:39.098Z</time>
      </trkpt>
      <trkpt lat="46.08347" lon="6.71599">
        <ele>688.803546</ele>
        <time>2023-03-14T23:29:40.596Z</time>
      </trkpt>
      <trkpt lat="46.08354" lon="6.71603">
        <ele>688.860522</ele>
        <time>2023-03-14T23:29:42.285Z</time>
      </trkpt>
      <trkpt lat="46.08363" lon="6.71691">
        <ele>689.379049</ele>
        <time>2023-03-14T23:29:56.355Z</time>
      </trkpt>
      <trkpt lat="46.08372" lon="6.71786">
        <ele>690.042155</ele>
        <time>2023-03-14T23:30:11.865Z</time>
      </trkpt>
      <trkpt lat="46.08375" lon="6.71815">
        <ele>690.243753</ele>
        <time>2023-03-14T23:30:16.779Z</time>
      </trkpt>
      <trkpt lat="46.08376" lon="6.71822">
        <ele>690.293432</ele>
        <time>2023-03-14T23:30:17.967Z</time>
      </trkpt>
      <trkpt lat="46.08382" lon="6.71885">
        <ele>690.737793</ele>
        <time>2023-03-14T23:30:28.964Z</time>
      </trkpt>
      <trkpt lat="46.08384" lon="6.71908">
        <ele>690.895198</ele>
        <time>2023-03-14T23:30:32.993Z</time>
      </trkpt>
      <trkpt lat="46.08385" lon="6.71919">
        <ele>690.973704</ele>
        <time>2023-03-14T23:30:35.009Z</time>
      </trkpt>
      <trkpt lat="46.08388" lon="6.72009">
        <ele>691.814393</ele>
        <time>2023-03-14T23:30:51.234Z</time>
      </trkpt>
      <trkpt lat="46.08388" lon="6.72018">
        <ele>691.894607</ele>
        <time>2023-03-14T23:30:52.743Z</time>
      </trkpt>
      <trkpt lat="46.08385" lon="6.72052">
        <ele>692.233028</ele>
        <time>2023-03-14T23:30:59.010Z</time>
      </trkpt>
      <trkpt lat="46.08378" lon="6.72091">
        <ele>692.619958</ele>
        <time>2023-03-14T23:31:06.298Z</time>
      </trkpt>
      <trkpt lat="46.0837" lon="6.72118">
        <ele>692.897842</ele>
        <time>2023-03-14T23:31:11.697Z</time>
      </trkpt>
      <trkpt lat="46.0836" lon="6.72147">
        <ele>693.212927</ele>
        <time>2023-03-14T23:31:17.676Z</time>
      </trkpt>
      <trkpt lat="46.08353" lon="6.72161">
        <ele>693.377901</ele>
        <time>2023-03-14T23:31:20.877Z</time>
      </trkpt>
      <trkpt lat="46.08339" lon="6.72192">
        <ele>693.719754</ele>
        <time>2023-03-14T23:31:27.490Z</time>
      </trkpt>
      <trkpt lat="46.08331" lon="6.72207">
        <ele>693.898701</ele>
        <time>2023-03-14T23:31:31.109Z</time>
      </trkpt>
      <trkpt lat="46.08306" lon="6.72248">
        <ele>694.392105</ele>
        <time>2023-03-14T23:31:40.917Z</time>
      </trkpt>
      <trkpt lat="46.08299" lon="6.72258">
        <ele>694.526723</ele>
        <time>2023-03-14T23:31:43.537Z</time>
      </trkpt>
      <trkpt lat="46.08296" lon="6.72262">
        <ele>694.578926</ele>
        <time>2023-03-14T23:31:44.539Z</time>
      </trkpt>
      <trkpt lat="46.08291" lon="6.72271">
        <ele>694.683227</ele>
        <time>2023-03-14T23:31:46.623Z</time>
      </trkpt>
      <trkpt lat="46.08288" lon="6.72276">
        <ele>694.74252</ele>
        <time>2023-03-14T23:31:47.806Z</time>
      </trkpt>
      <trkpt lat="46.08274" lon="6.72303">
        <ele>695.050216</ele>
        <time>2023-03-14T23:31:53.772Z</time>
      </trkpt>
      <trkpt lat="46.08265" lon="6.72319">
        <ele>695.24157</ele>
        <time>2023-03-14T23:31:57.556Z</time>
      </trkpt>
      <trkpt lat="46.08262" lon="6.72325">
        <ele>695.312092</ele>
        <time>2023-03-14T23:31:58.914Z</time>
      </trkpt>
      <trkpt lat="46.08249" lon="6.72349">
        <ele>695.583762</ele>
        <time>2023-03-14T23:32:04.077Z</time>
      </trkpt>
      <trkpt lat="46.08238" lon="6.72375">
        <ele>695.863955</ele>
        <time>2023-03-14T23:32:09.458Z</time>
      </trkpt>
      <trkpt lat="46.08229" lon="6.72382">
        <ele>695.999463</ele>
        <time>2023-03-14T23:32:11.914Z</time>
      </trkpt>
      <trkpt lat="46.08227" lon="6.72396">
        <ele>696.137572</ele>
        <time>2023-03-14T23:32:14.395Z</time>
      </trkpt>
      <trkpt lat="46.08229" lon="6.72402">
        <ele>696.196255</ele>
        <time>2023-03-14T23:32:15.442Z</time>
      </trkpt>
      <trkpt lat="46.08236" lon="6.7241">
        <ele>696.32377</ele>
        <time>2023-03-14T23:32:17.682Z</time>
      </trkpt>
      <trkpt lat="46.08242" lon="6.7242">
        <ele>696.451053</ele>
        <time>2023-03-14T23:32:19.896Z</time>
      </trkpt>
      <trkpt lat="46.08258" lon="6.72435">
        <ele>696.722534</ele>
        <time>2023-03-14T23:32:24.769Z</time>
      </trkpt>
      <trkpt lat="46.08276" lon="6.72449">
        <ele>697.007531</ele>
        <time>2023-03-14T23:32:29.826Z</time>
      </trkpt>
      <trkpt lat="46.0828" lon="6.72452">
        <ele>697.07419</ele>
        <time>2023-03-14T23:32:31.026Z</time>
      </trkpt>
      <trkpt lat="46.08288" lon="6.72459">
        <ele>697.205571</ele>
        <time>2023-03-14T23:32:33.462Z</time>
      </trkpt>
      <trkpt lat="46.08308" lon="6.72476">
        <ele>697.530853</ele>
        <time>2023-03-14T23:32:39.322Z</time>
      </trkpt>
      <trkpt lat="46.08355" lon="6.72518">
        <ele>698.310837</ele>
        <time>2023-03-14T23:32:54.086Z</time>
      </trkpt>
      <trkpt lat="46.08361" lon="6.72529">
        <ele>698.450807</ele>
        <time>2023-03-14T23:32:56.743Z</time>
      </trkpt>
      <trkpt lat="46.08368" lon="6.72551">
        <ele>698.874381</ele>
        <time>2023-03-14T23:33:01.614Z</time>
      </trkpt>
      <trkpt lat="46.0837" lon="6.72566">
        <ele>699.171249</ele>
        <time>2023-03-14T23:33:04.938Z</time>
      </trkpt>
      <trkpt lat="46.08375" lon="6.72595">
        <ele>699.69546</ele>
        <time>2023-03-14T23:33:11.116Z</time>
      </trkpt>
      <trkpt lat="46.08376" lon="6.726">
        <ele>699.802087</ele>
        <time>2023-03-14T23:33:12.481Z</time>
      </trkpt>
      <trkpt lat="46.08375" lon="6.72621">
        <ele>700.178589</ele>
        <time>2023-03-14T23:33:16.992Z</time>
      </trkpt>
      <trkpt lat="46.08371" lon="6.72636">
        <ele>700.477972</ele>
        <time>2023-03-14T23:33:20.739Z</time>
      </trkpt>
      <trkpt lat="46.08364" lon="6.72655">
        <ele>700.855685</ele>
        <time>2023-03-14T23:33:25.654Z</time>
      </trkpt>
      <trkpt lat="46.08357" lon="6.72674">
        <ele>701.245469</ele>
        <time>2023-03-14T23:33:30.343Z</time>
      </trkpt>
      <trkpt lat="46.08339" lon="6.72728">
        <ele>702.332001</ele>
        <time>2023-03-14T23:33:44.319Z</time>
      </trkpt>
      <trkpt lat="46.08347" lon="6.72786">
        <ele>703.448473</ele>
        <time>2023-03-14T23:33:59.003Z</time>
      </trkpt>
      <trkpt lat="46.0835" lon="6.72802">
        <ele>703.816331</ele>
        <time>2023-03-14T23:34:03.197Z</time>
      </trkpt>
      <trkpt lat="46.08361" lon="6.72831">
        <ele>704.546924</ele>
        <time>2023-03-14T23:34:11.508Z</time>
      </trkpt>
      <trkpt lat="46.08366" lon="6.72838">
        <ele>704.780921</ele>
        <time>2023-03-14T23:34:14.299Z</time>
      </trkpt>
      <trkpt lat="46.08351" lon="6.72873">
        <ele>705.680219</ele>
        <time>2023-03-14T23:34:24.219Z</time>
      </trkpt>
      <trkpt lat="46.08344" lon="6.72899">
        <ele>706.296075</ele>
        <time>2023-03-14T23:34:31.031Z</time>
      </trkpt>
      <trkpt lat="46.08344" lon="6.72908">
        <ele>706.499605</ele>
        <time>2023-03-14T23:34:33.333Z</time>
      </trkpt>
      <trkpt lat="46.08346" lon="6.72935">
        <ele>707.098586</ele>
        <time>2023-03-14T23:34:40.254Z</time>
      </trkpt>
      <trkpt lat="46.08346" lon="6.72937">
        <ele>707.142947</ele>
        <time>2023-03-14T23:34:40.731Z</time>
      </trkpt>
      <trkpt lat="46.08345" lon="6.72936">
        <ele>707.174</ele>
        <time>2023-03-14T23:34:41.132Z</time>
      </trkpt>
      <trkpt lat="46.0833" lon="6.73049">
        <ele>709.764889</ele>
        <time>2023-03-14T23:35:15.274Z</time>
      </trkpt>
      <trkpt lat="46.08329" lon="6.73108">
        <ele>711.142909</ele>
        <time>2023-03-14T23:35:32.787Z</time>
      </trkpt>
      <trkpt lat="46.08335" lon="6.73143">
        <ele>711.984725</ele>
        <time>2023-03-14T23:35:43.487Z</time>
      </trkpt>
      <trkpt lat="46.08337" lon="6.73232">
        <ele>714.063901</ele>
        <time>2023-03-14T23:36:09.915Z</time>
      </trkpt>
      <trkpt lat="46.08348" lon="6.73281">
        <ele>715.266039</ele>
        <time>2023-03-14T23:36:25.201Z</time>
      </trkpt>
      <trkpt lat="46.08361" lon="6.73322">
        <ele>716.317283</ele>
        <time>2023-03-14T23:36:38.582Z</time>
      </trkpt>
      <trkpt lat="46.08388" lon="6.73392">
        <ele>718.185031</ele>
        <time>2023-03-14T23:37:02.350Z</time>
      </trkpt>
      <trkpt lat="46.08388" lon="6.73392">
        <ele>718.190781</ele>
        <time>2023-03-14T23:37:02.418Z</time>
      </trkpt>
      <trkpt lat="46.08398" lon="6.73395">
        <ele>718.514642</ele>
        <time>2023-03-14T23:37:06.724Z</time>
      </trkpt>
      <trkpt lat="46.08401" lon="6.73393">
        <ele>718.634991</ele>
        <time>2023-03-14T23:37:07.828Z</time>
      </trkpt>
      <trkpt lat="46.08415" lon="6.7337">
        <ele>719.346817</ele>
        <time>2023-03-14T23:37:13.659Z</time>
      </trkpt>
      <trkpt lat="46.08421" lon="6.73362">
        <ele>719.626002</ele>
        <time>2023-03-14T23:37:17.674Z</time>
      </trkpt>
      <trkpt lat="46.08456" lon="6.73336">
        <ele>720.929429</ele>
        <time>2023-03-14T23:37:30.651Z</time>
      </trkpt>
      <trkpt lat="46.08464" lon="6.73327">
        <ele>721.297313</ele>
        <time>2023-03-14T23:37:33.973Z</time>
      </trkpt>
      <trkpt lat="46.08469" lon="6.7331">
        <ele>721.745481</ele>
        <time>2023-03-14T23:37:37.990Z</time>
      </trkpt>
      <trkpt lat="46.08472" lon="6.73274">
        <ele>722.646549</ele>
        <time>2023-03-14T23:37:49.478Z</time>
      </trkpt>
      <trkpt lat="46.08477" lon="6.73265">
        <ele>722.934874</ele>
        <time>2023-03-14T23:37:52.261Z</time>
      </trkpt>
      <trkpt lat="46.08484" lon="6.73262">
        <ele>723.173631</ele>
        <time>2023-03-14T23:37:55.531Z</time>
      </trkpt>
      <trkpt lat="46.08491" lon="6.73265">
        <ele>723.441556</ele>
        <time>2023-03-14T23:37:59.456Z</time>
      </trkpt>
      <trkpt lat="46.08497" lon="6.73278">
        <ele>723.824299</ele>
        <time>2023-03-14T23:38:03.204Z</time>
      </trkpt>
      <trkpt lat="46.0849" lon="6.7333">
        <ele>725.105783</ele>
        <time>2023-03-14T23:38:17.413Z</time>
      </trkpt>
      <trkpt lat="46.08492" lon="6.73345">
        <ele>725.499623</ele>
        <time>2023-03-14T23:38:21.014Z</time>
      </trkpt>
      <trkpt lat="46.08498" lon="6.73365">
        <ele>726.018207</ele>
        <time>2023-03-14T23:38:26.185Z</time>
      </trkpt>
      <trkpt lat="46.08513" lon="6.73406">
        <ele>727.155801</ele>
        <time>2023-03-14T23:38:36.489Z</time>
      </trkpt>
      <trkpt lat="46.08515" lon="6.7341">
        <ele>727.278615</ele>
        <time>2023-03-14T23:38:37.690Z</time>
      </trkpt>
      <trkpt lat="46.08526" lon="6.73422">
        <ele>727.906897</ele>
        <time>2023-03-14T23:38:42.002Z</time>
      </trkpt>
      <trkpt lat="46.08537" lon="6.73422">
        <ele>728.409951</ele>
        <time>2023-03-14T23:38:45.267Z</time>
      </trkpt>
      <trkpt lat="46.08546" lon="6.73405">
        <ele>729.092673</ele>
        <time>2023-03-14T23:38:50.429Z</time>
      </trkpt>
      <trkpt lat="46.08549" lon="6.73386">
        <ele>729.715296</ele>
        <time>2023-03-14T23:38:55.228Z</time>
      </trkpt>
      <trkpt lat="46.08553" lon="6.73356">
        <ele>730.713236</ele>
        <time>2023-03-14T23:39:03.804Z</time>
      </trkpt>
      <trkpt lat="46.08553" lon="6.73356">
        <ele>730.716466</ele>
        <time>2023-03-14T23:39:03.840Z</time>
      </trkpt>
      <trkpt lat="46.08553" lon="6.73341">
        <ele>731.210953</ele>
        <time>2023-03-14T23:39:08.476Z</time>
      </trkpt>
      <trkpt lat="46.0854" lon="6.73278">
        <ele>733.32691</ele>
        <time>2023-03-14T23:39:29.821Z</time>
      </trkpt>
      <trkpt lat="46.08535" lon="6.73222">
        <ele>735.134281</ele>
        <time>2023-03-14T23:39:48.065Z</time>
      </trkpt>
      <trkpt lat="46.08536" lon="6.73207">
        <ele>735.632447</ele>
        <time>2023-03-14T23:39:52.742Z</time>
      </trkpt>
      <trkpt lat="46.08552" lon="6.73164">
        <ele>738.1306</ele>
        <time>2023-03-14T23:40:08.968Z</time>
      </trkpt>
      <trkpt lat="46.0862" lon="6.72998">
        <ele>748.072377</ele>
        <time>2023-03-14T23:41:25.435Z</time>
      </trkpt>
      <trkpt lat="46.08624" lon="6.7298">
        <ele>749.075257</ele>
        <time>2023-03-14T23:41:34.406Z</time>
      </trkpt>
      <trkpt lat="46.08627" lon="6.72955">
        <ele>750.736028</ele>
        <time>2023-03-14T23:41:46.134Z</time>
      </trkpt>
      <trkpt lat="46.08628" lon="6.72923">
        <ele>752.853457</ele>
        <time>2023-03-14T23:42:00.873Z</time>
      </trkpt>
      <trkpt lat="46.08633" lon="6.72819">
        <ele>759.784635</ele>
        <time>2023-03-14T23:42:49.646Z</time>
      </trkpt>
      <trkpt lat="46.08648" lon="6.72754">
        <ele>764.3517</ele>
        <time>2023-03-14T23:43:22.594Z</time>
      </trkpt>
      <trkpt lat="46.08663" lon="6.72701">
        <ele>768.116602</ele>
        <time>2023-03-14T23:43:49.908Z</time>
      </trkpt>
      <trkpt lat="46.08677" lon="6.72668">
        <ele>770.645148</ele>
        <time>2023-03-14T23:44:08.638Z</time>
      </trkpt>
      <trkpt lat="46.0873" lon="6.72605">
        <ele>777.127397</ele>
        <time>2023-03-14T23:44:56.002Z</time>
      </trkpt>
      <trkpt lat="46.08768" lon="6.72527">
        <ele>783.44019</ele>
        <time>2023-03-14T23:45:37.235Z</time>
      </trkpt>
      <trkpt lat="46.08843" lon="6.72441">
        <ele>791.422882</ele>
        <time>2023-03-14T23:46:38.012Z</time>
      </trkpt>
      <trkpt lat="46.0886" lon="6.7241">
        <ele>793.650383</ele>
        <time>2023-03-14T23:46:54.601Z</time>
      </trkpt>
      <trkpt lat="46.08873" lon="6.72363">
        <ele>796.594677</ele>
        <time>2023-03-14T23:47:15.083Z</time>
      </trkpt>
      <trkpt lat="46.08882" lon="6.72349">
        <ele>797.712651</ele>
        <time>2023-03-14T23:47:22.121Z</time>
      </trkpt>
      <trkpt lat="46.08888" lon="6.72361">
        <ele>798.514215</ele>
        <time>2023-03-14T23:47:29.175Z</time>
      </trkpt>
      <trkpt lat="46.08889" lon="6.72373">
        <ele>799.336761</ele>
        <time>2023-03-14T23:47:32.928Z</time>
      </trkpt>
      <trkpt lat="46.0888" lon="6.72409">
        <ele>801.830235</ele>
        <time>2023-03-14T23:47:48.242Z</time>
      </trkpt>
      <trkpt lat="46.08875" lon="6.72449">
        <ele>804.477126</ele>
        <time>2023-03-14T23:48:03.190Z</time>
      </trkpt>
      <trkpt lat="46.08871" lon="6.72474">
        <ele>806.105416</ele>
        <time>2023-03-14T23:48:13.945Z</time>
      </trkpt>
      <trkpt lat="46.08868" lon="6.72487">
        <ele>807.009121</ele>
        <time>2023-03-14T23:48:19.684Z</time>
      </trkpt>
      <trkpt lat="46.08863" lon="6.72508">
        <ele>808.455271</ele>
        <time>2023-03-14T23:48:31.158Z</time>
      </trkpt>
      <trkpt lat="46.0884" lon="6.72561">
        <ele>812.469248</ele>
        <time>2023-03-14T23:49:06.297Z</time>
      </trkpt>
      <trkpt lat="46.08838" lon="6.72587">
        <ele>814.163547</ele>
        <time>2023-03-14T23:49:21.630Z</time>
      </trkpt>
      <trkpt lat="46.08843" lon="6.72613">
        <ele>815.935934</ele>
        <time>2023-03-14T23:49:33.729Z</time>
      </trkpt>
      <trkpt lat="46.08875" lon="6.727">
        <ele>822.156467</ele>
        <time>2023-03-14T23:50:22.965Z</time>
      </trkpt>
      <trkpt lat="46.0888" lon="6.72722">
        <ele>823.684419</ele>
        <time>2023-03-14T23:50:39.413Z</time>
      </trkpt>
      <trkpt lat="46.08887" lon="6.72773">
        <ele>827.002447</ele>
        <time>2023-03-14T23:51:07.509Z</time>
      </trkpt>
      <trkpt lat="46.0889" lon="6.72814">
        <ele>829.590353</ele>
        <time>2023-03-14T23:51:22.779Z</time>
      </trkpt>
      <trkpt lat="46.0889" lon="6.72865">
        <ele>831.099593</ele>
        <time>2023-03-14T23:51:40.603Z</time>
      </trkpt>
      <trkpt lat="46.08882" lon="6.72968">
        <ele>827.613665</ele>
        <time>2023-03-14T23:51:52.554Z</time>
      </trkpt>
      <trkpt lat="46.08857" lon="6.7296">
        <ele>826.399723</ele>
        <time>2023-03-14T23:51:57.898Z</time>
      </trkpt>
      <trkpt lat="46.08849" lon="6.72966">
        <ele>825.932141</ele>
        <time>2023-03-14T23:52:00.189Z</time>
      </trkpt>
      <trkpt lat="46.08835" lon="6.72983">
        <ele>825.068177</ele>
        <time>2023-03-14T23:52:03.922Z</time>
      </trkpt>
      <trkpt lat="46.08793" lon="6.73011">
        <ele>822.748859</ele>
        <time>2023-03-14T23:52:14.053Z</time>
      </trkpt>
      <trkpt lat="46.08766" lon="6.73011">
        <ele>820.854956</ele>
        <time>2023-03-14T23:52:19.767Z</time>
      </trkpt>
      <trkpt lat="46.08748" lon="6.73018">
        <ele>819.582957</ele>
        <time>2023-03-14T23:52:23.717Z</time>
      </trkpt>
      <trkpt lat="46.08736" lon="6.7305">
        <ele>817.854189</ele>
        <time>2023-03-14T23:52:28.787Z</time>
      </trkpt>
      <trkpt lat="46.08736" lon="6.73063">
        <ele>817.228352</ele>
        <time>2023-03-14T23:52:30.743Z</time>
      </trkpt>
      <trkpt lat="46.08749" lon="6.73144">
        <ele>813.249842</ele>
        <time>2023-03-14T23:52:44.268Z</time>
      </trkpt>
      <trkpt lat="46.08778" lon="6.73214">
        <ele>811.23122</ele>
        <time>2023-03-14T23:52:59.187Z</time>
      </trkpt>
      <trkpt lat="46.0882" lon="6.7328">
        <ele>813.650793</ele>
        <time>2023-03-14T23:53:33.084Z</time>
      </trkpt>
      <trkpt lat="46.0882" lon="6.7328">
        <ele>813.662107</ele>
        <time>2023-03-14T23:53:33.480Z</time>
      </trkpt>
      <trkpt lat="46.08855" lon="6.73326">
        <ele>815.528492</ele>
        <time>2023-03-14T23:53:59.541Z</time>
      </trkpt>
      <trkpt lat="46.08886" lon="6.73357">
        <ele>817.009293</ele>
        <time>2023-03-14T23:54:21.883Z</time>
      </trkpt>
      <trkpt lat="46.08895" lon="6.73361">
        <ele>817.35584</ele>
        <time>2023-03-14T23:54:27.804Z</time>
      </trkpt>
      <trkpt lat="46.08901" lon="6.73358">
        <ele>817.617582</ele>
        <time>2023-03-14T23:54:31.914Z</time>
      </trkpt>
      <trkpt lat="46.08901" lon="6.73345">
        <ele>818.761191</ele>
        <time>2023-03-14T23:54:37.993Z</time>
      </trkpt>
      <trkpt lat="46.08893" lon="6.73329">
        <ele>820.594865</ele>
        <time>2023-03-14T23:54:45.781Z</time>
      </trkpt>
      <trkpt lat="46.08877" lon="6.73306">
        <ele>823.550059</ele>
        <time>2023-03-14T23:55:00.867Z</time>
      </trkpt>
      <trkpt lat="46.08817" lon="6.73187">
        <ele>837.267898</ele>
        <time>2023-03-14T23:56:48.832Z</time>
      </trkpt>
      <trkpt lat="46.08807" lon="6.73161">
        <ele>840.076617</ele>
        <time>2023-03-14T23:57:08.453Z</time>
      </trkpt>
      <trkpt lat="46.088" lon="6.73138">
        <ele>842.655377</ele>
        <time>2023-03-14T23:57:33.828Z</time>
      </trkpt>
      <trkpt lat="46.08798" lon="6.73126">
        <ele>844.339044</ele>
        <time>2023-03-14T23:57:44.264Z</time>
      </trkpt>
      <trkpt lat="46.08799" lon="6.73105">
        <ele>847.109101</ele>
        <time>2023-03-14T23:57:58.698Z</time>
      </trkpt>
      <trkpt lat="46.08804" lon="6.73115">
        <ele>848.610277</ele>
        <time>2023-03-14T23:58:09.937Z</time>
      </trkpt>
      <trkpt lat="46.08812" lon="6.73121">
        <ele>850.465707</ele>
        <time>2023-03-14T23:58:18.520Z</time>
      </trkpt>
      <trkpt lat="46.08835" lon="6.73118">
        <ele>854.630172</ele>
        <time>2023-03-14T23:58:44.203Z</time>
      </trkpt>
      <trkpt lat="46.0886" lon="6.7312">
        <ele>859.383903</ele>
        <time>2023-03-14T23:59:13.777Z</time>
      </trkpt>
      <trkpt lat="46.08883" lon="6.73109">
        <ele>863.843275</ele>
        <time>2023-03-14T23:59:45.678Z</time>
      </trkpt>
      <trkpt lat="46.08902" lon="6.73116">
        <ele>867.569681</ele>
        <time>2023-03-15T00:00:05.598Z</time>
      </trkpt>
      <trkpt lat="46.0892" lon="6.73124">
        <ele>871.099233</ele>
        <time>2023-03-15T00:00:30.934Z</time>
      </trkpt>
      <trkpt lat="46.08929" lon="6.73122">
        <ele>872.901424</ele>
        <time>2023-03-15T00:00:38.934Z</time>
      </trkpt>
      <trkpt lat="46.08961" lon="6.73073">
        <ele>878.0866</ele>
        <time>2023-03-15T00:01:27.308Z</time>
      </trkpt>
      <trkpt lat="46.0897" lon="6.73066">
        <ele>878.87629</ele>
        <time>2023-03-15T00:01:32.949Z</time>
      </trkpt>
      <trkpt lat="46.08999" lon="6.73055">
        <ele>881.291771</ele>
        <time>2023-03-15T00:01:54.314Z</time>
      </trkpt>
      <trkpt lat="46.09014" lon="6.73036">
        <ele>882.862074</ele>
        <time>2023-03-15T00:02:08.220Z</time>
      </trkpt>
      <trkpt lat="46.09048" lon="6.72954">
        <ele>888.168795</ele>
        <time>2023-03-15T00:02:34.992Z</time>
      </trkpt>
      <trkpt lat="46.09068" lon="6.72878">
        <ele>891.017268</ele>
        <time>2023-03-15T00:02:45.911Z</time>
      </trkpt>
      <trkpt lat="46.09076" lon="6.7286">
        <ele>891.511157</ele>
        <time>2023-03-15T00:02:48.295Z</time>
      </trkpt>
      <trkpt lat="46.09076" lon="6.72852">
        <ele>891.706513</ele>
        <time>2023-03-15T00:02:49.351Z</time>
      </trkpt>
      <trkpt lat="46.09076" lon="6.72848">
        <ele>891.809573</ele>
        <time>2023-03-15T00:02:49.797Z</time>
      </trkpt>
      <trkpt lat="46.0908" lon="6.72834">
        <ele>892.166664</ele>
        <time>2023-03-15T00:02:53.058Z</time>
      </trkpt>
      <trkpt lat="46.09079" lon="6.72818">
        <ele>892.531203</ele>
        <time>2023-03-15T00:02:59.728Z</time>
      </trkpt>
      <trkpt lat="46.0908" lon="6.72796">
        <ele>893.046057</ele>
        <time>2023-03-15T00:03:09.220Z</time>
      </trkpt>
      <trkpt lat="46.09076" lon="6.7278">
        <ele>893.447561</ele>
        <time>2023-03-15T00:03:13.236Z</time>
      </trkpt>
      <trkpt lat="46.09069" lon="6.7277">
        <ele>893.786087</ele>
        <time>2023-03-15T00:03:20.119Z</time>
      </trkpt>
      <trkpt lat="46.09063" lon="6.72753">
        <ele>894.247671</ele>
        <time>2023-03-15T00:03:26.922Z</time>
      </trkpt>
      <trkpt lat="46.09056" lon="6.72749">
        <ele>894.48532</ele>
        <time>2023-03-15T00:03:28.771Z</time>
      </trkpt>
      <trkpt lat="46.09054" lon="6.72737">
        <ele>894.761309</ele>
        <time>2023-03-15T00:03:31.485Z</time>
      </trkpt>
      <trkpt lat="46.09043" lon="6.72715">
        <ele>895.421401</ele>
        <time>2023-03-15T00:03:42.681Z</time>
      </trkpt>
      <trkpt lat="46.09036" lon="6.72686">
        <ele>896.705176</ele>
        <time>2023-03-15T00:03:51.784Z</time>
      </trkpt>
      <trkpt lat="46.09039" lon="6.72671">
        <ele>897.83599</ele>
        <time>2023-03-15T00:03:58.634Z</time>
      </trkpt>
      <trkpt lat="46.09045" lon="6.7266">
        <ele>898.904839</ele>
        <time>2023-03-15T00:04:04.259Z</time>
      </trkpt>
      <trkpt lat="46.09048" lon="6.72658">
        <ele>899.253883</ele>
        <time>2023-03-15T00:04:05.314Z</time>
      </trkpt>
      <trkpt lat="46.09052" lon="6.72655">
        <ele>899.757783</ele>
        <time>2023-03-15T00:04:06.832Z</time>
      </trkpt>
      <trkpt lat="46.09064" lon="6.72654">
        <ele>901.135109</ele>
        <time>2023-03-15T00:04:15.974Z</time>
      </trkpt>
      <trkpt lat="46.09074" lon="6.72641">
        <ele>902.530748</ele>
        <time>2023-03-15T00:04:24.770Z</time>
      </trkpt>
      <trkpt lat="46.09091" lon="6.72566">
        <ele>908.541513</ele>
        <time>2023-03-15T00:05:03.659Z</time>
      </trkpt>
      <trkpt lat="46.09107" lon="6.72513">
        <ele>912.881148</ele>
        <time>2023-03-15T00:05:43.047Z</time>
      </trkpt>
      <trkpt lat="46.09124" lon="6.72482">
        <ele>915.976286</ele>
        <time>2023-03-15T00:06:10.466Z</time>
      </trkpt>
      <trkpt lat="46.09173" lon="6.72382">
        <ele>927.201707</ele>
        <time>2023-03-15T00:07:23.993Z</time>
      </trkpt>
      <trkpt lat="46.092" lon="6.72318">
        <ele>933.966771</ele>
        <time>2023-03-15T00:08:04.879Z</time>
      </trkpt>
      <trkpt lat="46.09227" lon="6.72278">
        <ele>939.001199</ele>
        <time>2023-03-15T00:08:32.859Z</time>
      </trkpt>
      <trkpt lat="46.09235" lon="6.72257">
        <ele>941.822313</ele>
        <time>2023-03-15T00:08:46.123Z</time>
      </trkpt>
      <trkpt lat="46.09258" lon="6.72189">
        <ele>950.79625</ele>
        <time>2023-03-15T00:09:37.577Z</time>
      </trkpt>
      <trkpt lat="46.09279" lon="6.72156">
        <ele>956.111962</ele>
        <time>2023-03-15T00:10:13.166Z</time>
      </trkpt>
      <trkpt lat="46.09317" lon="6.72103">
        <ele>965.228404</ele>
        <time>2023-03-15T00:11:12.341Z</time>
      </trkpt>
      <trkpt lat="46.09351" lon="6.72076">
        <ele>971.816115</ele>
        <time>2023-03-15T00:11:58.834Z</time>
      </trkpt>
      <trkpt lat="46.09402" lon="6.72039">
        <ele>981.50263</ele>
        <time>2023-03-15T00:13:07.040Z</time>
      </trkpt>
      <trkpt lat="46.0942" lon="6.72017">
        <ele>985.606858</ele>
        <time>2023-03-15T00:13:34.142Z</time>
      </trkpt>
      <trkpt lat="46.09456" lon="6.71987">
        <ele>992.725265</ele>
        <time>2023-03-15T00:14:23.012Z</time>
      </trkpt>
      <trkpt lat="46.09505" lon="6.71962">
        <ele>1001.042001</ele>
        <time>2023-03-15T00:15:09.230Z</time>
      </trkpt>
      <trkpt lat="46.09539" lon="6.71951">
        <ele>1003.181436</ele>
        <time>2023-03-15T00:15:28.765Z</time>
      </trkpt>
      <trkpt lat="46.0955" lon="6.71955">
        <ele>1003.895369</ele>
        <time>2023-03-15T00:15:33.141Z</time>
      </trkpt>
      <trkpt lat="46.09567" lon="6.71972">
        <ele>1005.150562</ele>
        <time>2023-03-15T00:15:41.169Z</time>
      </trkpt>
      <trkpt lat="46.09574" lon="6.71988">
        <ele>1005.970969</ele>
        <time>2023-03-15T00:15:46.349Z</time>
      </trkpt>
      <trkpt lat="46.09573" lon="6.72004">
        <ele>1006.678775</ele>
        <time>2023-03-15T00:15:50.875Z</time>
      </trkpt>
      <trkpt lat="46.09564" lon="6.72014">
        <ele>1007.343064</ele>
        <time>2023-03-15T00:15:53.975Z</time>
      </trkpt>
      <trkpt lat="46.09539" lon="6.72019">
        <ele>1008.957783</ele>
        <time>2023-03-15T00:16:02.766Z</time>
      </trkpt>
      <trkpt lat="46.09512" lon="6.7203">
        <ele>1010.654169</ele>
        <time>2023-03-15T00:16:12.802Z</time>
      </trkpt>
      <trkpt lat="46.09481" lon="6.72063">
        <ele>1014.15936</ele>
        <time>2023-03-15T00:16:28.336Z</time>
      </trkpt>
      <trkpt lat="46.09478" lon="6.7208">
        <ele>1015.668936</ele>
        <time>2023-03-15T00:16:35.823Z</time>
      </trkpt>
      <trkpt lat="46.09482" lon="6.7209">
        <ele>1016.655651</ele>
        <time>2023-03-15T00:16:41.177Z</time>
      </trkpt>
      <trkpt lat="46.09492" lon="6.72092">
        <ele>1017.809611</ele>
        <time>2023-03-15T00:16:47.660Z</time>
      </trkpt>
      <trkpt lat="46.09503" lon="6.72083">
        <ele>1019.313827</ele>
        <time>2023-03-15T00:16:57.012Z</time>
      </trkpt>
      <trkpt lat="46.0952" lon="6.72075">
        <ele>1021.517266</ele>
        <time>2023-03-15T00:17:15.210Z</time>
      </trkpt>
      <trkpt lat="46.09537" lon="6.72075">
        <ele>1023.609895</ele>
        <time>2023-03-15T00:17:28.428Z</time>
      </trkpt>
      <trkpt lat="46.0956" lon="6.72081">
        <ele>1026.361963</ele>
        <time>2023-03-15T00:17:51.211Z</time>
      </trkpt>
      <trkpt lat="46.09586" lon="6.72072">
        <ele>1029.589587</ele>
        <time>2023-03-15T00:18:14.639Z</time>
      </trkpt>
      <trkpt lat="46.09606" lon="6.72073">
        <ele>1032.058535</ele>
        <time>2023-03-15T00:18:33.280Z</time>
      </trkpt>
      <trkpt lat="46.09656" lon="6.72083">
        <ele>1040.156084</ele>
        <time>2023-03-15T00:19:25.934Z</time>
      </trkpt>
      <trkpt lat="46.09663" lon="6.7209">
        <ele>1041.707083</ele>
        <time>2023-03-15T00:19:36.924Z</time>
      </trkpt>
      <trkpt lat="46.09669" lon="6.72102">
        <ele>1043.397607</ele>
        <time>2023-03-15T00:19:44.612Z</time>
      </trkpt>
      <trkpt lat="46.09676" lon="6.72126">
        <ele>1046.613391</ele>
        <time>2023-03-15T00:20:05.967Z</time>
      </trkpt>
      <trkpt lat="46.09674" lon="6.72141">
        <ele>1048.33238</ele>
        <time>2023-03-15T00:20:17.420Z</time>
      </trkpt>
      <trkpt lat="46.09665" lon="6.72172">
        <ele>1052.497446</ele>
        <time>2023-03-15T00:20:43.775Z</time>
      </trkpt>
      <trkpt lat="46.09661" lon="6.72182">
        <ele>1053.931571</ele>
        <time>2023-03-15T00:20:54.338Z</time>
      </trkpt>
      <trkpt lat="46.09654" lon="6.7219">
        <ele>1055.454037</ele>
        <time>2023-03-15T00:21:02.434Z</time>
      </trkpt>
      <trkpt lat="46.09633" lon="6.72191">
        <ele>1059.119048</ele>
        <time>2023-03-15T00:21:25.477Z</time>
      </trkpt>
      <trkpt lat="46.09624" lon="6.72196">
        <ele>1060.749766</ele>
        <time>2023-03-15T00:21:37.286Z</time>
      </trkpt>
      <trkpt lat="46.09615" lon="6.72209">
        <ele>1063.035334</ele>
        <time>2023-03-15T00:21:48.062Z</time>
      </trkpt>
      <trkpt lat="46.09612" lon="6.72222">
        <ele>1064.677805</ele>
        <time>2023-03-15T00:21:58.145Z</time>
      </trkpt>
      <trkpt lat="46.0961" lon="6.7223">
        <ele>1065.799102</ele>
        <time>2023-03-15T00:22:03.529Z</time>
      </trkpt>
      <trkpt lat="46.09634" lon="6.72283">
        <ele>1074.322426</ele>
        <time>2023-03-15T00:22:52.038Z</time>
      </trkpt>
      <trkpt lat="46.09647" lon="6.72325">
        <ele>1080.473893</ele>
        <time>2023-03-15T00:23:29.350Z</time>
      </trkpt>
      <trkpt lat="46.09647" lon="6.72328">
        <ele>1080.941848</ele>
        <time>2023-03-15T00:23:31.350Z</time>
      </trkpt>
      <trkpt lat="46.09644" lon="6.72337">
        <ele>1082.227553</ele>
        <time>2023-03-15T00:23:40.339Z</time>
      </trkpt>
      <trkpt lat="46.09631" lon="6.72351">
        <ele>1085.393198</ele>
        <time>2023-03-15T00:23:59.956Z</time>
      </trkpt>
      <trkpt lat="46.09626" lon="6.7235">
        <ele>1086.313759</ele>
        <time>2023-03-15T00:24:03.273Z</time>
      </trkpt>
      <trkpt lat="46.09631" lon="6.72351">
        <ele>1087.234319</ele>
        <time>2023-03-15T00:24:07.412Z</time>
      </trkpt>
      <trkpt lat="46.09658" lon="6.72343">
        <ele>1092.686658</ele>
        <time>2023-03-15T00:24:41.393Z</time>
      </trkpt>
      <trkpt lat="46.09672" lon="6.72344">
        <ele>1095.311994</ele>
        <time>2023-03-15T00:24:51.732Z</time>
      </trkpt>
      <trkpt lat="46.0968" lon="6.72351">
        <ele>1097.119351</ele>
        <time>2023-03-15T00:25:05.799Z</time>
      </trkpt>
      <trkpt lat="46.09705" lon="6.72365">
        <ele>1102.553893</ele>
        <time>2023-03-15T00:25:38.064Z</time>
      </trkpt>
      <trkpt lat="46.09766" lon="6.7243">
        <ele>1119.116405</ele>
        <time>2023-03-15T00:27:29.831Z</time>
      </trkpt>
      <trkpt lat="46.09768" lon="6.72431">
        <ele>1119.573796</ele>
        <time>2023-03-15T00:27:33.100Z</time>
      </trkpt>
      <trkpt lat="46.09801" lon="6.72442">
        <ele>1126.803564</ele>
        <time>2023-03-15T00:28:21.895Z</time>
      </trkpt>
      <trkpt lat="46.09818" lon="6.72464">
        <ele>1131.799169</ele>
        <time>2023-03-15T00:28:55.582Z</time>
      </trkpt>
      <trkpt lat="46.09823" lon="6.72469">
        <ele>1133.199086</ele>
        <time>2023-03-15T00:29:04.960Z</time>
      </trkpt>
      <trkpt lat="46.09859" lon="6.72541">
        <ele>1142.930686</ele>
        <time>2023-03-15T00:30:07.579Z</time>
      </trkpt>
      <trkpt lat="46.0987" lon="6.72566">
        <ele>1145.21717</ele>
        <time>2023-03-15T00:30:29.319Z</time>
      </trkpt>
      <trkpt lat="46.0988" lon="6.72599">
        <ele>1148.098459</ele>
        <time>2023-03-15T00:30:56.648Z</time>
      </trkpt>
      <trkpt lat="46.09888" lon="6.72609">
        <ele>1149.334251</ele>
        <time>2023-03-15T00:31:06.698Z</time>
      </trkpt>
      <trkpt lat="46.09909" lon="6.72734">
        <ele>1159.459188</ele>
        <time>2023-03-15T00:32:02.774Z</time>
      </trkpt>
      <trkpt lat="46.09942" lon="6.7283">
        <ele>1160.56655</ele>
        <time>2023-03-15T00:32:26.545Z</time>
      </trkpt>
      <trkpt lat="46.0995" lon="6.72838">
        <ele>1160.710728</ele>
        <time>2023-03-15T00:32:30.128Z</time>
      </trkpt>
      <trkpt lat="46.0996" lon="6.72841">
        <ele>1160.865545</ele>
        <time>2023-03-15T00:32:31.456Z</time>
      </trkpt>
      <trkpt lat="46.09972" lon="6.72838">
        <ele>1161.043353</ele>
        <time>2023-03-15T00:32:36.337Z</time>
      </trkpt>
      <trkpt lat="46.09989" lon="6.72826">
        <ele>1161.320746</ele>
        <time>2023-03-15T00:32:42.949Z</time>
      </trkpt>
      <trkpt lat="46.09993" lon="6.72828">
        <ele>1161.383638</ele>
        <time>2023-03-15T00:32:43.414Z</time>
      </trkpt>
      <trkpt lat="46.09996" lon="6.72846">
        <ele>1161.580721</ele>
        <time>2023-03-15T00:32:48.774Z</time>
      </trkpt>
      <trkpt lat="46.10003" lon="6.72875">
        <ele>1161.891002</ele>
        <time>2023-03-15T00:32:52.897Z</time>
      </trkpt>
      <trkpt lat="46.10022" lon="6.72906">
        <ele>1161.771195</ele>
        <time>2023-03-15T00:32:57.745Z</time>
      </trkpt>
      <trkpt lat="46.10063" lon="6.72934">
        <ele>1160.540393</ele>
        <time>2023-03-15T00:33:03.731Z</time>
      </trkpt>
      <trkpt lat="46.10108" lon="6.72987">
        <ele>1158.96431</ele>
        <time>2023-03-15T00:33:12.076Z</time>
      </trkpt>
      <trkpt lat="46.10124" lon="6.73002">
        <ele>1158.454951</ele>
        <time>2023-03-15T00:33:15.724Z</time>
      </trkpt>
      <trkpt lat="46.10134" lon="6.73005">
        <ele>1158.178508</ele>
        <time>2023-03-15T00:33:17.057Z</time>
      </trkpt>
      <trkpt lat="46.10147" lon="6.73002">
        <ele>1157.822386</ele>
        <time>2023-03-15T00:33:19.526Z</time>
      </trkpt>
      <trkpt lat="46.10159" lon="6.72993">
        <ele>1157.444102</ele>
        <time>2023-03-15T00:33:21.687Z</time>
      </trkpt>
      <trkpt lat="46.10172" lon="6.72989">
        <ele>1157.124036</ele>
        <time>2023-03-15T00:33:23.392Z</time>
      </trkpt>
      <trkpt lat="46.10184" lon="6.72996">
        <ele>1156.799361</ele>
        <time>2023-03-15T00:33:25.803Z</time>
      </trkpt>
      <trkpt lat="46.10192" lon="6.73009">
        <ele>1156.522091</ele>
        <time>2023-03-15T00:33:27.477Z</time>
      </trkpt>
      <trkpt lat="46.10204" lon="6.73041">
        <ele>1155.908678</ele>
        <time>2023-03-15T00:33:31.323Z</time>
      </trkpt>
      <trkpt lat="46.10212" lon="6.73052">
        <ele>1155.64967</ele>
        <time>2023-03-15T00:33:32.847Z</time>
      </trkpt>
      <trkpt lat="46.10221" lon="6.7306">
        <ele>1155.403963</ele>
        <time>2023-03-15T00:33:34.245Z</time>
      </trkpt>
      <trkpt lat="46.1026" lon="6.73073">
        <ele>1154.446753</ele>
        <time>2023-03-15T00:33:40.151Z</time>
      </trkpt>
      <trkpt lat="46.10268" lon="6.73064">
        <ele>1154.199736</ele>
        <time>2023-03-15T00:33:42.837Z</time>
      </trkpt>
      <trkpt lat="46.10274" lon="6.73046">
        <ele>1153.872229</ele>
        <time>2023-03-15T00:33:46.487Z</time>
      </trkpt>
      <trkpt lat="46.10275" lon="6.73042">
        <ele>1153.796165</ele>
        <time>2023-03-15T00:33:47.462Z</time>
      </trkpt>
      <trkpt lat="46.10256" lon="6.72963">
        <ele>1152.289275</ele>
        <time>2023-03-15T00:34:03.800Z</time>
      </trkpt>
      <trkpt lat="46.10249" lon="6.7294">
        <ele>1151.76426</ele>
        <time>2023-03-15T00:34:09.240Z</time>
      </trkpt>
      <trkpt lat="46.10239" lon="6.7289">
        <ele>1150.688792</ele>
        <time>2023-03-15T00:34:19.683Z</time>
      </trkpt>
      <trkpt lat="46.10242" lon="6.72875">
        <ele>1150.361703</ele>
        <time>2023-03-15T00:34:22.483Z</time>
      </trkpt>
      <trkpt lat="46.10242" lon="6.72872">
        <ele>1150.306823</ele>
        <time>2023-03-15T00:34:22.977Z</time>
      </trkpt>
      <trkpt lat="46.1024" lon="6.72862">
        <ele>1150.100019</ele>
        <time>2023-03-15T00:34:24.528Z</time>
      </trkpt>
      <trkpt lat="46.10223" lon="6.72854">
        <ele>1149.560338</ele>
        <time>2023-03-15T00:34:29.152Z</time>
      </trkpt>
      <trkpt lat="46.10208" lon="6.72797">
        <ele>1148.294199</ele>
        <time>2023-03-15T00:34:39.297Z</time>
      </trkpt>
      <trkpt lat="46.10199" lon="6.72739">
        <ele>1147.60502</ele>
        <time>2023-03-15T00:34:47.255Z</time>
      </trkpt>
      <trkpt lat="46.10185" lon="6.72708">
        <ele>1147.576038</ele>
        <time>2023-03-15T00:34:52.441Z</time>
      </trkpt>
      <trkpt lat="46.10159" lon="6.72674">
        <ele>1147.536177</ele>
        <time>2023-03-15T00:34:59.504Z</time>
      </trkpt>
      <trkpt lat="46.10148" lon="6.72648">
        <ele>1147.512169</ele>
        <time>2023-03-15T00:35:03.855Z</time>
      </trkpt>
      <trkpt lat="46.10131" lon="6.72587">
        <ele>1147.461234</ele>
        <time>2023-03-15T00:35:19.430Z</time>
      </trkpt>
      <trkpt lat="46.10107" lon="6.72473">
        <ele>1152.734931</ele>
        <time>2023-03-15T00:36:01.253Z</time>
      </trkpt>
      <trkpt lat="46.10108" lon="6.72464">
        <ele>1153.434609</ele>
        <time>2023-03-15T00:36:04.330Z</time>
      </trkpt>
      <trkpt lat="46.10119" lon="6.7245">
        <ele>1155.081342</ele>
        <time>2023-03-15T00:36:12.764Z</time>
      </trkpt>
      <trkpt lat="46.10121" lon="6.72437">
        <ele>1156.131976</ele>
        <time>2023-03-15T00:36:24.029Z</time>
      </trkpt>
      <trkpt lat="46.10154" lon="6.72508">
        <ele>1162.652244</ele>
        <time>2023-03-15T00:37:19.982Z</time>
      </trkpt>
      <trkpt lat="46.1016" lon="6.72513">
        <ele>1163.47188</ele>
        <time>2023-03-15T00:37:25.380Z</time>
      </trkpt>
      <trkpt lat="46.10168" lon="6.72505">
        <ele>1164.534356</ele>
        <time>2023-03-15T00:37:36.348Z</time>
      </trkpt>
      <trkpt lat="46.1017" lon="6.72467">
        <ele>1167.494513</ele>
        <time>2023-03-15T00:37:58.299Z</time>
      </trkpt>
      <trkpt lat="46.10196" lon="6.72416">
        <ele>1174.141122</ele>
        <time>2023-03-15T00:38:40.964Z</time>
      </trkpt>
      <trkpt lat="46.10215" lon="6.72409">
        <ele>1177.089341</ele>
        <time>2023-03-15T00:38:58.946Z</time>
      </trkpt>
      <trkpt lat="46.10227" lon="6.72399">
        <ele>1179.216984</ele>
        <time>2023-03-15T00:39:10.263Z</time>
      </trkpt>
      <trkpt lat="46.10272" lon="6.72289">
        <ele>1192.482043</ele>
        <time>2023-03-15T00:40:43.189Z</time>
      </trkpt>
      <trkpt lat="46.10285" lon="6.72266">
        <ele>1195.289858</ele>
        <time>2023-03-15T00:41:02.623Z</time>
      </trkpt>
      <trkpt lat="46.10289" lon="6.72264">
        <ele>1195.705434</ele>
        <time>2023-03-15T00:41:06.704Z</time>
      </trkpt>
      <trkpt lat="46.10296" lon="6.72266">
        <ele>1196.517865</ele>
        <time>2023-03-15T00:41:14.885Z</time>
      </trkpt>
      <trkpt lat="46.10299" lon="6.72275">
        <ele>1197.277464</ele>
        <time>2023-03-15T00:41:22.468Z</time>
      </trkpt>
      <trkpt lat="46.10287" lon="6.72313">
        <ele>1200.461851</ele>
        <time>2023-03-15T00:41:42.830Z</time>
      </trkpt>
      <trkpt lat="46.10283" lon="6.72346">
        <ele>1202.975144</ele>
        <time>2023-03-15T00:41:56.823Z</time>
      </trkpt>
      <trkpt lat="46.10284" lon="6.72391">
        <ele>1206.484533</ele>
        <time>2023-03-15T00:42:19.501Z</time>
      </trkpt>
      <trkpt lat="46.10287" lon="6.72416">
        <ele>1208.411368</ele>
        <time>2023-03-15T00:42:31.985Z</time>
      </trkpt>
      <trkpt lat="46.10297" lon="6.72461">
        <ele>1212.004402</ele>
        <time>2023-03-15T00:42:55.517Z</time>
      </trkpt>
      <trkpt lat="46.10311" lon="6.72505">
        <ele>1215.299759</ele>
        <time>2023-03-15T00:43:18.699Z</time>
      </trkpt>
      <trkpt lat="46.10315" lon="6.72529">
        <ele>1216.712299</ele>
        <time>2023-03-15T00:43:29.830Z</time>
      </trkpt>
      <trkpt lat="46.10319" lon="6.72537">
        <ele>1217.261965</ele>
        <time>2023-03-15T00:43:36.381Z</time>
      </trkpt>
      <trkpt lat="46.10324" lon="6.72537">
        <ele>1217.65123</ele>
        <time>2023-03-15T00:43:39.824Z</time>
      </trkpt>
      <trkpt lat="46.10327" lon="6.72532">
        <ele>1218.048601</ele>
        <time>2023-03-15T00:43:44.400Z</time>
      </trkpt>
      <trkpt lat="46.10323" lon="6.7249">
        <ele>1220.428115</ele>
        <time>2023-03-15T00:44:02.637Z</time>
      </trkpt>
      <trkpt lat="46.10326" lon="6.72472">
        <ele>1221.486938</ele>
        <time>2023-03-15T00:44:08.095Z</time>
      </trkpt>
      <trkpt lat="46.10332" lon="6.72461">
        <ele>1222.265528</ele>
        <time>2023-03-15T00:44:09.908Z</time>
      </trkpt>
      <trkpt lat="46.10363" lon="6.72424">
        <ele>1225.548882</ele>
        <time>2023-03-15T00:44:21.733Z</time>
      </trkpt>
      <trkpt lat="46.10379" lon="6.72391">
        <ele>1227.784533</ele>
        <time>2023-03-15T00:44:43.453Z</time>
      </trkpt>
      <trkpt lat="46.10389" lon="6.72362">
        <ele>1230.366964</ele>
        <time>2023-03-15T00:45:08.139Z</time>
      </trkpt>
      <trkpt lat="46.10398" lon="6.72362">
        <ele>1231.7255</ele>
        <time>2023-03-15T00:45:13.732Z</time>
      </trkpt>
      <trkpt lat="46.10404" lon="6.72377">
        <ele>1233.565132</ele>
        <time>2023-03-15T00:45:21.293Z</time>
      </trkpt>
      <trkpt lat="46.10397" lon="6.72461">
        <ele>1242.398826</ele>
        <time>2023-03-15T00:46:20.244Z</time>
      </trkpt>
      <trkpt lat="46.10401" lon="6.72481">
        <ele>1244.563104</ele>
        <time>2023-03-15T00:46:29.720Z</time>
      </trkpt>
      <trkpt lat="46.10409" lon="6.72491">
        <ele>1246.158943</ele>
        <time>2023-03-15T00:46:44.170Z</time>
      </trkpt>
      <trkpt lat="46.10428" lon="6.72493">
        <ele>1249.106534</ele>
        <time>2023-03-15T00:46:58.702Z</time>
      </trkpt>
      <trkpt lat="46.1045" lon="6.7249">
        <ele>1252.383027</ele>
        <time>2023-03-15T00:47:27.194Z</time>
      </trkpt>
      <trkpt lat="46.10489" lon="6.72525">
        <ele>1259.555369</ele>
        <time>2023-03-15T00:48:16.363Z</time>
      </trkpt>
      <trkpt lat="46.10582" lon="6.72613">
        <ele>1277.204858</ele>
        <time>2023-03-15T00:50:23.027Z</time>
      </trkpt>
      <trkpt lat="46.10592" lon="6.72616">
        <ele>1278.830446</ele>
        <time>2023-03-15T00:50:30.733Z</time>
      </trkpt>
      <trkpt lat="46.10595" lon="6.72613">
        <ele>1279.388764</ele>
        <time>2023-03-15T00:50:33.678Z</time>
      </trkpt>
      <trkpt lat="46.10599" lon="6.72604">
        <ele>1280.541792</ele>
        <time>2023-03-15T00:50:42.414Z</time>
      </trkpt>
      <trkpt lat="46.10597" lon="6.72553">
        <ele>1285.434651</ele>
        <time>2023-03-15T00:51:07.610Z</time>
      </trkpt>
      <trkpt lat="46.106" lon="6.72511">
        <ele>1288.013954</ele>
        <time>2023-03-15T00:51:23.768Z</time>
      </trkpt>
      <trkpt lat="46.10609" lon="6.72443">
        <ele>1292.202255</ele>
        <time>2023-03-15T00:51:53.515Z</time>
      </trkpt>
      <trkpt lat="46.10614" lon="6.72428">
        <ele>1293.228232</ele>
        <time>2023-03-15T00:51:57.351Z</time>
      </trkpt>
      <trkpt lat="46.10625" lon="6.7242">
        <ele>1294.26936</ele>
        <time>2023-03-15T00:52:03.536Z</time>
      </trkpt>
      <trkpt lat="46.10636" lon="6.72425">
        <ele>1295.240661</ele>
        <time>2023-03-15T00:52:16.262Z</time>
      </trkpt>
      <trkpt lat="46.10643" lon="6.72439">
        <ele>1296.275093</ele>
        <time>2023-03-15T00:52:24.958Z</time>
      </trkpt>
      <trkpt lat="46.10653" lon="6.72481">
        <ele>1298.998024</ele>
        <time>2023-03-15T00:52:45.964Z</time>
      </trkpt>
      <trkpt lat="46.10657" lon="6.72491">
        <ele>1299.71646</ele>
        <time>2023-03-15T00:52:49.226Z</time>
      </trkpt>
      <trkpt lat="46.10671" lon="6.72506">
        <ele>1301.255268</ele>
        <time>2023-03-15T00:52:56.373Z</time>
      </trkpt>
      <trkpt lat="46.10679" lon="6.72508">
        <ele>1301.951045</ele>
        <time>2023-03-15T00:53:07.023Z</time>
      </trkpt>
      <trkpt lat="46.10686" lon="6.72506">
        <ele>1302.574696</ele>
        <time>2023-03-15T00:53:10.034Z</time>
      </trkpt>
      <trkpt lat="46.10697" lon="6.72493">
        <ele>1303.81506</ele>
        <time>2023-03-15T00:53:15.796Z</time>
      </trkpt>
      <trkpt lat="46.107" lon="6.72484">
        <ele>1304.467705</ele>
        <time>2023-03-15T00:53:18.640Z</time>
      </trkpt>
      <trkpt lat="46.10707" lon="6.72443">
        <ele>1307.059581</ele>
        <time>2023-03-15T00:53:38.208Z</time>
      </trkpt>
      <trkpt lat="46.10711" lon="6.72436">
        <ele>1307.610183</ele>
        <time>2023-03-15T00:53:40.360Z</time>
      </trkpt>
      <trkpt lat="46.10717" lon="6.72433">
        <ele>1308.156184</ele>
        <time>2023-03-15T00:53:48.736Z</time>
      </trkpt>
      <trkpt lat="46.10722" lon="6.72437">
        <ele>1308.651382</ele>
        <time>2023-03-15T00:53:52.201Z</time>
      </trkpt>
      <trkpt lat="46.10727" lon="6.72471">
        <ele>1310.832224</ele>
        <time>2023-03-15T00:54:01.357Z</time>
      </trkpt>
      <trkpt lat="46.10759" lon="6.72518">
        <ele>1314.889817</ele>
        <time>2023-03-15T00:54:39.877Z</time>
      </trkpt>
      <trkpt lat="46.10787" lon="6.72575">
        <ele>1318.048828</ele>
        <time>2023-03-15T00:55:13.091Z</time>
      </trkpt>
      <trkpt lat="46.1083" lon="6.72652">
        <ele>1321.791073</ele>
        <time>2023-03-15T00:55:53.391Z</time>
      </trkpt>
      <trkpt lat="46.1088" lon="6.72732">
        <ele>1325.884051</ele>
        <time>2023-03-15T00:56:14.419Z</time>
      </trkpt>
      <trkpt lat="46.10904" lon="6.72763">
        <ele>1325.86761</ele>
        <time>2023-03-15T00:56:27.791Z</time>
      </trkpt>
      <trkpt lat="46.109" lon="6.72767">
        <ele>1325.839021</ele>
        <time>2023-03-15T00:56:28.757Z</time>
      </trkpt>
      <trkpt lat="46.10866" lon="6.72745">
        <ele>1325.615881</ele>
        <time>2023-03-15T00:56:42.109Z</time>
      </trkpt>
      <trkpt lat="46.10852" lon="6.72756">
        <ele>1325.525382</ele>
        <time>2023-03-15T00:56:48.359Z</time>
      </trkpt>
      <trkpt lat="46.10849" lon="6.72778">
        <ele>1325.432107</ele>
        <time>2023-03-15T00:56:54.038Z</time>
      </trkpt>
      <trkpt lat="46.10863" lon="6.72811">
        <ele>1325.270547</ele>
        <time>2023-03-15T00:57:01.800Z</time>
      </trkpt>
      <trkpt lat="46.10902" lon="6.72867">
        <ele>1324.731365</ele>
        <time>2023-03-15T00:57:16.379Z</time>
      </trkpt>
      <trkpt lat="46.10913" lon="6.72901">
        <ele>1323.203922</ele>
        <time>2023-03-15T00:57:22.733Z</time>
      </trkpt>
      <trkpt lat="46.10941" lon="6.72957">
        <ele>1320.46424</ele>
        <time>2023-03-15T00:57:33.782Z</time>
      </trkpt>
      <trkpt lat="46.10949" lon="6.72967">
        <ele>1319.817766</ele>
        <time>2023-03-15T00:57:41.919Z</time>
      </trkpt>
      <trkpt lat="46.10968" lon="6.72983">
        <ele>1318.55632</ele>
        <time>2023-03-15T00:57:46.305Z</time>
      </trkpt>
      <trkpt lat="46.11006" lon="6.72992">
        <ele>1316.317478</ele>
        <time>2023-03-15T00:57:55.590Z</time>
      </trkpt>
      <trkpt lat="46.11019" lon="6.73">
        <ele>1315.501928</ele>
        <time>2023-03-15T00:58:05.394Z</time>
      </trkpt>
      <trkpt lat="46.11032" lon="6.73007">
        <ele>1314.67477</ele>
        <time>2023-03-15T00:58:08.169Z</time>
      </trkpt>
      <trkpt lat="46.1104" lon="6.73019">
        <ele>1313.503818</ele>
        <time>2023-03-15T00:58:12.053Z</time>
      </trkpt>
      <trkpt lat="46.1104" lon="6.7303">
        <ele>1312.635399</ele>
        <time>2023-03-15T00:58:17.211Z</time>
      </trkpt>
      <trkpt lat="46.11034" lon="6.73051">
        <ele>1310.754375</ele>
        <time>2023-03-15T00:58:20.352Z</time>
      </trkpt>
      <trkpt lat="46.11027" lon="6.73109">
        <ele>1305.985942</ele>
        <time>2023-03-15T00:58:29.051Z</time>
      </trkpt>
      <trkpt lat="46.11027" lon="6.7311">
        <ele>1305.903941</ele>
        <time>2023-03-15T00:58:29.191Z</time>
      </trkpt>
      <trkpt lat="46.11019" lon="6.73111">
        <ele>1304.939832</ele>
        <time>2023-03-15T00:58:31.698Z</time>
      </trkpt>
      <trkpt lat="46.11014" lon="6.73105">
        <ele>1304.194288</ele>
        <time>2023-03-15T00:58:34.077Z</time>
      </trkpt>
      <trkpt lat="46.11011" lon="6.73111">
        <ele>1303.511698</ele>
        <time>2023-03-15T00:58:35.233Z</time>
      </trkpt>
      <trkpt lat="46.10988" lon="6.73093">
        <ele>1300.448321</ele>
        <time>2023-03-15T00:58:40.560Z</time>
      </trkpt>
      <trkpt lat="46.10978" lon="6.73124">
        <ele>1297.695318</ele>
        <time>2023-03-15T00:58:45.126Z</time>
      </trkpt>
      <trkpt lat="46.10996" lon="6.73164">
        <ele>1293.819709</ele>
        <time>2023-03-15T00:58:52.026Z</time>
      </trkpt>
      <trkpt lat="46.11021" lon="6.73207">
        <ele>1287.960424</ele>
        <time>2023-03-15T00:59:00.061Z</time>
      </trkpt>
      <trkpt lat="46.11037" lon="6.73227">
        <ele>1284.619167</ele>
        <time>2023-03-15T00:59:04.523Z</time>
      </trkpt>
      <trkpt lat="46.11057" lon="6.73228">
        <ele>1281.531542</ele>
        <time>2023-03-15T00:59:08.808Z</time>
      </trkpt>
      <trkpt lat="46.11063" lon="6.73239">
        <ele>1280.05951</ele>
        <time>2023-03-15T00:59:10.836Z</time>
      </trkpt>
      <trkpt lat="46.11079" lon="6.7324">
        <ele>1277.649734</ele>
        <time>2023-03-15T00:59:13.919Z</time>
      </trkpt>
      <trkpt lat="46.1109" lon="6.73235">
        <ele>1275.831088</ele>
        <time>2023-03-15T00:59:16.390Z</time>
      </trkpt>
      <trkpt lat="46.11099" lon="6.73239">
        <ele>1274.386301</ele>
        <time>2023-03-15T00:59:18.317Z</time>
      </trkpt>
      <trkpt lat="46.11118" lon="6.73257">
        <ele>1270.912537</ele>
        <time>2023-03-15T00:59:22.818Z</time>
      </trkpt>
      <trkpt lat="46.11131" lon="6.73283">
        <ele>1267.472912</ele>
        <time>2023-03-15T00:59:27.185Z</time>
      </trkpt>
      <trkpt lat="46.11124" lon="6.73307">
        <ele>1264.35103</ele>
        <time>2023-03-15T00:59:30.795Z</time>
      </trkpt>
      <trkpt lat="46.11127" lon="6.73326">
        <ele>1261.925088</ele>
        <time>2023-03-15T00:59:33.349Z</time>
      </trkpt>
      <trkpt lat="46.11141" lon="6.73343">
        <ele>1258.497108</ele>
        <time>2023-03-15T00:59:36.929Z</time>
      </trkpt>
      <trkpt lat="46.11147" lon="6.73359">
        <ele>1256.074619</ele>
        <time>2023-03-15T00:59:39.616Z</time>
      </trkpt>
      <trkpt lat="46.11156" lon="6.73368">
        <ele>1254.188001</ele>
        <time>2023-03-15T00:59:41.603Z</time>
      </trkpt>
      <trkpt lat="46.11159" lon="6.73413">
        <ele>1248.329209</ele>
        <time>2023-03-15T00:59:47.843Z</time>
      </trkpt>
      <trkpt lat="46.11142" lon="6.73453">
        <ele>1242.121129</ele>
        <time>2023-03-15T00:59:54.511Z</time>
      </trkpt>
      <trkpt lat="46.1113" lon="6.73474">
        <ele>1238.681676</ele>
        <time>2023-03-15T00:59:58.092Z</time>
      </trkpt>
      <trkpt lat="46.11114" lon="6.73493">
        <ele>1234.857209</ele>
        <time>2023-03-15T01:00:02.356Z</time>
      </trkpt>
      <trkpt lat="46.11108" lon="6.73495">
        <ele>1233.705175</ele>
        <time>2023-03-15T01:00:03.546Z</time>
      </trkpt>
      <trkpt lat="46.11105" lon="6.73508">
        <ele>1232.081864</ele>
        <time>2023-03-15T01:00:05.379Z</time>
      </trkpt>
      <trkpt lat="46.11112" lon="6.73517">
        <ele>1231.060147</ele>
        <time>2023-03-15T01:00:07.330Z</time>
      </trkpt>
      <trkpt lat="46.1111" lon="6.73528">
        <ele>1230.114666</ele>
        <time>2023-03-15T01:00:09.102Z</time>
      </trkpt>
      <trkpt lat="46.11115" lon="6.73537">
        <ele>1229.244904</ele>
        <time>2023-03-15T01:00:10.595Z</time>
      </trkpt>
      <trkpt lat="46.11121" lon="6.73537">
        <ele>1228.569021</ele>
        <time>2023-03-15T01:00:11.254Z</time>
      </trkpt>
      <trkpt lat="46.11134" lon="6.73543">
        <ele>1226.947669</ele>
        <time>2023-03-15T01:00:12.904Z</time>
      </trkpt>
      <trkpt lat="46.11178" lon="6.73578">
        <ele>1221.271647</ele>
        <time>2023-03-15T01:00:18.601Z</time>
      </trkpt>
      <trkpt lat="46.11193" lon="6.73583">
        <ele>1219.504911</ele>
        <time>2023-03-15T01:00:20.407Z</time>
      </trkpt>
      <trkpt lat="46.1123" lon="6.73588">
        <ele>1215.263515</ele>
        <time>2023-03-15T01:00:25.181Z</time>
      </trkpt>
      <trkpt lat="46.11279" lon="6.73589">
        <ele>1211.065334</ele>
        <time>2023-03-15T01:00:31.856Z</time>
      </trkpt>
      <trkpt lat="46.11306" lon="6.73596">
        <ele>1210.034422</ele>
        <time>2023-03-15T01:00:35.789Z</time>
      </trkpt>
      <trkpt lat="46.11321" lon="6.73585">
        <ele>1209.398674</ele>
        <time>2023-03-15T01:00:38.007Z</time>
      </trkpt>
      <trkpt lat="46.11335" lon="6.73563">
        <ele>1208.630544</ele>
        <time>2023-03-15T01:00:41.472Z</time>
      </trkpt>
      <trkpt lat="46.11358" lon="6.73593">
        <ele>1207.450935</ele>
        <time>2023-03-15T01:00:49.576Z</time>
      </trkpt>
      <trkpt lat="46.11366" lon="6.736">
        <ele>1207.085725</ele>
        <time>2023-03-15T01:00:52.244Z</time>
      </trkpt>
      <trkpt lat="46.11387" lon="6.73603">
        <ele>1206.314751</ele>
        <time>2023-03-15T01:00:57.385Z</time>
      </trkpt>
      <trkpt lat="46.11417" lon="6.73628">
        <ele>1205.007086</ele>
        <time>2023-03-15T01:01:06.317Z</time>
      </trkpt>
      <trkpt lat="46.11424" lon="6.73625">
        <ele>1204.554986</ele>
        <time>2023-03-15T01:01:08.398Z</time>
      </trkpt>
      <trkpt lat="46.1143" lon="6.73618">
        <ele>1204.105682</ele>
        <time>2023-03-15T01:01:10.329Z</time>
      </trkpt>
      <trkpt lat="46.11429" lon="6.7361">
        <ele>1203.7883</ele>
        <time>2023-03-15T01:01:11.524Z</time>
      </trkpt>
      <trkpt lat="46.11423" lon="6.73598">
        <ele>1203.165217</ele>
        <time>2023-03-15T01:01:13.975Z</time>
      </trkpt>
      <trkpt lat="46.11424" lon="6.73589">
        <ele>1202.772267</ele>
        <time>2023-03-15T01:01:15.682Z</time>
      </trkpt>
      <trkpt lat="46.11438" lon="6.73568">
        <ele>1201.57736</ele>
        <time>2023-03-15T01:01:20.326Z</time>
      </trkpt>
      <trkpt lat="46.11448" lon="6.73565">
        <ele>1200.999139</ele>
        <time>2023-03-15T01:01:22.432Z</time>
      </trkpt>
      <trkpt lat="46.11458" lon="6.73569">
        <ele>1200.382935</ele>
        <time>2023-03-15T01:01:24.703Z</time>
      </trkpt>
      <trkpt lat="46.11487" lon="6.73592">
        <ele>1198.417663</ele>
        <time>2023-03-15T01:01:32.496Z</time>
      </trkpt>
      <trkpt lat="46.11497" lon="6.73612">
        <ele>1197.389484</ele>
        <time>2023-03-15T01:01:36.457Z</time>
      </trkpt>
      <trkpt lat="46.11512" lon="6.73625">
        <ele>1196.348528</ele>
        <time>2023-03-15T01:01:40.676Z</time>
      </trkpt>
      <trkpt lat="46.11569" lon="6.73634">
        <ele>1193.168604</ele>
        <time>2023-03-15T01:01:54.076Z</time>
      </trkpt>
      <trkpt lat="46.116" lon="6.73617">
        <ele>1191.555728</ele>
        <time>2023-03-15T01:02:01.558Z</time>
      </trkpt>
      <trkpt lat="46.11627" lon="6.73615">
        <ele>1190.276257</ele>
        <time>2023-03-15T01:02:07.528Z</time>
      </trkpt>
      <trkpt lat="46.11648" lon="6.73626">
        <ele>1189.165974</ele>
        <time>2023-03-15T01:02:13.016Z</time>
      </trkpt>
      <trkpt lat="46.11653" lon="6.73639">
        <ele>1188.666786</ele>
        <time>2023-03-15T01:02:15.765Z</time>
      </trkpt>
      <trkpt lat="46.11654" lon="6.73665">
        <ele>1187.811482</ele>
        <time>2023-03-15T01:02:19.809Z</time>
      </trkpt>
      <trkpt lat="46.11661" lon="6.73676">
        <ele>1187.311236</ele>
        <time>2023-03-15T01:02:23.112Z</time>
      </trkpt>
      <trkpt lat="46.1167" lon="6.7368">
        <ele>1186.87032</ele>
        <time>2023-03-15T01:02:25.730Z</time>
      </trkpt>
      <trkpt lat="46.11707" lon="6.73693">
        <ele>1185.764943</ele>
        <time>2023-03-15T01:02:36.146Z</time>
      </trkpt>
      <trkpt lat="46.11724" lon="6.73693">
        <ele>1186.054741</ele>
        <time>2023-03-15T01:02:40.399Z</time>
      </trkpt>
      <trkpt lat="46.11756" lon="6.73684">
        <ele>1186.613337</ele>
        <time>2023-03-15T01:02:49.369Z</time>
      </trkpt>
      <trkpt lat="46.11769" lon="6.73669">
        <ele>1186.893569</ele>
        <time>2023-03-15T01:03:01.675Z</time>
      </trkpt>
      <trkpt lat="46.11784" lon="6.73638">
        <ele>1187.343425</ele>
        <time>2023-03-15T01:03:11.393Z</time>
      </trkpt>
      <trkpt lat="46.11791" lon="6.73631">
        <ele>1187.482664</ele>
        <time>2023-03-15T01:03:17.229Z</time>
      </trkpt>
      <trkpt lat="46.11803" lon="6.73625">
        <ele>1187.695945</ele>
        <time>2023-03-15T01:03:20.420Z</time>
      </trkpt>
      <trkpt lat="46.11808" lon="6.73629">
        <ele>1187.808098</ele>
        <time>2023-03-15T01:03:22.163Z</time>
      </trkpt>
      <trkpt lat="46.11806" lon="6.73645">
        <ele>1188.000387</ele>
        <time>2023-03-15T01:03:32.599Z</time>
      </trkpt>
      <trkpt lat="46.11785" lon="6.73676">
        <ele>1188.509537</ele>
        <time>2023-03-15T01:03:46.056Z</time>
      </trkpt>
      <trkpt lat="46.11781" lon="6.73695">
        <ele>1188.999689</ele>
        <time>2023-03-15T01:03:57.258Z</time>
      </trkpt>
      <trkpt lat="46.11787" lon="6.73704">
        <ele>1189.530206</ele>
        <time>2023-03-15T01:03:59.899Z</time>
      </trkpt>
      <trkpt lat="46.1179" lon="6.73713">
        <ele>1189.940363</ele>
        <time>2023-03-15T01:04:01.755Z</time>
      </trkpt>
      <trkpt lat="46.11796" lon="6.73735">
        <ele>1190.905471</ele>
        <time>2023-03-15T01:04:18.505Z</time>
      </trkpt>
      <trkpt lat="46.11805" lon="6.73748">
        <ele>1191.697395</ele>
        <time>2023-03-15T01:04:23.117Z</time>
      </trkpt>
      <trkpt lat="46.11832" lon="6.73774">
        <ele>1193.624303</ele>
        <time>2023-03-15T01:04:41.094Z</time>
      </trkpt>
      <trkpt lat="46.11858" lon="6.73784">
        <ele>1195.171399</ele>
        <time>2023-03-15T01:04:58.117Z</time>
      </trkpt>
      <trkpt lat="46.1186" lon="6.738">
        <ele>1195.834432</ele>
        <time>2023-03-15T01:05:02.390Z</time>
      </trkpt>
      <trkpt lat="46.11857" lon="6.7381">
        <ele>1196.318738</ele>
        <time>2023-03-15T01:05:05.484Z</time>
      </trkpt>
      <trkpt lat="46.11851" lon="6.73815">
        <ele>1196.755986</ele>
        <time>2023-03-15T01:05:11.951Z</time>
      </trkpt>
      <trkpt lat="46.11818" lon="6.73829">
        <ele>1198.78409</ele>
        <time>2023-03-15T01:05:35.716Z</time>
      </trkpt>
      <trkpt lat="46.11773" lon="6.73878">
        <ele>1203.59585</ele>
        <time>2023-03-15T01:06:18.086Z</time>
      </trkpt>
      <trkpt lat="46.11762" lon="6.73905">
        <ele>1205.552709</ele>
        <time>2023-03-15T01:06:34.864Z</time>
      </trkpt>
      <trkpt lat="46.11755" lon="6.73939">
        <ele>1207.76348</ele>
        <time>2023-03-15T01:06:58.925Z</time>
      </trkpt>
      <trkpt lat="46.11738" lon="6.73965">
        <ele>1209.987475</ele>
        <time>2023-03-15T01:07:18.286Z</time>
      </trkpt>
      <trkpt lat="46.11715" lon="6.74012">
        <ele>1213.612568</ele>
        <time>2023-03-15T01:07:50.152Z</time>
      </trkpt>
      <trkpt lat="46.11714" lon="6.74025">
        <ele>1214.44289</ele>
        <time>2023-03-15T01:07:57.343Z</time>
      </trkpt>
      <trkpt lat="46.11716" lon="6.74037">
        <ele>1215.205939</ele>
        <time>2023-03-15T01:08:00.797Z</time>
      </trkpt>
      <trkpt lat="46.11733" lon="6.7405">
        <ele>1215.639814</ele>
        <time>2023-03-15T01:08:17.699Z</time>
      </trkpt>
      <trkpt lat="46.11751" lon="6.7407">
        <ele>1215.706926</ele>
        <time>2023-03-15T01:08:31.739Z</time>
      </trkpt>
      <trkpt lat="46.11748" lon="6.74102">
        <ele>1215.774623</ele>
        <time>2023-03-15T01:08:46.648Z</time>
      </trkpt>
      <trkpt lat="46.11739" lon="6.7411">
        <ele>1215.806123</ele>
        <time>2023-03-15T01:08:49.982Z</time>
      </trkpt>
      <trkpt lat="46.11708" lon="6.74152">
        <ele>1215.934953</ele>
        <time>2023-03-15T01:09:08.656Z</time>
      </trkpt>
      <trkpt lat="46.11698" lon="6.74177">
        <ele>1215.993881</ele>
        <time>2023-03-15T01:09:13.627Z</time>
      </trkpt>
      <trkpt lat="46.11686" lon="6.7423">
        <ele>1216.110617</ele>
        <time>2023-03-15T01:09:22.540Z</time>
      </trkpt>
      <trkpt lat="46.1168" lon="6.74237">
        <ele>1216.132676</ele>
        <time>2023-03-15T01:09:24.408Z</time>
      </trkpt>
      <trkpt lat="46.11674" lon="6.74239">
        <ele>1214.964704</ele>
        <time>2023-03-15T01:09:25.687Z</time>
      </trkpt>
      <trkpt lat="46.11668" lon="6.74234">
        <ele>1213.324003</ele>
        <time>2023-03-15T01:09:27.320Z</time>
      </trkpt>
      <trkpt lat="46.1166" lon="6.74216">
        <ele>1210.390976</ele>
        <time>2023-03-15T01:09:30.198Z</time>
      </trkpt>
      <trkpt lat="46.11646" lon="6.74207">
        <ele>1207.165256</ele>
        <time>2023-03-15T01:09:33.433Z</time>
      </trkpt>
      <trkpt lat="46.11639" lon="6.74205">
        <ele>1205.504195</ele>
        <time>2023-03-15T01:09:35.055Z</time>
      </trkpt>
      <trkpt lat="46.11617" lon="6.74206">
        <ele>1200.934443</ele>
        <time>2023-03-15T01:09:39.588Z</time>
      </trkpt>
      <trkpt lat="46.11609" lon="6.74211">
        <ele>1199.138101</ele>
        <time>2023-03-15T01:09:41.261Z</time>
      </trkpt>
      <trkpt lat="46.11579" lon="6.74271">
        <ele>1188.355344</ele>
        <time>2023-03-15T01:09:51.195Z</time>
      </trkpt>
      <trkpt lat="46.11571" lon="6.7428">
        <ele>1186.197502</ele>
        <time>2023-03-15T01:09:53.302Z</time>
      </trkpt>
      <trkpt lat="46.11518" lon="6.74285">
        <ele>1173.152901</ele>
        <time>2023-03-15T01:10:03.819Z</time>
      </trkpt>
      <trkpt lat="46.11483" lon="6.74281">
        <ele>1161.846879</ele>
        <time>2023-03-15T01:10:10.677Z</time>
      </trkpt>
      <trkpt lat="46.11474" lon="6.74286">
        <ele>1158.649635</ele>
        <time>2023-03-15T01:10:12.604Z</time>
      </trkpt>
      <trkpt lat="46.11471" lon="6.7429">
        <ele>1157.38737</ele>
        <time>2023-03-15T01:10:13.580Z</time>
      </trkpt>
      <trkpt lat="46.11469" lon="6.74288">
        <ele>1156.555424</ele>
        <time>2023-03-15T01:10:14.105Z</time>
      </trkpt>
      <trkpt lat="46.11454" lon="6.74274">
        <ele>1150.837685</ele>
        <time>2023-03-15T01:10:17.524Z</time>
      </trkpt>
      <trkpt lat="46.11445" lon="6.74252">
        <ele>1145.075548</ele>
        <time>2023-03-15T01:10:21.095Z</time>
      </trkpt>
      <trkpt lat="46.1143" lon="6.74233">
        <ele>1138.432125</ele>
        <time>2023-03-15T01:10:25.055Z</time>
      </trkpt>
      <trkpt lat="46.1138" lon="6.74203">
        <ele>1121.024129</ele>
        <time>2023-03-15T01:10:35.770Z</time>
      </trkpt>
      <trkpt lat="46.11367" lon="6.742">
        <ele>1116.766457</ele>
        <time>2023-03-15T01:10:38.499Z</time>
      </trkpt>
      <trkpt lat="46.11352" lon="6.74204">
        <ele>1112.237376</ele>
        <time>2023-03-15T01:10:41.493Z</time>
      </trkpt>
      <trkpt lat="46.11335" lon="6.74212">
        <ele>1106.908792</ele>
        <time>2023-03-15T01:10:45.010Z</time>
      </trkpt>
      <trkpt lat="46.1133" lon="6.7422">
        <ele>1104.673481</ele>
        <time>2023-03-15T01:10:46.544Z</time>
      </trkpt>
      <trkpt lat="46.11324" lon="6.74243">
        <ele>1099.625368</ele>
        <time>2023-03-15T01:10:49.817Z</time>
      </trkpt>
      <trkpt lat="46.11279" lon="6.74265">
        <ele>1085.337747</ele>
        <time>2023-03-15T01:10:59.068Z</time>
      </trkpt>
      <trkpt lat="46.11252" lon="6.74279">
        <ele>1076.455782</ele>
        <time>2023-03-15T01:11:04.857Z</time>
      </trkpt>
      <trkpt lat="46.11222" lon="6.74276">
        <ele>1067.655915</ele>
        <time>2023-03-15T01:11:10.585Z</time>
      </trkpt>
      <trkpt lat="46.11209" lon="6.7428">
        <ele>1064.123885</ele>
        <time>2023-03-15T01:11:13.234Z</time>
      </trkpt>
      <trkpt lat="46.11199" lon="6.74276">
        <ele>1061.639546</ele>
        <time>2023-03-15T01:11:15.416Z</time>
      </trkpt>
      <trkpt lat="46.11179" lon="6.74274">
        <ele>1057.031776</ele>
        <time>2023-03-15T01:11:19.362Z</time>
      </trkpt>
      <trkpt lat="46.11168" lon="6.74288">
        <ele>1053.675123</ele>
        <time>2023-03-15T01:11:22.196Z</time>
      </trkpt>
      <trkpt lat="46.11155" lon="6.74291">
        <ele>1050.683053</ele>
        <time>2023-03-15T01:11:24.730Z</time>
      </trkpt>
      <trkpt lat="46.11147" lon="6.74298">
        <ele>1048.457703</ele>
        <time>2023-03-15T01:11:26.637Z</time>
      </trkpt>
      <trkpt lat="46.11135" lon="6.74274">
        <ele>1043.752889</ele>
        <time>2023-03-15T01:11:30.611Z</time>
      </trkpt>
      <trkpt lat="46.1112" lon="6.7423">
        <ele>1035.909137</ele>
        <time>2023-03-15T01:11:37.261Z</time>
      </trkpt>
      <trkpt lat="46.11106" lon="6.74212">
        <ele>1031.652083</ele>
        <time>2023-03-15T01:11:40.961Z</time>
      </trkpt>
      <trkpt lat="46.11082" lon="6.74206">
        <ele>1025.971456</ele>
        <time>2023-03-15T01:11:45.747Z</time>
      </trkpt>
      <trkpt lat="46.11032" lon="6.74219">
        <ele>1020.189092</ele>
        <time>2023-03-15T01:11:56.305Z</time>
      </trkpt>
      <trkpt lat="46.11025" lon="6.7423">
        <ele>1019.253173</ele>
        <time>2023-03-15T01:11:58.302Z</time>
      </trkpt>
      <trkpt lat="46.11007" lon="6.74277">
        <ele>1015.736587</ele>
        <time>2023-03-15T01:12:06.173Z</time>
      </trkpt>
      <trkpt lat="46.10986" lon="6.743">
        <ele>1013.235318</ele>
        <time>2023-03-15T01:12:11.941Z</time>
      </trkpt>
      <trkpt lat="46.10924" lon="6.74346">
        <ele>1007.200457</ele>
        <time>2023-03-15T01:12:29.200Z</time>
      </trkpt>
      <trkpt lat="46.10864" lon="6.74367">
        <ele>1006.034178</ele>
        <time>2023-03-15T01:12:47.088Z</time>
      </trkpt>
      <trkpt lat="46.10837" lon="6.74381">
        <ele>1005.490284</ele>
        <time>2023-03-15T01:12:56.689Z</time>
      </trkpt>
      <trkpt lat="46.10825" lon="6.74403">
        <ele>1005.121813</ele>
        <time>2023-03-15T01:13:04.018Z</time>
      </trkpt>
      <trkpt lat="46.10823" lon="6.74414">
        <ele>1004.962915</ele>
        <time>2023-03-15T01:13:07.668Z</time>
      </trkpt>
      <trkpt lat="46.10824" lon="6.74452">
        <ele>1004.462556</ele>
        <time>2023-03-15T01:13:16.085Z</time>
      </trkpt>
      <trkpt lat="46.10822" lon="6.74462">
        <ele>1004.324558</ele>
        <time>2023-03-15T01:13:18.096Z</time>
      </trkpt>
      <trkpt lat="46.10816" lon="6.74469">
        <ele>1004.186542</ele>
        <time>2023-03-15T01:13:19.822Z</time>
      </trkpt>
      <trkpt lat="46.10804" lon="6.74471">
        <ele>1003.967115</ele>
        <time>2023-03-15T01:13:22.568Z</time>
      </trkpt>
      <trkpt lat="46.10776" lon="6.74462">
        <ele>1000.677938</ele>
        <time>2023-03-15T01:13:29.369Z</time>
      </trkpt>
      <trkpt lat="46.10748" lon="6.74461">
        <ele>997.275684</ele>
        <time>2023-03-15T01:13:35.932Z</time>
      </trkpt>
      <trkpt lat="46.10748" lon="6.74452">
        <ele>996.519869</ele>
        <time>2023-03-15T01:13:37.245Z</time>
      </trkpt>
      <trkpt lat="46.10744" lon="6.74445">
        <ele>995.741594</ele>
        <time>2023-03-15T01:13:38.646Z</time>
      </trkpt>
      <trkpt lat="46.10715" lon="6.74433">
        <ele>992.172756</ele>
        <time>2023-03-15T01:13:45.073Z</time>
      </trkpt>
      <trkpt lat="46.10709" lon="6.74416">
        <ele>990.589155</ele>
        <time>2023-03-15T01:13:47.814Z</time>
      </trkpt>
      <trkpt lat="46.10702" lon="6.74413">
        <ele>989.740094</ele>
        <time>2023-03-15T01:13:49.341Z</time>
      </trkpt>
      <trkpt lat="46.10674" lon="6.74413">
        <ele>986.303591</ele>
        <time>2023-03-15T01:13:55.049Z</time>
      </trkpt>
      <trkpt lat="46.10583" lon="6.74375">
        <ele>968.211633</ele>
        <time>2023-03-15T01:14:13.401Z</time>
      </trkpt>
      <trkpt lat="46.10543" lon="6.74371">
        <ele>958.997014</ele>
        <time>2023-03-15T01:14:21.201Z</time>
      </trkpt>
      <trkpt lat="46.10503" lon="6.74387">
        <ele>949.562017</ele>
        <time>2023-03-15T01:14:29.162Z</time>
      </trkpt>
      <trkpt lat="46.1045" lon="6.74382">
        <ele>937.697403</ele>
        <time>2023-03-15T01:14:39.488Z</time>
      </trkpt>
      <trkpt lat="46.10421" lon="6.74373">
        <ele>931.456982</ele>
        <time>2023-03-15T01:14:45.295Z</time>
      </trkpt>
      <trkpt lat="46.10395" lon="6.74358">
        <ele>925.469607</ele>
        <time>2023-03-15T01:14:50.839Z</time>
      </trkpt>
      <trkpt lat="46.10388" lon="6.74345">
        <ele>923.179267</ele>
        <time>2023-03-15T01:14:53.080Z</time>
      </trkpt>
      <trkpt lat="46.10384" lon="6.74327">
        <ele>920.379729</ele>
        <time>2023-03-15T01:14:55.698Z</time>
      </trkpt>
      <trkpt lat="46.10388" lon="6.74317">
        <ele>918.802752</ele>
        <time>2023-03-15T01:14:57.159Z</time>
      </trkpt>
      <trkpt lat="46.10383" lon="6.74314">
        <ele>917.608094</ele>
        <time>2023-03-15T01:14:58.439Z</time>
      </trkpt>
      <trkpt lat="46.10387" lon="6.7431">
        <ele>916.618402</ele>
        <time>2023-03-15T01:14:59.482Z</time>
      </trkpt>
      <trkpt lat="46.10382" lon="6.74308">
        <ele>915.510993</ele>
        <time>2023-03-15T01:15:00.616Z</time>
      </trkpt>
      <trkpt lat="46.10387" lon="6.74302">
        <ele>914.243843</ele>
        <time>2023-03-15T01:15:01.920Z</time>
      </trkpt>
      <trkpt lat="46.10379" lon="6.74303">
        <ele>912.579938</ele>
        <time>2023-03-15T01:15:03.525Z</time>
      </trkpt>
      <trkpt lat="46.10375" lon="6.74309">
        <ele>911.336808</ele>
        <time>2023-03-15T01:15:04.780Z</time>
      </trkpt>
      <trkpt lat="46.10364" lon="6.74308">
        <ele>909.174376</ele>
        <time>2023-03-15T01:15:06.018Z</time>
      </trkpt>
      <trkpt lat="46.1036" lon="6.74316">
        <ele>907.728514</ele>
        <time>2023-03-15T01:15:06.828Z</time>
      </trkpt>
      <trkpt lat="46.1036" lon="6.74384">
        <ele>899.421609</ele>
        <time>2023-03-15T01:15:12.071Z</time>
      </trkpt>
      <trkpt lat="46.10359" lon="6.74386">
        <ele>899.244465</ele>
        <time>2023-03-15T01:15:12.208Z</time>
      </trkpt>
      <trkpt lat="46.10357" lon="6.74396">
        <ele>898.166192</ele>
        <time>2023-03-15T01:15:13.035Z</time>
      </trkpt>
      <trkpt lat="46.10349" lon="6.74408">
        <ele>896.361468</ele>
        <time>2023-03-15T01:15:14.443Z</time>
      </trkpt>
      <trkpt lat="46.10329" lon="6.74317">
        <ele>886.430247</ele>
        <time>2023-03-15T01:15:27.513Z</time>
      </trkpt>
      <trkpt lat="46.10323" lon="6.74293">
        <ele>883.835212</ele>
        <time>2023-03-15T01:15:31.278Z</time>
      </trkpt>
      <trkpt lat="46.10322" lon="6.7429">
        <ele>883.446418</ele>
        <time>2023-03-15T01:15:31.832Z</time>
      </trkpt>
      <trkpt lat="46.10306" lon="6.7428">
        <ele>880.818683</ele>
        <time>2023-03-15T01:15:35.691Z</time>
      </trkpt>
      <trkpt lat="46.10234" lon="6.74288">
        <ele>871.686968</ele>
        <time>2023-03-15T01:15:50.965Z</time>
      </trkpt>
      <trkpt lat="46.10199" lon="6.74267">
        <ele>867.479742</ele>
        <time>2023-03-15T01:15:58.838Z</time>
      </trkpt>
      <trkpt lat="46.10147" lon="6.74253">
        <ele>861.606682</ele>
        <time>2023-03-15T01:16:09.867Z</time>
      </trkpt>
      <trkpt lat="46.1014" lon="6.74255">
        <ele>860.898364</ele>
        <time>2023-03-15T01:16:11.335Z</time>
      </trkpt>
      <trkpt lat="46.10136" lon="6.7426">
        <ele>860.219712</ele>
        <time>2023-03-15T01:16:12.718Z</time>
      </trkpt>
      <trkpt lat="46.1013" lon="6.74276">
        <ele>858.843</ele>
        <time>2023-03-15T01:16:15.524Z</time>
      </trkpt>
      <trkpt lat="46.1013" lon="6.74284">
        <ele>858.221425</ele>
        <time>2023-03-15T01:16:16.609Z</time>
      </trkpt>
      <trkpt lat="46.10127" lon="6.74286">
        <ele>857.905481</ele>
        <time>2023-03-15T01:16:17.270Z</time>
      </trkpt>
      <trkpt lat="46.10122" lon="6.74319">
        <ele>855.589909</ele>
        <time>2023-03-15T01:16:22.667Z</time>
      </trkpt>
      <trkpt lat="46.10112" lon="6.74322">
        <ele>854.62403</ele>
        <time>2023-03-15T01:16:24.782Z</time>
      </trkpt>
      <trkpt lat="46.10082" lon="6.74314">
        <ele>851.778521</ele>
        <time>2023-03-15T01:16:31.885Z</time>
      </trkpt>
      <trkpt lat="46.10026" lon="6.74311">
        <ele>846.628029</ele>
        <time>2023-03-15T01:16:43.803Z</time>
      </trkpt>
      <trkpt lat="46.09987" lon="6.74287">
        <ele>842.714282</ele>
        <time>2023-03-15T01:16:53.084Z</time>
      </trkpt>
      <trkpt lat="46.09985" lon="6.74286">
        <ele>842.56439</ele>
        <time>2023-03-15T01:16:53.403Z</time>
      </trkpt>
      <trkpt lat="46.09955" lon="6.74276">
        <ele>839.74245</ele>
        <time>2023-03-15T01:17:00.194Z</time>
      </trkpt>
      <trkpt lat="46.09907" lon="6.74249">
        <ele>835.641882</ele>
        <time>2023-03-15T01:17:11.634Z</time>
      </trkpt>
      <trkpt lat="46.09906" lon="6.74261">
        <ele>834.966342</ele>
        <time>2023-03-15T01:17:13.565Z</time>
      </trkpt>
      <trkpt lat="46.09909" lon="6.7428">
        <ele>833.887586</ele>
        <time>2023-03-15T01:17:16.669Z</time>
      </trkpt>
      <trkpt lat="46.09917" lon="6.74295">
        <ele>832.851682</ele>
        <time>2023-03-15T01:17:19.518Z</time>
      </trkpt>
      <trkpt lat="46.09919" lon="6.74305">
        <ele>832.294611</ele>
        <time>2023-03-15T01:17:21.113Z</time>
      </trkpt>
      <trkpt lat="46.09909" lon="6.74344">
        <ele>830.007405</ele>
        <time>2023-03-15T01:17:27.554Z</time>
      </trkpt>
      <trkpt lat="46.09876" lon="6.74339">
        <ele>827.323646</ele>
        <time>2023-03-15T01:17:35.183Z</time>
      </trkpt>
      <trkpt lat="46.09853" lon="6.74358">
        <ele>825.201943</ele>
        <time>2023-03-15T01:17:40.970Z</time>
      </trkpt>
      <trkpt lat="46.09834" lon="6.74338">
        <ele>823.04549</ele>
        <time>2023-03-15T01:17:46.264Z</time>
      </trkpt>
      <trkpt lat="46.09774" lon="6.74309">
        <ele>817.352438</ele>
        <time>2023-03-15T01:18:00.132Z</time>
      </trkpt>
      <trkpt lat="46.09759" lon="6.74315">
        <ele>815.952565</ele>
        <time>2023-03-15T01:18:03.477Z</time>
      </trkpt>
      <trkpt lat="46.09745" lon="6.74332">
        <ele>814.312214</ele>
        <time>2023-03-15T01:18:07.370Z</time>
      </trkpt>
      <trkpt lat="46.09706" lon="6.74324">
        <ele>810.723301</ele>
        <time>2023-03-15T01:18:15.994Z</time>
      </trkpt>
      <trkpt lat="46.09636" lon="6.74315">
        <ele>804.116463</ele>
        <time>2023-03-15T01:18:30.917Z</time>
      </trkpt>
      <trkpt lat="46.09533" lon="6.74332">
        <ele>794.17477</ele>
        <time>2023-03-15T01:18:53.141Z</time>
      </trkpt>
      <trkpt lat="46.09448" lon="6.74372">
        <ele>788.199101</ele>
        <time>2023-03-15T01:19:13.415Z</time>
      </trkpt>
      <trkpt lat="46.09426" lon="6.74387">
        <ele>786.773278</ele>
        <time>2023-03-15T01:19:19.301Z</time>
      </trkpt>
      <trkpt lat="46.09406" lon="6.74384">
        <ele>785.597018</ele>
        <time>2023-03-15T01:19:24.019Z</time>
      </trkpt>
      <trkpt lat="46.09341" lon="6.74284">
        <ele>780.360486</ele>
        <time>2023-03-15T01:19:47.622Z</time>
      </trkpt>
      <trkpt lat="46.09341" lon="6.74284">
        <ele>780.35096</ele>
        <time>2023-03-15T01:19:47.664Z</time>
      </trkpt>
      <trkpt lat="46.09341" lon="6.74284">
        <ele>780.344354</ele>
        <time>2023-03-15T01:19:47.746Z</time>
      </trkpt>
      <trkpt lat="46.09308" lon="6.74274">
        <ele>778.738209</ele>
        <time>2023-03-15T01:20:02.173Z</time>
      </trkpt>
      <trkpt lat="46.09243" lon="6.74185">
        <ele>774.468825</ele>
        <time>2023-03-15T01:20:40.545Z</time>
      </trkpt>
      <trkpt lat="46.09227" lon="6.74168">
        <ele>773.522194</ele>
        <time>2023-03-15T01:20:49.054Z</time>
      </trkpt>
      <trkpt lat="46.09215" lon="6.74159">
        <ele>772.864108</ele>
        <time>2023-03-15T01:20:54.851Z</time>
      </trkpt>
      <trkpt lat="46.0921" lon="6.7416">
        <ele>772.612074</ele>
        <time>2023-03-15T01:20:57.012Z</time>
      </trkpt>
      <trkpt lat="46.09208" lon="6.74154">
        <ele>772.381567</ele>
        <time>2023-03-15T01:20:58.989Z</time>
      </trkpt>
      <trkpt lat="46.09202" lon="6.74148">
        <ele>772.017003</ele>
        <time>2023-03-15T01:21:02.115Z</time>
      </trkpt>
      <trkpt lat="46.09194" lon="6.74144">
        <ele>771.59424</ele>
        <time>2023-03-15T01:21:05.741Z</time>
      </trkpt>
      <trkpt lat="46.09178" lon="6.7413">
        <ele>770.6598</ele>
        <time>2023-03-15T01:21:13.755Z</time>
      </trkpt>
      <trkpt lat="46.09153" lon="6.74057">
        <ele>767.840698</ele>
        <time>2023-03-15T01:21:37.930Z</time>
      </trkpt>
      <trkpt lat="46.09143" lon="6.74034">
        <ele>766.900727</ele>
        <time>2023-03-15T01:21:45.990Z</time>
      </trkpt>
      <trkpt lat="46.09138" lon="6.74026">
        <ele>766.527823</ele>
        <time>2023-03-15T01:21:49.187Z</time>
      </trkpt>
      <trkpt lat="46.09119" lon="6.7401">
        <ele>765.429244</ele>
        <time>2023-03-15T01:21:58.604Z</time>
      </trkpt>
      <trkpt lat="46.09092" lon="6.73947">
        <ele>763.405832</ele>
        <time>2023-03-15T01:22:20.586Z</time>
      </trkpt>
      <trkpt lat="46.09093" lon="6.73947">
        <ele>763.388042</ele>
        <time>2023-03-15T01:22:20.845Z</time>
      </trkpt>
      <trkpt lat="46.09076" lon="6.73943">
        <ele>762.894886</ele>
        <time>2023-03-15T01:22:23.177Z</time>
      </trkpt>
      <trkpt lat="46.09068" lon="6.73936">
        <ele>762.622839</ele>
        <time>2023-03-15T01:22:24.460Z</time>
      </trkpt>
      <trkpt lat="46.09027" lon="6.73875">
        <ele>760.883215</ele>
        <time>2023-03-15T01:22:33.207Z</time>
      </trkpt>
      <trkpt lat="46.09017" lon="6.73863">
        <ele>760.490889</ele>
        <time>2023-03-15T01:22:35.217Z</time>
      </trkpt>
      <trkpt lat="46.09" lon="6.73853">
        <ele>759.957363</ele>
        <time>2023-03-15T01:22:38.127Z</time>
      </trkpt>
      <trkpt lat="46.08966" lon="6.73845">
        <ele>758.954635</ele>
        <time>2023-03-15T01:22:43.502Z</time>
      </trkpt>
      <trkpt lat="46.08931" lon="6.73837">
        <ele>758.05059</ele>
        <time>2023-03-15T01:22:48.986Z</time>
      </trkpt>
      <trkpt lat="46.08874" lon="6.73828">
        <ele>756.61822</ele>
        <time>2023-03-15T01:22:57.245Z</time>
      </trkpt>
      <trkpt lat="46.08844" lon="6.738">
        <ele>755.728371</ele>
        <time>2023-03-15T01:23:02.146Z</time>
      </trkpt>
      <trkpt lat="46.08756" lon="6.73748">
        <ele>755.201926</ele>
        <time>2023-03-15T01:23:17.087Z</time>
      </trkpt>
      <trkpt lat="46.08716" lon="6.73722">
        <ele>756.049481</ele>
        <time>2023-03-15T01:23:30.389Z</time>
      </trkpt>
      <trkpt lat="46.08712" lon="6.73714">
        <ele>756.18789</ele>
        <time>2023-03-15T01:23:31.744Z</time>
      </trkpt>
      <trkpt lat="46.08708" lon="6.73702">
        <ele>756.366978</ele>
        <time>2023-03-15T01:23:36.728Z</time>
      </trkpt>
      <trkpt lat="46.08702" lon="6.73713">
        <ele>756.564666</ele>
        <time>2023-03-15T01:23:41.793Z</time>
      </trkpt>
      <trkpt lat="46.08702" lon="6.73727">
        <ele>756.749533</ele>
        <time>2023-03-15T01:23:43.348Z</time>
      </trkpt>
      <trkpt lat="46.08705" lon="6.73741">
        <ele>756.949538</ele>
        <time>2023-03-15T01:23:45.576Z</time>
      </trkpt>
      <trkpt lat="46.08713" lon="6.73759">
        <ele>757.228397</ele>
        <time>2023-03-15T01:23:54.874Z</time>
      </trkpt>
      <trkpt lat="46.08717" lon="6.73783">
        <ele>757.566326</ele>
        <time>2023-03-15T01:23:58.209Z</time>
      </trkpt>
      <trkpt lat="46.08717" lon="6.73807">
        <ele>757.880614</ele>
        <time>2023-03-15T01:24:08.482Z</time>
      </trkpt>
      <trkpt lat="46.08713" lon="6.73833">
        <ele>758.076554</ele>
        <time>2023-03-15T01:24:12.895Z</time>
      </trkpt>
      <trkpt lat="46.0871" lon="6.7384">
        <ele>758.133096</ele>
        <time>2023-03-15T01:24:14.770Z</time>
      </trkpt>
      <trkpt lat="46.08704" lon="6.73841">
        <ele>758.193587</ele>
        <time>2023-03-15T01:24:20.183Z</time>
      </trkpt>
      <trkpt lat="46.08692" lon="6.73834">
        <ele>758.336767</ele>
        <time>2023-03-15T01:24:25.785Z</time>
      </trkpt>
      <trkpt lat="46.08654" lon="6.7379">
        <ele>758.845676</ele>
        <time>2023-03-15T01:24:41.397Z</time>
      </trkpt>
      <trkpt lat="46.08582" lon="6.73731">
        <ele>759.703758</ele>
        <time>2023-03-15T01:24:59.464Z</time>
      </trkpt>
      <trkpt lat="46.08577" lon="6.73722">
        <ele>759.3887</ele>
        <time>2023-03-15T01:25:00.546Z</time>
      </trkpt>
      <trkpt lat="46.0853" lon="6.73612">
        <ele>751.27079</ele>
        <time>2023-03-15T01:25:11.730Z</time>
      </trkpt>
      <trkpt lat="46.08517" lon="6.73596">
        <ele>749.750623</ele>
        <time>2023-03-15T01:25:13.816Z</time>
      </trkpt>
      <trkpt lat="46.08486" lon="6.73589">
        <ele>746.955195</ele>
        <time>2023-03-15T01:25:17.395Z</time>
      </trkpt>
      <trkpt lat="46.08439" lon="6.73552">
        <ele>741.673926</ele>
        <time>2023-03-15T01:25:23.577Z</time>
      </trkpt>
      <trkpt lat="46.08414" lon="6.7352">
        <ele>737.901621</ele>
        <time>2023-03-15T01:25:27.442Z</time>
      </trkpt>
      <trkpt lat="46.084" lon="6.73509">
        <ele>736.126745</ele>
        <time>2023-03-15T01:25:29.319Z</time>
      </trkpt>
      <trkpt lat="46.08392" lon="6.73497">
        <ele>734.797379</ele>
        <time>2023-03-15T01:25:30.797Z</time>
      </trkpt>
      <trkpt lat="46.08391" lon="6.73482">
        <ele>733.603955</ele>
        <time>2023-03-15T01:25:31.963Z</time>
      </trkpt>
      <trkpt lat="46.08374" lon="6.73447">
        <ele>730.171663</ele>
        <time>2023-03-15T01:25:35.618Z</time>
      </trkpt>
      <trkpt lat="46.08361" lon="6.73438">
        <ele>728.578143</ele>
        <time>2023-03-15T01:25:37.217Z</time>
      </trkpt>
      <trkpt lat="46.08339" lon="6.73438">
        <ele>726.01722</ele>
        <time>2023-03-15T01:25:39.941Z</time>
      </trkpt>
      <trkpt lat="46.08312" lon="6.73446">
        <ele>722.985695</ele>
        <time>2023-03-15T01:25:43.241Z</time>
      </trkpt>
      <trkpt lat="46.08294" lon="6.73438">
        <ele>721.80641</ele>
        <time>2023-03-15T01:25:45.426Z</time>
      </trkpt>
      <trkpt lat="46.08265" lon="6.73417">
        <ele>719.800007</ele>
        <time>2023-03-15T01:25:49.291Z</time>
      </trkpt>
      <trkpt lat="46.08224" lon="6.73384">
        <ele>716.848686</ele>
        <time>2023-03-15T01:25:55.519Z</time>
      </trkpt>
      <trkpt lat="46.08178" lon="6.73341">
        <ele>713.453264</ele>
        <time>2023-03-15T01:26:03.100Z</time>
      </trkpt>
      <trkpt lat="46.08153" lon="6.73314">
        <ele>711.744745</ele>
        <time>2023-03-15T01:26:07.450Z</time>
      </trkpt>
      <trkpt lat="46.0815" lon="6.7331">
        <ele>711.663561</ele>
        <time>2023-03-15T01:26:07.938Z</time>
      </trkpt>
      <trkpt lat="46.08097" lon="6.73242">
        <ele>710.106739</ele>
        <time>2023-03-15T01:26:18.576Z</time>
      </trkpt>
      <trkpt lat="46.08051" lon="6.73177">
        <ele>708.722647</ele>
        <time>2023-03-15T01:26:28.744Z</time>
      </trkpt>
      <trkpt lat="46.08046" lon="6.73168">
        <ele>708.555596</ele>
        <time>2023-03-15T01:26:29.899Z</time>
      </trkpt>
      <trkpt lat="46.0805" lon="6.73164">
        <ele>708.459873</ele>
        <time>2023-03-15T01:26:30.659Z</time>
      </trkpt>
      <trkpt lat="46.08051" lon="6.73163">
        <ele>708.438804</ele>
        <time>2023-03-15T01:26:30.836Z</time>
      </trkpt>
      <trkpt lat="46.08059" lon="6.73154">
        <ele>708.200005</ele>
        <time>2023-03-15T01:26:32.744Z</time>
      </trkpt>
      <trkpt lat="46.08061" lon="6.73152">
        <ele>708.1666</ele>
        <time>2023-03-15T01:26:33.016Z</time>
      </trkpt>
      <trkpt lat="46.08063" lon="6.73146">
        <ele>708.047904</ele>
        <time>2023-03-15T01:26:33.941Z</time>
      </trkpt>
      <trkpt lat="46.08096" lon="6.73129">
        <ele>707.681283</ele>
        <time>2023-03-15T01:26:39.959Z</time>
      </trkpt>
      <trkpt lat="46.08128" lon="6.73112">
        <ele>707.371668</ele>
        <time>2023-03-15T01:26:45.800Z</time>
      </trkpt>
      <trkpt lat="46.08135" lon="6.73109">
        <ele>707.303284</ele>
        <time>2023-03-15T01:26:47.048Z</time>
      </trkpt>
      <trkpt lat="46.08152" lon="6.73101">
        <ele>707.141034</ele>
        <time>2023-03-15T01:26:50.136Z</time>
      </trkpt>
      <trkpt lat="46.08162" lon="6.73096">
        <ele>707.041578</ele>
        <time>2023-03-15T01:26:52.041Z</time>
      </trkpt>
      <trkpt lat="46.0818" lon="6.73086">
        <ele>706.867328</ele>
        <time>2023-03-15T01:26:55.315Z</time>
      </trkpt>
      <trkpt lat="46.08182" lon="6.73084">
        <ele>706.839423</ele>
        <time>2023-03-15T01:26:55.876Z</time>
      </trkpt>
      <trkpt lat="46.08198" lon="6.73072">
        <ele>706.675551</ele>
        <time>2023-03-15T01:26:59.029Z</time>
      </trkpt>
      <trkpt lat="46.08201" lon="6.73069">
        <ele>706.639868</ele>
        <time>2023-03-15T01:26:59.694Z</time>
      </trkpt>
      <trkpt lat="46.08223" lon="6.73048">
        <ele>706.398082</ele>
        <time>2023-03-15T01:27:04.231Z</time>
      </trkpt>
      <trkpt lat="46.08224" lon="6.73047">
        <ele>706.386894</ele>
        <time>2023-03-15T01:27:04.441Z</time>
      </trkpt>
      <trkpt lat="46.08244" lon="6.73026">
        <ele>706.041149</ele>
        <time>2023-03-15T01:27:08.409Z</time>
      </trkpt>
      <trkpt lat="46.08249" lon="6.73018">
        <ele>705.908579</ele>
        <time>2023-03-15T01:27:09.709Z</time>
      </trkpt>
      <trkpt lat="46.08257" lon="6.72996">
        <ele>705.619343</ele>
        <time>2023-03-15T01:27:12.504Z</time>
      </trkpt>
      <trkpt lat="46.08263" lon="6.72966">
        <ele>705.255723</ele>
        <time>2023-03-15T01:27:15.905Z</time>
      </trkpt>
      <trkpt lat="46.08269" lon="6.72927">
        <ele>704.796149</ele>
        <time>2023-03-15T01:27:20.186Z</time>
      </trkpt>
      <trkpt lat="46.08271" lon="6.72915">
        <ele>704.651931</ele>
        <time>2023-03-15T01:27:21.537Z</time>
      </trkpt>
      <trkpt lat="46.08271" lon="6.72912">
        <ele>704.610592</ele>
        <time>2023-03-15T01:27:21.921Z</time>
      </trkpt>
      <trkpt lat="46.08274" lon="6.72878">
        <ele>704.213893</ele>
        <time>2023-03-15T01:27:25.555Z</time>
      </trkpt>
      <trkpt lat="46.08291" lon="6.72881">
        <ele>703.918874</ele>
        <time>2023-03-15T01:27:29.273Z</time>
      </trkpt>
      <trkpt lat="46.08291" lon="6.72852">
        <ele>703.5774</ele>
        <time>2023-03-15T01:27:33.569Z</time>
      </trkpt>
      <trkpt lat="46.08295" lon="6.72829">
        <ele>703.296192</ele>
        <time>2023-03-15T01:27:37.147Z</time>
      </trkpt>
      <trkpt lat="46.08301" lon="6.72791">
        <ele>703.291061</ele>
        <time>2023-03-15T01:27:42.830Z</time>
      </trkpt>
      <trkpt lat="46.08295" lon="6.72783">
        <ele>703.291061</ele>
        <time>2023-03-15T01:27:44.494Z</time>
      </trkpt>
      <trkpt lat="46.08287" lon="6.72796">
        <ele>703.291061</ele>
        <time>2023-03-15T01:27:49.728Z</time>
      </trkpt>
      <trkpt lat="46.08329" lon="6.72718">
        <ele>703.291061</ele>
        <time>2023-03-15T01:28:19.022Z</time>
      </trkpt>
    </trkseg>
  </trk>
</gpx>